ftp/pub/palmer/observations_modified/2019/January/AR190121_BASE.txt

Download

Sample DateTime	Unit Id	WS Avg 2min	WD Avg 2min	WGS 10min	WGD 10min	Air Temp	Rel Humidity	Dew Point	Pyranometer	Quantum	Air Pressure	Snow Level	Rainfall	PW Current	Visibility	CBase 1	CBase 2	CBase 3	Vert Vis
2019/01/21 00:00:00	BASE	5.73	332	6.79	335	1.4	100	1.4	18	45	976.4	NA	0.0000		9999	2130	0	0	0
2019/01/21 00:01:00	BASE	6.22	332	7.51	338	1.5	100	1.5	17	43	976.4	NA	0.0000		9999	1540	0	0	0
2019/01/21 00:02:00	BASE	6.42	330	7.51	338	1.5	100	1.5	16	41	976.4	NA	0.0000		9999	1510	0	0	0
2019/01/21 00:03:00	BASE	6.23	328	7.51	338	1.5	100	1.5	15	38	976.4	NA	0.0000		9999	1510	2170	0	0
2019/01/21 00:04:00	BASE	6.26	328	7.51	338	1.5	100	1.5	13	33	976.4	NA	0.0000		9999	590	0	0	0
2019/01/21 00:05:00	BASE	6.08	328	7.51	338	1.5	100	1.5	12	31	976.4	NA	0.0000		9999	330	1050	0	0
2019/01/21 00:06:00	BASE	6.34	327	7.51	338	1.5	100	1.5	11	27	976.4	NA	0.0000		9999	300	0	0	0
2019/01/21 00:07:00	BASE	6.70	327	7.51	338	1.5	100	1.5	10	26	976.4	NA	0.0000		9999	0	0	0	1310
2019/01/21 00:08:00	BASE	6.80	325	7.67	323	1.5	100	1.5	10	25	976.4	NA	0.0000		9999	0	0	0	1350
2019/01/21 00:09:00	BASE	6.70	323	7.67	323	1.4	100	1.4	10	25	976.4	NA	0.0000		9999	0	0	0	1150
2019/01/21 00:10:00	BASE	6.42	325	7.67	323	1.3	100	1.3	12	31	976.4	NA	0.0000	UP	9999	0	0	0	1280
2019/01/21 00:11:00	BASE	6.12	325	7.67	323	1.2	100	1.2	14	34	976.4	NA	0.0000	UP	9999	360	0	0	0
2019/01/21 00:12:00	BASE	5.59	325	7.67	323	1.2	100	1.2	15	38	976.4	NA	0.0000	UP	9999	390	0	0	0
2019/01/21 00:13:00	BASE	5.35	325	7.67	323	1.2	100	1.2	16	40	976.4	NA	0.0000	UP	9999	390	0	0	0
2019/01/21 00:14:00	BASE	5.37	326	7.67	323	1.2	100	1.2	16	41	976.4	NA	0.0000	UP	9999	430	0	0	0
2019/01/21 00:15:00	BASE	5.21	328	7.67	323	1.2	100	1.2	16	40	976.4	NA	0.0000	UP	9999	390	0	0	0
2019/01/21 00:16:00	BASE	5.18	328	7.67	323	1.2	100	1.2	16	39	976.4	NA	0.0000	UP	9999	360	0	0	0
2019/01/21 00:17:00	BASE	5.74	325	7.67	323	1.2	100	1.2	14	35	976.4	NA	0.0000	UP	9999	360	0	0	0
2019/01/21 00:18:00	BASE	6.19	326	7.00	323	1.3	100	1.3	13	32	976.3	NA	0.0000	UP	9999	330	0	0	0
2019/01/21 00:19:00	BASE	6.20	328	6.74	325	1.3	100	1.3	14	34	976.4	NA	0.2540	UP	9999	260	0	0	0
2019/01/21 00:20:00	BASE	6.22	327	6.74	325	1.2	100	1.2	15	37	976.4	NA	0.0000	UP	9999	330	0	0	0
2019/01/21 00:21:00	BASE	6.32	326	6.74	325	1.2	100	1.2	14	34	976.4	NA	0.0000	UP	9999	390	0	0	0
2019/01/21 00:22:00	BASE	6.68	327	8.39	322	1.2	100	1.2	12	29	976.3	NA	0.0000	UP	9999	330	0	0	0
2019/01/21 00:23:00	BASE	7.20	329	8.39	322	1.2	100	1.2	12	30	976.3	NA	0.0000	UP	9999	360	0	0	0
2019/01/21 00:24:00	BASE	7.91	328	9.05	325	1.2	100	1.2	13	32	976.2	NA	0.0000	UP	9999	360	0	0	0
2019/01/21 00:25:00	BASE	8.96	325	10.19	330	1.2	100	1.2	13	31	976.2	NA	0.0000	UP	9999	330	0	0	0
2019/01/21 00:26:00	BASE	9.17	325	10.19	330	1.2	100	1.2	12	30	976.3	NA	0.0000	UP	9999	300	0	0	0
2019/01/21 00:27:00	BASE	8.10	323	10.19	330	1.1	100	1.1	13	31	976.3	NA	0.0000	UP	9999	330	0	0	0
2019/01/21 00:28:00	BASE	7.86	323	10.19	330	1.1	100	1.1	11	26	976.3	NA	0.0000	UP	9999	330	0	0	0
2019/01/21 00:29:00	BASE	8.18	322	10.19	330	1.0	100	1.0	9	23	976.4	NA	0.0000		9999	330	0	0	0
2019/01/21 00:30:00	BASE	7.96	321	10.19	330	1.0	100	1.0	11	28	976.4	NA	0.0000		9999	330	0	0	0
2019/01/21 00:31:00	BASE	7.68	321	10.19	330	1.0	100	1.0	13	32	976.4	NA	0.0000		9999	300	0	0	0
2019/01/21 00:32:00	BASE	7.18	322	10.19	330	1.0	100	1.0	13	32	976.4	NA	0.0000		9999	300	0	0	0
2019/01/21 00:33:00	BASE	6.53	322	10.19	330	1.0	100	1.0	13	32	976.5	NA	0.0000		9999	390	0	0	0
2019/01/21 00:34:00	BASE	6.23	322	10.19	330	0.9	100	0.9	14	34	976.4	NA	0.0000		9999	360	0	0	0
2019/01/21 00:35:00	BASE	6.28	321	9.62	327	0.9	100	0.9	14	34	976.5	NA	0.0000		9999	330	0	0	0
2019/01/21 00:36:00	BASE	6.34	322	9.11	322	0.9	100	0.9	15	35	976.5	NA	0.0000		9999	200	0	0	0
2019/01/21 00:37:00	BASE	6.19	320	9.11	322	0.9	100	0.9	16	38	976.5	NA	0.0000		9999	0	0	0	2660
2019/01/21 00:38:00	BASE	6.26	320	8.54	322	0.9	100	0.9	17	40	976.4	NA	0.0000		9999	330	1570	0	0
2019/01/21 00:39:00	BASE	6.37	322	8.54	322	0.9	100	0.9	18	41	976.4	NA	0.0000		9999	360	0	0	0
2019/01/21 00:40:00	BASE	6.48	321	8.18	319	0.9	100	0.9	18	41	976.4	NA	0.0000		9999	300	0	0	0
2019/01/21 00:41:00	BASE	6.53	321	7.56	323	0.9	100	0.9	14	32	976.4	NA	0.0000		9999	300	0	0	0
2019/01/21 00:42:00	BASE	6.14	324	7.51	321	0.9	100	0.9	12	28	976.5	NA	0.0000		9999	0	0	0	2030
2019/01/21 00:43:00	BASE	6.09	325	7.51	321	0.9	100	0.9	13	28	976.5	NA	0.0000		9999	200	0	0	0
2019/01/21 00:44:00	BASE	6.25	325	7.51	321	0.9	100	0.9	14	31	976.5	NA	0.0000	UP	9999	260	0	0	0
2019/01/21 00:45:00	BASE	6.39	325	7.51	321	0.9	100	0.9	16	34	976.5	NA	0.0000	UP	9999	260	0	0	0
2019/01/21 00:46:00	BASE	6.11	323	7.51	321	0.9	100	0.9	19	40	976.5	NA	0.0000	UP	9999	300	0	0	0
2019/01/21 00:47:00	BASE	5.98	324	7.51	321	0.9	100	0.9	21	43	976.5	NA	0.0000	UP	9999	360	0	0	0
2019/01/21 00:48:00	BASE	6.24	324	7.51	321	0.9	100	0.9	20	41	976.5	NA	0.0000	UP	9999	390	0	0	0
2019/01/21 00:49:00	BASE	6.13	323	7.51	321	0.9	100	0.9	18	37	976.5	NA	0.0000	UP	9999	430	0	0	0
2019/01/21 00:50:00	BASE	5.89	323	7.00	322	1.0	100	1.0	16	35	976.5	NA	0.0000	UP	9999	390	0	0	0
2019/01/21 00:51:00	BASE	6.04	321	7.82	318	1.0	100	1.0	16	34	976.5	NA	0.0000	UP	9999	360	0	0	0
2019/01/21 00:52:00	BASE	6.56	319	7.87	317	1.1	100	1.1	14	31	976.5	NA	0.0000	UP	9999	330	0	0	0
2019/01/21 00:53:00	BASE	6.76	319	7.87	317	1.1	100	1.1	15	33	976.5	NA	0.0000	UP	9999	330	0	0	0
2019/01/21 00:54:00	BASE	6.64	322	7.87	317	1.1	100	1.1	16	35	976.5	NA	0.0000	UP	9999	330	0	0	0
2019/01/21 00:55:00	BASE	6.22	323	7.87	317	1.1	100	1.1	16	35	976.5	NA	0.0000	UP	9999	360	0	0	0
2019/01/21 00:56:00	BASE	6.27	323	7.87	317	1.2	100	1.2	16	34	976.5	NA	0.0000	UP	9999	390	0	0	0
2019/01/21 00:57:00	BASE	6.56	325	7.87	317	1.2	100	1.2	15	33	976.5	NA	0.0000	UP	9999	0	0	0	3840
2019/01/21 00:58:00	BASE	6.52	326	7.87	317	1.2	100	1.2	15	32	976.5	NA	0.0000	UP	9999	430	0	0	0
2019/01/21 00:59:00	BASE	6.76	327	7.87	317	1.2	100	1.2	15	32	976.5	NA	0.0000		9999	920	0	0	0
2019/01/21 01:00:00	BASE	7.29	325	8.23	321	1.2	100	1.2	14	31	976.5	NA	0.0000		9999	460	1380	0	0
2019/01/21 01:01:00	BASE	7.46	323	8.39	322	1.3	100	1.3	14	31	976.5	NA	0.0000		9999	430	0	0	0
2019/01/21 01:02:00	BASE	7.44	325	8.39	322	1.3	100	1.3	14	31	976.5	NA	0.0000		9999	460	0	0	0
2019/01/21 01:03:00	BASE	7.35	325	8.39	322	1.3	100	1.3	13	31	976.5	NA	0.0000	UP	9999	0	0	0	4070
2019/01/21 01:04:00	BASE	7.31	324	8.39	322	1.3	100	1.3	13	31	976.5	NA	0.0000	UP	9999	0	0	0	4100
2019/01/21 01:05:00	BASE	7.34	326	8.39	322	1.3	100	1.3	13	30	976.5	NA	0.0000	UP	9999	0	0	0	6560
2019/01/21 01:06:00	BASE	7.13	325	8.39	322	1.3	100	1.3	12	29	976.4	NA	0.0000	UP	9999	6300	0	0	0
2019/01/21 01:07:00	BASE	7.43	325	8.39	322	1.3	100	1.3	12	29	976.5	NA	0.0000		9999	0	0	0	6760
2019/01/21 01:08:00	BASE	7.92	327	8.95	328	1.3	100	1.3	12	29	976.5	NA	0.0000		9999	5220	0	0	0
2019/01/21 01:09:00	BASE	7.71	326	8.95	328	1.3	100	1.3	12	29	976.5	NA	0.0000		9999	0	0	0	8200
2019/01/21 01:10:00	BASE	7.02	325	8.95	328	1.4	100	1.4	12	28	976.5	NA	0.0000		9999	7970	0	0	0
2019/01/21 01:11:00	BASE	7.23	324	8.95	328	1.4	100	1.4	11	27	976.5	NA	0.0000		9999	7940	0	0	0
2019/01/21 01:12:00	BASE	7.72	324	8.95	328	1.4	100	1.4	11	27	976.5	NA	0.0000		9999	7450	0	0	0
2019/01/21 01:13:00	BASE	7.16	326	8.95	328	1.4	100	1.4	11	27	976.5	NA	0.0000		9999	7680	0	0	0
2019/01/21 01:14:00	BASE	6.43	329	8.95	328	1.4	100	1.4	11	26	976.5	NA	0.0000		9999	0	0	0	2000
2019/01/21 01:15:00	BASE	6.75	329	8.95	328	1.4	100	1.4	11	25	976.5	NA	0.0000		9999	7610	0	0	0
2019/01/21 01:16:00	BASE	7.36	331	8.95	328	1.4	100	1.4	10	25	976.5	NA	0.0000		9999	6500	7840	0	0
2019/01/21 01:17:00	BASE	7.42	332	8.95	328	1.4	100	1.4	10	24	976.5	NA	0.0000		9999	1770	7710	0	0
2019/01/21 01:18:00	BASE	7.31	328	8.69	322	1.4	100	1.4	10	23	976.5	NA	0.0000		9999	7550	0	0	0
2019/01/21 01:19:00	BASE	7.32	329	8.69	322	1.4	100	1.4	10	23	976.5	NA	0.0000		9999	7510	0	0	0
2019/01/21 01:20:00	BASE	6.91	332	8.69	322	1.5	100	1.5	9	22	976.6	NA	0.0000		9999	7680	0	0	0
2019/01/21 01:21:00	BASE	6.20	334	8.69	322	1.5	100	1.5	9	21	976.6	NA	0.0000		9999	7810	0	0	0
2019/01/21 01:22:00	BASE	6.34	333	8.33	335	1.5	100	1.5	9	20	976.6	NA	0.0000		9999	6760	0	0	0
2019/01/21 01:23:00	BASE	6.64	332	8.33	335	1.5	100	1.5	8	20	976.6	NA	0.0000		9999	6790	7380	0	0
2019/01/21 01:24:00	BASE	6.79	331	8.33	335	1.5	100	1.5	8	20	976.6	NA	0.0000		9999	7380	0	0	0
2019/01/21 01:25:00	BASE	7.03	330	8.39	338	1.5	100	1.5	8	19	976.6	NA	0.0000		9999	7680	0	0	0
2019/01/21 01:26:00	BASE	7.37	334	8.39	345	1.5	100	1.5	8	19	976.6	NA	0.0000		9999	7640	0	0	0
2019/01/21 01:27:00	BASE	7.27	335	8.39	345	1.5	100	1.5	8	18	976.6	NA	0.0000		9999	7580	0	0	0
2019/01/21 01:28:00	BASE	7.01	335	8.39	345	1.5	100	1.5	8	18	976.6	NA	0.0000		9999	7510	0	0	0
2019/01/21 01:29:00	BASE	7.22	333	8.39	345	1.5	100	1.5	8	18	976.6	NA	0.0000		9999	7740	0	0	0
2019/01/21 01:30:00	BASE	7.29	331	8.39	345	1.5	100	1.5	8	18	976.6	NA	0.0000		9999	7580	0	0	0
2019/01/21 01:31:00	BASE	7.37	331	8.39	345	1.5	100	1.5	8	17	976.6	NA	0.0000		9999	1540	7580	0	0
2019/01/21 01:32:00	BASE	7.53	329	8.39	345	1.6	100	1.6	8	17	976.6	NA	0.0000		9999	1570	7550	0	0
2019/01/21 01:33:00	BASE	7.59	331	8.39	335	1.6	100	1.6	7	17	976.6	NA	0.0000		9999	7580	0	0	0
2019/01/21 01:34:00	BASE	7.70	332	8.54	333	1.6	100	1.6	7	16	976.6	NA	0.0000		9999	1540	7550	0	0
2019/01/21 01:35:01	BASE	7.10	332	8.54	333	1.6	100	1.6	7	15	976.6	NA	0.0000		9999	7480	0	0	0
2019/01/21 01:36:01	BASE	6.51	330	8.54	333	1.6	100	1.6	6	14	976.6	NA	0.0000		9999	7420	0	0	0
2019/01/21 01:37:01	BASE	7.21	330	8.54	333	1.6	100	1.6	6	14	976.6	NA	0.0000		9999	1740	5840	0	0
2019/01/21 01:38:01	BASE	7.73	333	8.54	333	1.6	100	1.6	6	13	976.6	NA	0.0000		9999	2030	7550	0	0
2019/01/21 01:39:01	BASE	7.51	334	8.54	333	1.6	100	1.6	5	12	976.6	NA	0.0000		9999	1570	0	0	0
2019/01/21 01:40:01	BASE	7.19	332	8.54	333	1.6	100	1.6	5	11	976.6	NA	0.0000		9999	1670	0	0	0
2019/01/21 01:41:01	BASE	7.25	334	8.54	333	1.6	100	1.6	5	11	976.6	NA	0.0000		9999	2030	7550	0	0
2019/01/21 01:42:01	BASE	7.21	333	8.54	333	1.6	100	1.6	5	11	976.6	NA	0.0000		9999	1640	0	0	0
2019/01/21 01:43:00	BASE	6.84	334	8.54	333	1.6	100	1.6	5	10	976.6	NA	0.0000		9999	2000	7480	0	0
2019/01/21 01:44:01	BASE	6.85	336	8.39	336	1.6	100	1.6	5	10	976.6	NA	0.0000		9999	1940	7450	0	0
2019/01/21 01:45:00	BASE	7.41	333	8.39	328	1.6	100	1.6	4	10	976.6	NA	0.0000		9999	1770	7610	0	0
2019/01/21 01:46:00	BASE	7.40	333	8.39	328	1.6	100	1.6	4	9	976.6	NA	0.0000		9999	1800	2430	0	0
2019/01/21 01:47:00	BASE	7.69	333	8.75	331	1.6	100	1.6	4	9	976.6	NA	0.0000		9999	1800	0	0	0
2019/01/21 01:48:01	BASE	7.86	333	8.75	331	1.6	100	1.6	4	9	976.6	NA	0.0000		9999	1970	0	0	0
2019/01/21 01:49:01	BASE	7.26	334	8.75	331	1.6	100	1.6	4	9	976.6	NA	0.0000		9999	1940	0	0	0
2019/01/21 01:50:00	BASE	7.02	333	8.75	331	1.6	100	1.6	4	9	976.7	NA	0.0000		9999	7510	0	0	0
2019/01/21 01:51:00	BASE	6.62	336	8.75	331	1.6	100	1.6	4	9	976.7	NA	0.0000		9999	2850	3310	0	0
2019/01/21 01:52:01	BASE	7.00	339	8.75	331	1.6	100	1.6	4	8	976.6	NA	0.0000		9999	3480	8010	0	0
2019/01/21 01:53:01	BASE	7.05	338	8.75	331	1.6	100	1.6	4	8	976.7	NA	0.0000		9999	7870	11250	0	0
2019/01/21 01:54:01	BASE	6.92	339	8.75	331	1.6	100	1.6	3	7	976.6	NA	0.0000		9999	3310	7840	0	0
2019/01/21 01:55:01	BASE	7.22	337	8.75	331	1.6	100	1.6	3	7	976.6	NA	0.0000		9999	3080	7780	0	0
2019/01/21 01:56:01	BASE	6.72	336	8.75	331	1.6	100	1.6	3	6	976.7	NA	0.0000		9999	2460	0	0	0
2019/01/21 01:57:00	BASE	6.79	338	8.39	349	1.6	100	1.6	3	6	976.6	NA	0.0000		9999	2690	0	0	0
2019/01/21 01:58:01	BASE	7.51	338	8.90	338	1.6	100	1.6	3	5	976.6	NA	0.0000		9999	2690	7810	0	0
2019/01/21 01:59:00	BASE	7.39	341	8.90	338	1.6	100	1.6	3	5	976.6	NA	0.0000		9999	2620	3220	0	0
2019/01/21 02:00:01	BASE	6.80	337	8.90	338	1.7	100	1.7	3	5	976.6	NA	0.0000		9999	2590	0	0	0
2019/01/21 02:01:00	BASE	6.59	333	8.90	338	1.7	100	1.7	3	5	976.6	NA	0.0000		9999	3020	11480	0	0
2019/01/21 02:02:00	BASE	7.74	335	9.93	337	1.7	100	1.7	2	5	976.6	NA	0.0000		9999	2660	0	0	0
2019/01/21 02:03:00	BASE	8.25	336	9.93	337	1.7	100	1.7	2	4	976.6	NA	0.0000		9999	2790	0	0	0
2019/01/21 02:04:01	BASE	7.74	337	9.93	337	1.7	100	1.7	2	4	976.6	NA	0.0000		9999	2790	0	0	0
2019/01/21 02:05:00	BASE	7.83	338	9.93	337	1.7	100	1.7	2	3	976.7	NA	0.0000		9999	2300	0	0	0
2019/01/21 02:06:00	BASE	8.00	341	9.93	337	1.7	100	1.7	2	3	976.7	NA	0.0000		9999	1480	2430	0	0
2019/01/21 02:07:00	BASE	8.41	341	9.93	337	1.7	100	1.7	2	3	976.7	NA	0.0000		9999	1570	0	0	0
2019/01/21 02:08:00	BASE	8.51	340	9.93	337	1.7	100	1.7	2	2	976.7	NA	0.0000		9999	2330	0	0	0
2019/01/21 02:09:00	BASE	8.31	338	9.93	337	1.7	100	1.7	2	2	976.7	NA	0.0000		9999	2200	0	0	0
2019/01/21 02:10:01	BASE	8.03	339	9.93	337	1.7	100	1.7	2	2	976.7	NA	0.0000		9999	1640	2330	0	0
2019/01/21 02:11:00	BASE	7.36	338	9.93	337	1.7	100	1.7	2	2	976.7	NA	0.0000		9999	2100	0	0	0
2019/01/21 02:12:01	BASE	6.93	339	9.36	346	1.7	100	1.7	2	2	976.7	NA	0.0000		9999	2100	0	0	0
2019/01/21 02:13:01	BASE	7.13	342	9.36	346	1.7	100	1.7	2	2	976.7	NA	0.0000		9999	1940	0	0	0
2019/01/21 02:14:00	BASE	7.25	338	9.36	346	1.7	100	1.7	2	2	976.7	NA	0.0000		9999	2100	0	0	0
2019/01/21 02:15:00	BASE	6.81	335	9.36	346	1.7	100	1.7	2	2	976.7	NA	0.0000		9999	2200	3410	0	0
2019/01/21 02:16:00	BASE	6.18	335	9.16	339	1.7	100	1.7	2	1	976.7	NA	0.0000		9999	2360	0	0	0
2019/01/21 02:17:01	BASE	6.29	332	9.05	342	1.7	100	1.7	1	1	976.7	NA	0.0000		9999	2760	0	0	0
2019/01/21 02:18:01	BASE	6.34	333	8.75	334	1.7	100	1.7	1	1	976.8	NA	0.0000		9999	2400	3310	0	0
2019/01/21 02:19:00	BASE	6.14	334	8.33	345	1.7	100	1.7	1	1	976.8	NA	0.0000		9999	2460	0	0	0
2019/01/21 02:20:00	BASE	6.61	335	8.33	345	1.7	100	1.7	1	0	976.8	NA	0.0000		9999	2230	0	0	0
2019/01/21 02:21:00	BASE	6.58	339	8.33	345	1.7	100	1.7	1	0	976.8	NA	0.0000		9999	2170	0	0	0
2019/01/21 02:22:01	BASE	6.36	340	8.33	345	1.7	100	1.7	1	0	976.8	NA	0.0000		9999	1970	0	0	0
2019/01/21 02:23:00	BASE	7.11	340	8.54	345	1.7	100	1.7	1	0	976.7	NA	0.0000		9999	1610	0	0	0
2019/01/21 02:24:00	BASE	7.01	339	8.54	345	1.7	100	1.7	1	0	976.8	NA	0.0000		9999	1800	0	0	0
2019/01/21 02:25:01	BASE	6.57	339	8.54	345	1.7	100	1.7	1	0	976.8	NA	0.0000		9999	1900	0	0	0
2019/01/21 02:26:01	BASE	6.81	339	8.54	345	1.7	100	1.7	1	0	976.8	NA	0.0000		9999	2070	2590	0	0
2019/01/21 02:27:00	BASE	7.20	342	8.80	345	1.7	100	1.7	1	0	976.7	NA	0.0000		9999	2170	2690	0	0
2019/01/21 02:28:01	BASE	7.36	342	8.80	345	1.7	100	1.7	1	0	976.7	NA	0.0000		9999	1970	0	0	0
2019/01/21 02:29:00	BASE	7.05	340	8.80	345	1.8	100	1.8	1	0	976.7	NA	0.0000		9999	2030	0	0	0
2019/01/21 02:30:00	BASE	7.13	337	8.80	345	1.8	100	1.8	1	0	976.8	NA	0.0000		9999	2030	0	0	0
2019/01/21 02:31:00	BASE	7.30	336	8.80	345	1.8	100	1.8	1	0	976.8	NA	0.0000		9999	2000	0	0	0
2019/01/21 02:32:01	BASE	7.20	339	8.80	345	1.8	100	1.8	0	0	976.8	NA	0.0000		9999	2000	0	0	0
2019/01/21 02:33:00	BASE	7.09	341	8.80	345	1.8	100	1.8	0	0	976.8	NA	0.0000		9999	1480	0	0	0
2019/01/21 02:34:01	BASE	7.62	345	8.80	345	1.7	100	1.7	0	0	976.8	NA	0.0000		9999	1640	0	0	0
2019/01/21 02:35:01	BASE	8.38	347	9.21	345	1.7	100	1.7	0	0	976.7	NA	0.0000		9999	1640	0	0	0
2019/01/21 02:36:01	BASE	8.88	346	10.34	354	1.7	100	1.7	0	0	976.7	NA	0.0000		9999	1120	0	0	0
2019/01/21 02:37:01	BASE	9.39	345	10.80	346	1.7	100	1.7	0	0	976.7	NA	0.0000		9999	1310	0	0	0
2019/01/21 02:38:01	BASE	9.86	344	10.91	342	1.7	100	1.7	0	0	976.7	NA	0.0000		9999	1510	0	0	0
2019/01/21 02:39:01	BASE	9.93	343	10.91	342	1.7	100	1.7	0	0	976.7	NA	0.0000		9999	1350	0	0	0
2019/01/21 02:40:01	BASE	9.74	343	10.91	342	1.7	100	1.7	0	0	976.7	NA	0.0000		9999	1480	0	0	0
2019/01/21 02:41:01	BASE	9.86	346	11.32	345	1.7	100	1.7	0	0	976.6	NA	0.0000		9999	1180	0	0	0
2019/01/21 02:42:01	BASE	10.34	347	11.32	345	1.7	100	1.7	0	0	976.7	NA	0.0000		9999	1310	0	0	0
2019/01/21 02:43:01	BASE	10.66	344	11.42	335	1.7	100	1.7	0	0	976.6	NA	0.0000		9999	1080	0	0	0
2019/01/21 02:44:01	BASE	11.13	343	12.60	341	1.7	100	1.7	0	0	976.6	NA	0.0000		9999	790	0	0	0
2019/01/21 02:45:01	BASE	11.51	344	12.60	341	1.7	100	1.7	0	0	976.6	NA	0.0000		9999	850	0	0	0
2019/01/21 02:46:01	BASE	11.25	345	12.60	341	1.7	100	1.7	0	0	976.6	NA	0.0000		9999	790	0	0	0
2019/01/21 02:47:01	BASE	10.73	345	12.60	341	1.7	100	1.7	0	0	976.6	NA	0.0000		9999	460	0	0	0
2019/01/21 02:48:01	BASE	11.33	345	12.81	349	1.7	100	1.7	0	0	976.6	NA	0.0000		9999	660	0	0	0
2019/01/21 02:49:01	BASE	12.25	349	13.12	350	1.7	100	1.7	0	0	976.5	NA	0.0000		9999	560	0	0	0
2019/01/21 02:50:00	BASE	12.26	351	13.12	350	1.6	100	1.6	0	0	976.5	NA	0.0000		9999	620	0	0	0
2019/01/21 02:51:00	BASE	12.16	348	13.12	350	1.6	100	1.6	0	0	976.6	NA	0.0000		9999	520	0	0	0
2019/01/21 02:52:01	BASE	12.02	346	13.12	350	1.6	100	1.6	0	0	976.6	NA	0.0000		9999	460	0	0	0
2019/01/21 02:53:01	BASE	11.92	344	13.12	350	1.6	100	1.6	0	0	976.6	NA	0.0000		9999	460	0	0	0
2019/01/21 02:54:01	BASE	11.36	343	13.12	350	1.5	100	1.5	0	0	976.6	NA	0.0000		9999	390	0	0	0
2019/01/21 02:55:01	BASE	10.47	342	13.12	350	1.5	100	1.5	0	0	976.7	NA	0.0000		9999	430	0	0	0
2019/01/21 02:56:01	BASE	9.74	342	13.12	350	1.5	100	1.5	0	0	976.7	NA	0.0000		9999	490	0	0	0
2019/01/21 02:57:01	BASE	9.16	342	13.12	350	1.5	100	1.5	0	0	976.7	NA	0.0000		9999	460	5380	0	0
2019/01/21 02:58:01	BASE	8.58	341	13.12	350	1.5	100	1.5	0	0	976.7	NA	0.0000		9999	520	5410	0	0
2019/01/21 02:59:01	BASE	8.36	341	13.07	349	1.5	100	1.5	0	0	976.7	NA	0.0000		9999	490	5510	0	0
2019/01/21 03:00:01	BASE	8.40	339	12.81	346	1.4	100	1.4	0	0	976.7	NA	0.0000		9999	460	1280	0	0
2019/01/21 03:01:01	BASE	8.30	336	12.45	346	1.4	100	1.4	0	0	976.7	NA	0.0000		9999	590	5450	0	0
2019/01/21 03:02:01	BASE	8.16	333	12.35	343	1.4	100	1.4	0	0	976.8	NA	0.0000		9999	590	0	0	0
2019/01/21 03:03:01	BASE	7.55	330	11.99	345	1.4	100	1.4	0	0	976.8	NA	0.0000		9999	590	5380	0	0
2019/01/21 03:04:01	BASE	6.99	331	10.65	338	1.4	100	1.4	0	0	976.8	NA	0.0000		9999	560	0	0	0
2019/01/21 03:05:01	BASE	7.53	329	10.65	338	1.4	100	1.4	0	0	976.8	NA	0.0000		9999	590	0	0	0
2019/01/21 03:06:01	BASE	8.56	331	9.67	332	1.4	100	1.4	0	0	976.7	NA	0.0000		9999	620	5480	0	0
2019/01/21 03:07:01	BASE	8.59	329	9.67	332	1.3	100	1.3	0	0	976.7	NA	0.0000		9999	590	6100	0	0
2019/01/21 03:08:01	BASE	7.84	330	9.67	332	1.3	100	1.3	0	0	976.7	NA	0.0000		9999	3940	0	0	0
2019/01/21 03:09:01	BASE	7.19	335	9.67	332	1.3	100	1.3	0	0	976.7	NA	0.0000		9999	3740	0	0	0
2019/01/21 03:10:01	BASE	6.67	335	9.67	332	1.3	100	1.3	0	0	976.7	NA	0.0000		9999	3640	0	0	0
2019/01/21 03:11:01	BASE	6.79	330	9.67	332	1.3	100	1.3	0	0	976.7	NA	0.0000		9999	3410	0	0	0
2019/01/21 03:12:01	BASE	7.17	326	9.67	332	1.3	100	1.3	0	0	976.7	NA	0.0000		9999	3410	0	0	0
2019/01/21 03:13:01	BASE	7.01	330	9.67	332	1.3	100	1.3	0	0	976.7	NA	0.0000		9999	3350	0	0	0
2019/01/21 03:14:01	BASE	6.98	330	9.67	332	1.3	100	1.3	0	0	976.7	NA	0.0000		9999	3380	0	0	0
2019/01/21 03:15:01	BASE	7.60	328	9.67	332	1.3	100	1.3	0	0	976.7	NA	0.0000		9999	920	5380	0	0
2019/01/21 03:16:01	BASE	7.47	330	9.21	335	1.3	100	1.3	0	0	976.7	NA	0.0000		9999	3480	5640	0	0
2019/01/21 03:17:01	BASE	7.51	332	9.21	335	1.4	100	1.4	0	0	976.7	NA	0.0000		9999	3480	5480	0	0
2019/01/21 03:18:01	BASE	8.03	331	9.47	340	1.4	100	1.4	0	0	976.7	NA	0.0000		9999	3510	5740	0	0
2019/01/21 03:19:01	BASE	8.38	330	10.13	327	1.4	100	1.4	0	0	976.6	NA	0.0000		9999	3580	5770	0	0
2019/01/21 03:20:01	BASE	8.83	334	11.42	336	1.4	100	1.4	0	0	976.6	NA	0.0000		9999	6270	0	0	0
2019/01/21 03:21:01	BASE	9.68	338	11.42	336	1.4	100	1.4	0	0	976.5	NA	0.0000		9999	3540	6400	0	0
2019/01/21 03:22:01	BASE	10.19	336	11.42	336	1.4	100	1.4	0	0	976.6	NA	0.0000		9999	3610	6400	0	0
2019/01/21 03:23:01	BASE	9.41	332	11.42	336	1.4	100	1.4	0	0	976.6	NA	0.0000		9999	6370	0	0	0
2019/01/21 03:24:01	BASE	8.86	332	11.42	336	1.4	100	1.4	0	0	976.7	NA	0.0000		9999	1670	4040	0	0
2019/01/21 03:25:01	BASE	9.07	332	11.42	336	1.4	100	1.4	0	0	976.6	NA	0.0000		9999	430	4130	0	0
2019/01/21 03:26:01	BASE	9.09	331	11.42	336	1.4	100	1.4	0	0	976.7	NA	0.0000		9999	1610	4170	0	0
2019/01/21 03:27:01	BASE	8.93	332	11.42	336	1.4	100	1.4	0	0	976.7	NA	0.0000		9999	620	1800	0	0
2019/01/21 03:28:01	BASE	9.21	329	11.42	336	1.4	100	1.4	0	0	976.6	NA	0.0000		9999	1510	0	0	0
2019/01/21 03:29:01	BASE	9.63	330	11.42	336	1.4	100	1.4	0	0	976.6	NA	0.0000		9999	1210	6270	0	0
2019/01/21 03:30:01	BASE	9.58	333	11.21	332	1.4	100	1.4	0	0	976.6	NA	0.0000		9999	1250	6430	0	0
2019/01/21 03:31:01	BASE	9.42	332	10.75	331	1.4	100	1.4	0	0	976.6	NA	0.0000		9999	430	0	0	0
2019/01/21 03:32:01	BASE	9.20	329	10.75	331	1.4	100	1.4	0	0	976.6	NA	0.0000		9999	0	0	0	1540
2019/01/21 03:33:01	BASE	8.82	329	10.75	331	1.4	100	1.4	0	0	976.6	NA	0.0000		9999	6300	0	0	0
2019/01/21 03:34:01	BASE	8.60	330	10.75	331	1.4	100	1.4	0	0	976.7	NA	0.0000		9999	6230	0	0	0
2019/01/21 03:35:01	BASE	8.33	330	10.75	331	1.3	100	1.3	0	0	976.7	NA	0.0000		9999	460	6300	0	0
2019/01/21 03:36:01	BASE	8.44	333	10.75	331	1.3	100	1.3	0	0	976.7	NA	0.0000		9999	6200	0	0	0
2019/01/21 03:37:01	BASE	8.52	334	10.75	331	1.3	100	1.3	0	0	976.6	NA	0.0000		9999	4820	6170	0	0
2019/01/21 03:38:01	BASE	8.28	336	10.75	331	1.3	100	1.3	0	0	976.7	NA	0.0000		9999	720	4630	0	0
2019/01/21 03:39:01	BASE	8.58	339	10.75	331	1.3	100	1.3	0	0	976.6	NA	0.0000		9999	4560	5970	0	0
2019/01/21 03:40:01	BASE	9.09	339	10.65	348	1.3	100	1.3	0	0	976.6	NA	0.0000		9999	4820	5710	0	0
2019/01/21 03:41:01	BASE	9.83	339	11.42	348	1.3	100	1.3	0	0	976.5	NA	0.0000		9999	5680	0	0	0
2019/01/21 03:42:01	BASE	9.87	339	11.42	348	1.3	100	1.3	0	0	976.6	NA	0.0000		9999	5740	0	0	0
2019/01/21 03:43:01	BASE	9.36	337	11.42	348	1.3	100	1.3	0	0	976.6	NA	0.0000		9999	5350	0	0	0
2019/01/21 03:44:01	BASE	9.27	337	11.42	348	1.3	100	1.3	0	0	976.6	NA	0.0000		9999	0	0	0	2560
2019/01/21 03:45:01	BASE	9.68	339	11.42	348	1.3	100	1.3	0	0	976.6	NA	0.0000		9999	0	0	0	2530
2019/01/21 03:46:01	BASE	9.90	341	11.42	348	1.4	100	1.4	0	0	976.6	NA	0.0000		9999	2400	5410	0	0
2019/01/21 03:47:01	BASE	9.78	342	11.42	348	1.4	100	1.4	0	0	976.6	NA	0.0000		9999	2360	0	0	0
2019/01/21 03:48:01	BASE	10.31	342	12.35	343	1.4	100	1.4	0	0	976.6	NA	0.0000		9999	2200	5350	0	0
2019/01/21 03:49:01	BASE	10.01	341	12.35	343	1.4	100	1.4	0	0	976.6	NA	0.0000		9999	2560	0	0	0
2019/01/21 03:50:01	BASE	9.20	340	12.35	343	1.4	100	1.4	0	0	976.6	NA	0.0000		9999	2920	5220	0	0
2019/01/21 03:51:01	BASE	8.77	339	12.35	343	1.4	100	1.4	0	0	976.7	NA	0.0000		9999	2360	0	0	0
2019/01/21 03:52:01	BASE	8.40	337	12.35	343	1.4	100	1.4	0	0	976.7	NA	0.0000		9999	2070	0	0	0
2019/01/21 03:53:01	BASE	8.39	337	12.35	343	1.4	100	1.4	0	0	976.7	NA	0.0000		9999	2560	0	0	0
2019/01/21 03:54:01	BASE	8.28	334	12.35	343	1.4	100	1.4	0	0	976.7	NA	0.0000		9999	2430	0	0	0
2019/01/21 03:55:01	BASE	7.80	334	12.35	343	1.4	100	1.4	0	0	976.7	NA	0.0000		9999	2490	0	0	0
2019/01/21 03:56:01	BASE	7.80	335	12.35	343	1.4	100	1.4	0	0	976.7	NA	0.0000		9999	2460	0	0	0
2019/01/21 03:57:01	BASE	7.91	336	12.35	343	1.4	100	1.4	0	0	976.7	NA	0.0000		9999	2400	0	0	0
2019/01/21 03:58:01	BASE	7.57	336	10.29	335	1.4	100	1.4	0	0	976.7	NA	0.0000		9999	2300	0	0	0
2019/01/21 03:59:01	BASE	7.60	333	9.67	339	1.4	100	1.4	0	0	976.7	NA	0.0000		9999	2790	4040	0	0
2019/01/21 04:00:01	BASE	8.24	334	9.77	336	1.4	100	1.4	0	0	976.7	NA	0.0000		9999	2560	4070	0	0
2019/01/21 04:01:01	BASE	8.02	335	9.77	336	1.4	100	1.4	0	0	976.7	NA	0.0000		9999	520	3970	0	0
2019/01/21 04:02:01	BASE	7.58	337	9.77	336	1.4	100	1.4	0	0	976.7	NA	0.0000		9999	3900	0	0	0
2019/01/21 04:03:01	BASE	8.10	338	9.77	336	1.4	100	1.4	0	0	976.7	NA	0.0000		9999	3080	0	0	0
2019/01/21 04:04:01	BASE	8.43	339	9.77	336	1.4	100	1.4	0	0	976.7	NA	0.0000		9999	0	0	0	2890
2019/01/21 04:05:01	BASE	8.34	338	9.77	336	1.4	100	1.4	0	0	976.7	NA	0.0000		9999	460	0	0	0
2019/01/21 04:06:01	BASE	8.17	336	9.77	336	1.4	100	1.4	0	0	976.7	NA	0.0000		9999	0	0	0	2690
2019/01/21 04:07:01	BASE	7.69	338	9.77	336	1.4	100	1.4	0	0	976.8	NA	0.0000		9999	490	0	0	0
2019/01/21 04:08:01	BASE	7.61	338	9.77	336	1.4	100	1.4	0	0	976.7	NA	0.0000		9999	460	3220	0	0
2019/01/21 04:09:01	BASE	7.68	337	9.77	336	1.4	100	1.4	0	0	976.8	NA	0.0000		9999	390	0	0	0
2019/01/21 04:10:01	BASE	7.24	335	9.57	333	1.4	100	1.4	0	0	976.8	NA	0.0000		9999	0	0	0	3020
2019/01/21 04:11:01	BASE	7.35	339	9.57	333	1.4	100	1.4	0	0	976.7	NA	0.0000		9999	0	0	0	2990
2019/01/21 04:12:01	BASE	7.96	342	9.57	333	1.4	100	1.4	0	0	976.7	NA	0.0000		9999	460	0	0	0
2019/01/21 04:13:01	BASE	8.43	338	9.57	333	1.4	100	1.4	0	0	976.7	NA	0.0000		9999	0	0	0	2950
2019/01/21 04:14:01	BASE	8.15	336	9.57	333	1.4	100	1.4	0	0	976.7	NA	0.0000		9999	520	0	0	0
2019/01/21 04:15:01	BASE	7.80	338	9.36	331	1.4	100	1.4	0	0	976.7	NA	0.0000		9999	0	0	0	3050
2019/01/21 04:16:01	BASE	8.00	341	9.36	331	1.4	100	1.4	0	0	976.7	NA	0.0000		9999	0	0	0	3150
2019/01/21 04:17:01	BASE	8.29	340	9.36	331	1.4	100	1.4	0	0	976.7	NA	0.0000		9999	0	0	0	2990
2019/01/21 04:18:01	BASE	8.84	341	10.03	349	1.4	100	1.4	0	0	976.7	NA	0.0000		9999	0	0	0	3220
2019/01/21 04:19:01	BASE	8.48	341	10.03	349	1.4	100	1.4	0	0	976.8	NA	0.0000		9999	490	0	0	0
2019/01/21 04:20:01	BASE	7.77	340	10.03	349	1.4	100	1.4	0	0	976.8	NA	0.0000		9999	460	0	0	0
2019/01/21 04:21:01	BASE	7.59	340	10.03	349	1.5	100	1.5	0	0	976.8	NA	0.0000		9999	0	0	0	3080
2019/01/21 04:22:01	BASE	7.11	340	10.03	349	1.5	100	1.5	0	0	976.8	NA	0.0000		9999	490	0	0	0
2019/01/21 04:23:01	BASE	7.33	343	10.03	349	1.5	100	1.5	0	0	976.8	NA	0.0000		9999	2720	0	0	0
2019/01/21 04:24:01	BASE	7.65	344	10.03	349	1.5	100	1.5	0	0	976.8	NA	0.0000		9999	2000	0	0	0
2019/01/21 04:25:01	BASE	7.54	342	10.03	349	1.5	100	1.5	0	0	976.8	NA	0.0000		9999	3050	0	0	0
2019/01/21 04:26:01	BASE	7.23	340	10.03	349	1.5	100	1.5	0	0	976.8	NA	0.0000		9999	2100	0	0	0
2019/01/21 04:27:01	BASE	7.06	342	10.03	349	1.5	100	1.5	0	0	976.8	NA	0.0000		9999	3080	0	0	0
2019/01/21 04:28:01	BASE	7.23	342	8.95	344	1.5	100	1.5	0	0	976.8	NA	0.0000		9999	3050	0	0	0
2019/01/21 04:29:01	BASE	7.76	340	8.95	344	1.5	100	1.5	0	0	976.8	NA	0.0000		9999	3050	0	0	0
2019/01/21 04:30:01	BASE	8.29	342	8.95	344	1.5	100	1.5	0	0	976.8	NA	0.0000		9999	3050	0	0	0
2019/01/21 04:31:01	BASE	8.16	344	8.95	344	1.5	100	1.5	0	0	976.8	NA	0.0000		9999	3020	0	0	0
2019/01/21 04:32:01	BASE	8.08	343	8.95	344	1.5	100	1.5	0	0	976.7	NA	0.0000		9999	3080	0	0	0
2019/01/21 04:33:01	BASE	8.16	343	8.85	337	1.5	100	1.5	0	0	976.8	NA	0.0000		9999	0	0	0	3510
2019/01/21 04:34:01	BASE	8.25	342	8.85	337	1.5	100	1.5	0	0	976.8	NA	0.0000		9999	0	0	0	3580
2019/01/21 04:35:01	BASE	8.00	342	8.85	337	1.5	100	1.5	0	0	976.8	NA	0.0000		9999	0	0	0	3580
2019/01/21 04:36:01	BASE	7.96	342	9.16	341	1.5	100	1.5	0	0	976.8	NA	0.0000		9999	330	0	0	0
2019/01/21 04:37:01	BASE	8.39	341	9.21	345	1.5	100	1.5	0	0	976.8	NA	0.0000		9999	330	0	0	0
2019/01/21 04:38:01	BASE	8.52	341	9.26	340	1.5	100	1.5	0	0	976.8	NA	0.0000		9999	0	0	0	2400
2019/01/21 04:39:01	BASE	8.87	344	9.77	346	1.5	100	1.5	0	0	976.8	NA	0.0000		9999	0	0	0	2760
2019/01/21 04:40:01	BASE	9.02	346	9.77	346	1.5	100	1.5	0	0	976.8	NA	0.0000		9999	0	0	0	2920
2019/01/21 04:41:01	BASE	8.67	345	9.77	346	1.5	100	1.5	0	0	976.8	NA	0.0000		9999	0	0	0	3250
2019/01/21 04:42:01	BASE	8.48	342	9.77	346	1.5	100	1.5	0	0	976.8	NA	0.0000		9999	0	0	0	4360
2019/01/21 04:43:01	BASE	8.27	341	9.77	346	1.5	100	1.5	0	0	976.8	NA	0.0000		9999	390	0	0	0
2019/01/21 04:44:01	BASE	8.02	341	9.77	346	1.5	100	1.5	0	0	976.8	NA	0.0000		9999	390	0	0	0
2019/01/21 04:45:01	BASE	7.69	342	9.77	346	1.5	100	1.5	0	0	976.9	NA	0.0000		9999	390	0	0	0
2019/01/21 04:46:01	BASE	7.23	341	9.77	346	1.5	100	1.5	0	0	977.0	NA	0.0000		9999	430	0	0	0
2019/01/21 04:47:01	BASE	7.47	341	9.77	346	1.5	100	1.5	0	0	976.9	NA	0.0000		9999	430	0	0	0
2019/01/21 04:48:01	BASE	7.98	341	9.77	346	1.5	100	1.5	0	0	976.9	NA	0.0000		9999	0	0	0	4330
2019/01/21 04:49:01	BASE	8.15	342	9.36	338	1.5	100	1.5	0	0	976.9	NA	0.0000		9999	0	0	0	4660
2019/01/21 04:50:01	BASE	8.55	343	9.88	346	1.5	100	1.5	0	0	976.9	NA	0.0000		9999	0	0	0	4360
2019/01/21 04:51:01	BASE	8.35	342	9.88	346	1.5	100	1.5	0	0	976.9	NA	0.0000		9999	0	0	0	4690
2019/01/21 04:52:01	BASE	7.92	343	9.88	346	1.5	100	1.5	0	0	976.9	NA	0.0000		9999	0	0	0	4950
2019/01/21 04:53:01	BASE	7.60	339	9.88	346	1.5	100	1.5	0	0	977.0	NA	0.0000		9999	3900	0	0	0
2019/01/21 04:54:01	BASE	7.33	335	9.88	346	1.5	100	1.5	0	0	976.9	NA	0.0000		9999	430	0	0	0
2019/01/21 04:55:01	BASE	7.50	338	9.88	346	1.4	100	1.4	0	0	977.0	NA	0.0000		9999	430	0	0	0
2019/01/21 04:56:01	BASE	7.81	338	9.88	346	1.4	100	1.4	0	0	977.0	NA	0.0000		9999	0	0	0	4070
2019/01/21 04:57:01	BASE	7.47	334	9.88	346	1.4	100	1.4	0	0	977.0	NA	0.0000		9999	360	0	0	0
2019/01/21 04:58:01	BASE	7.11	333	9.88	346	1.4	100	1.4	0	0	977.0	NA	0.0000		9999	0	0	0	4330
2019/01/21 04:59:01	BASE	7.18	332	9.88	346	1.4	100	1.4	0	0	977.0	NA	0.0000		9999	0	0	0	4430
2019/01/21 05:00:01	BASE	7.06	331	9.11	330	1.4	100	1.4	0	0	977.0	NA	0.0000		9999	0	0	0	4430
2019/01/21 05:01:01	BASE	6.88	333	9.11	330	1.4	100	1.4	0	0	977.0	NA	0.0000		9999	0	0	0	4400
2019/01/21 05:02:01	BASE	6.48	335	9.11	330	1.3	100	1.3	0	0	977.0	NA	0.0000		9999	0	0	0	4270
2019/01/21 05:03:01	BASE	6.46	333	9.11	330	1.3	100	1.3	0	0	977.0	NA	0.0000		9999	0	0	0	4230
2019/01/21 05:04:01	BASE	6.74	331	9.11	330	1.3	100	1.3	0	0	977.0	NA	0.0000		9999	0	0	0	3810
2019/01/21 05:05:01	BASE	6.76	332	9.11	330	1.3	100	1.3	0	0	977.0	NA	0.2540		9999	0	0	0	3870
2019/01/21 05:06:01	BASE	6.84	332	8.64	336	1.3	100	1.3	0	0	977.0	NA	0.0000		9999	0	0	0	3510
2019/01/21 05:07:01	BASE	6.78	334	8.64	336	1.3	100	1.3	0	0	977.0	NA	0.0000		9999	0	0	0	3580
2019/01/21 05:08:01	BASE	6.48	332	8.33	332	1.3	100	1.3	0	0	977.0	NA	0.0000		9999	0	0	0	3380
2019/01/21 05:09:01	BASE	6.73	331	8.33	332	1.3	100	1.3	0	0	976.9	NA	0.0000		9999	0	0	0	3050
2019/01/21 05:10:01	BASE	7.21	330	8.33	332	1.3	100	1.3	0	0	977.0	NA	0.0000		9999	0	0	0	3250
2019/01/21 05:11:01	BASE	7.28	331	8.33	332	1.3	100	1.3	0	0	977.0	NA	0.0000		9999	300	0	0	0
2019/01/21 05:12:01	BASE	7.41	331	8.54	331	1.3	100	1.3	0	0	976.9	NA	0.0000		9999	0	0	0	3310
2019/01/21 05:13:01	BASE	7.58	331	9.21	336	1.3	100	1.3	0	0	977.0	NA	0.0000	UP	9999	330	0	0	0
2019/01/21 05:14:01	BASE	7.19	333	9.21	336	1.3	100	1.3	0	0	977.0	NA	0.0000	UP	9999	0	0	0	2890
2019/01/21 05:15:01	BASE	6.97	333	9.21	336	1.3	100	1.3	0	0	977.0	NA	0.0000	UP	9999	0	0	0	2850
2019/01/21 05:16:01	BASE	7.38	333	9.21	336	1.3	100	1.3	0	0	977.0	NA	0.0000	UP	9999	0	0	0	2950
2019/01/21 05:17:01	BASE	7.51	336	9.21	336	1.3	100	1.3	0	0	977.0	NA	0.0000	UP	9999	0	0	0	2760
2019/01/21 05:18:01	BASE	7.72	333	10.29	336	1.3	100	1.3	0	0	976.9	NA	0.0000	UP	9999	0	0	0	2760
2019/01/21 05:19:01	BASE	8.41	330	10.29	336	1.3	100	1.3	0	0	976.8	NA	0.0000	UP	9999	0	0	0	2820
2019/01/21 05:20:01	BASE	8.53	334	10.29	336	1.3	100	1.3	0	0	976.9	NA	0.0000	UP	9999	0	0	0	2850
2019/01/21 05:21:01	BASE	8.39	335	10.29	336	1.3	100	1.3	0	0	976.9	NA	0.0000	UP	9999	0	0	0	2950
2019/01/21 05:22:01	BASE	8.22	333	10.29	336	1.3	100	1.3	0	0	976.9	NA	0.0000	UP	9999	0	0	0	3080
2019/01/21 05:23:01	BASE	8.03	331	10.29	336	1.3	100	1.3	0	0	976.9	NA	0.0000	UP	9999	0	0	0	3350
2019/01/21 05:24:01	BASE	7.91	333	10.29	336	1.3	100	1.3	0	0	976.9	NA	0.0000	UP	9999	0	0	0	3150
2019/01/21 05:25:01	BASE	7.49	334	10.29	336	1.3	100	1.3	0	0	977.0	NA	0.0000		9999	0	0	0	3220
2019/01/21 05:26:01	BASE	7.27	335	10.29	336	1.2	100	1.2	0	0	977.0	NA	0.0000		9999	0	0	0	2790
2019/01/21 05:27:01	BASE	7.61	335	10.29	336	1.2	100	1.2	0	0	977.0	NA	0.0000		9999	0	0	0	3350
2019/01/21 05:28:01	BASE	8.17	334	9.88	324	1.3	100	1.3	0	0	977.0	NA	0.0000		9999	0	0	0	3280
2019/01/21 05:29:01	BASE	8.53	335	9.41	329	1.3	100	1.3	0	0	976.9	NA	0.0000		9999	0	0	0	3250
2019/01/21 05:30:01	BASE	8.49	333	9.41	329	1.3	100	1.3	0	0	976.9	NA	0.0000		9999	0	0	0	2950
2019/01/21 05:31:01	BASE	8.41	332	9.41	329	1.3	100	1.3	0	0	977.0	NA	0.0000		9999	0	0	0	2990
2019/01/21 05:32:01	BASE	8.40	330	9.41	329	1.3	100	1.3	0	0	977.0	NA	0.0000		9999	0	0	0	2690
2019/01/21 05:33:01	BASE	8.02	329	9.41	329	1.3	100	1.3	0	0	977.0	NA	0.0000		9999	0	0	0	2620
2019/01/21 05:34:01	BASE	7.92	331	9.41	329	1.3	100	1.3	0	0	977.0	NA	0.0000		9999	0	0	0	3080
2019/01/21 05:35:01	BASE	7.86	331	9.41	329	1.2	100	1.2	0	0	977.0	NA	0.0000		9999	330	0	0	0
2019/01/21 05:36:01	BASE	7.70	331	9.41	329	1.2	100	1.2	0	0	977.0	NA	0.0000		9999	1970	0	0	0
2019/01/21 05:37:01	BASE	7.95	333	9.41	329	1.2	100	1.2	0	0	977.0	NA	0.0000		9999	330	0	0	0
2019/01/21 05:38:01	BASE	8.36	332	9.36	349	1.2	100	1.2	0	0	977.0	NA	0.0000		9999	300	0	0	0
2019/01/21 05:39:01	BASE	7.96	332	9.31	332	1.2	100	1.2	0	0	977.0	NA	0.0000		9999	0	0	0	2360
2019/01/21 05:40:01	BASE	7.38	333	9.31	332	1.2	100	1.2	0	0	977.0	NA	0.0000		9999	0	0	0	2360
2019/01/21 05:41:01	BASE	7.32	332	9.31	332	1.1	100	1.1	0	0	977.1	NA	0.0000		9999	0	0	0	2400
2019/01/21 05:42:01	BASE	7.74	330	9.31	332	1.1	100	1.1	0	0	977.0	NA	0.0000		9999	0	0	0	2560
2019/01/21 05:43:01	BASE	7.62	332	9.31	332	1.1	100	1.1	0	0	977.0	NA	0.0000		9999	0	0	0	2460
2019/01/21 05:44:01	BASE	6.97	333	9.31	332	1.1	100	1.1	0	0	977.1	NA	0.0000		9999	0	0	0	2300
2019/01/21 05:45:01	BASE	7.33	332	9.31	332	1.1	100	1.1	0	0	977.0	NA	0.0000		9999	330	0	0	0
2019/01/21 05:46:01	BASE	7.91	332	9.31	332	1.1	100	1.1	0	0	977.0	NA	0.0000		9999	0	0	0	2400
2019/01/21 05:47:01	BASE	7.54	331	9.31	332	1.1	100	1.1	0	0	977.1	NA	0.0000		9999	360	0	0	0
2019/01/21 05:48:01	BASE	7.25	330	9.26	332	1.1	100	1.1	0	0	977.0	NA	0.0000		9999	0	0	0	2850
2019/01/21 05:49:01	BASE	7.41	331	9.26	332	1.1	100	1.1	0	0	977.0	NA	0.0000		9999	0	0	0	2850
2019/01/21 05:50:01	BASE	7.74	334	9.26	332	1.2	100	1.2	0	0	977.0	NA	0.0000		9999	0	0	0	2950
2019/01/21 05:51:01	BASE	8.31	335	9.88	337	1.2	100	1.2	0	0	977.0	NA	0.0000		9999	0	0	0	2950
2019/01/21 05:52:01	BASE	8.70	335	9.88	337	1.2	100	1.2	0	0	977.0	NA	0.0000		9999	0	0	0	2850
2019/01/21 05:53:01	BASE	8.46	334	9.88	337	1.2	100	1.2	0	0	977.0	NA	0.0000		9999	0	0	0	3050
2019/01/21 05:54:01	BASE	7.71	334	9.88	337	1.2	100	1.2	0	0	977.0	NA	0.0000		9999	0	0	0	3710
2019/01/21 05:55:01	BASE	7.58	333	9.88	337	1.1	100	1.1	0	0	977.0	NA	0.0000		9999	0	0	0	4200
2019/01/21 05:56:01	BASE	7.77	333	9.88	337	1.1	100	1.1	0	0	977.0	NA	0.0000		9999	0	0	0	5770
2019/01/21 05:57:01	BASE	7.81	333	9.88	337	1.2	100	1.2	0	0	977.0	NA	0.0000		9999	0	0	0	6460
2019/01/21 05:58:01	BASE	7.88	332	9.88	337	1.2	100	1.2	0	0	977.0	NA	0.0000		9999	0	0	0	6430
2019/01/21 05:59:01	BASE	8.13	332	9.88	337	1.2	100	1.2	0	0	977.0	NA	0.0000		9999	0	0	0	7050
2019/01/21 06:00:01	BASE	7.79	332	9.88	337	1.2	100	1.2	0	0	977.0	NA	0.0000		9999	0	0	0	7250
2019/01/21 06:01:01	BASE	7.87	330	9.77	331	1.2	100	1.2	0	0	977.0	NA	0.0000		9999	0	0	0	6820
2019/01/21 06:02:01	BASE	8.20	331	9.77	331	1.2	100	1.2	0	0	977.0	NA	0.0000		9999	390	0	0	0
2019/01/21 06:03:01	BASE	7.68	334	9.77	331	1.2	100	1.2	0	0	977.0	NA	0.0000		9999	0	0	0	5770
2019/01/21 06:04:01	BASE	8.07	333	9.77	331	1.2	100	1.2	0	0	977.0	NA	0.0000		9999	390	0	0	0
2019/01/21 06:05:01	BASE	8.62	333	9.77	331	1.2	100	1.2	0	0	977.0	NA	0.0000		9999	0	0	0	6000
2019/01/21 06:06:01	BASE	8.10	334	9.77	331	1.2	100	1.2	0	0	977.0	NA	0.0000		9999	0	0	0	6630
2019/01/21 06:07:01	BASE	7.90	334	9.77	331	1.2	100	1.2	0	0	976.9	NA	0.0000		9999	0	0	0	6500
2019/01/21 06:08:01	BASE	8.26	335	9.77	331	1.3	100	1.3	0	0	976.9	NA	0.0000		9999	0	0	0	7150
2019/01/21 06:09:01	BASE	8.12	333	9.77	331	1.3	100	1.3	0	0	977.0	NA	0.0000		9999	0	0	0	7050
2019/01/21 06:10:01	BASE	8.19	331	9.77	331	1.3	100	1.3	0	0	976.9	NA	0.0000		9999	0	0	0	6860
2019/01/21 06:11:01	BASE	7.96	333	9.52	333	1.3	100	1.3	0	0	977.0	NA	0.0000		9999	0	0	0	6860
2019/01/21 06:12:01	BASE	7.72	335	9.52	333	1.3	100	1.3	0	0	976.9	NA	0.0000		9999	0	0	0	6370
2019/01/21 06:13:01	BASE	8.49	333	10.19	343	1.3	100	1.3	0	0	976.9	NA	0.0000		9999	0	0	0	4590
2019/01/21 06:14:01	BASE	8.26	333	10.19	343	1.3	100	1.3	0	0	977.0	NA	0.0000		9999	0	0	0	3870
2019/01/21 06:15:01	BASE	7.77	332	10.19	343	1.3	100	1.3	0	0	977.0	NA	0.0000		9999	360	0	0	0
2019/01/21 06:16:01	BASE	7.95	333	10.19	343	1.3	100	1.3	0	0	977.0	NA	0.0000		9999	0	0	0	2460
2019/01/21 06:17:01	BASE	8.08	334	10.19	343	1.3	100	1.3	0	0	977.0	NA	0.0000		9999	0	0	0	2850
2019/01/21 06:18:01	BASE	8.27	333	10.19	343	1.3	100	1.3	0	0	977.0	NA	0.0000		9999	0	0	0	2790
2019/01/21 06:19:01	BASE	8.12	334	10.19	343	1.3	100	1.3	0	0	977.0	NA	0.0000		9999	950	0	0	0
2019/01/21 06:20:01	BASE	8.24	336	10.19	343	1.2	100	1.2	0	0	977.0	NA	0.0000		9999	360	0	0	0
2019/01/21 06:21:01	BASE	8.36	334	10.19	343	1.2	100	1.2	0	0	977.0	NA	0.0000		9999	0	0	0	3080
2019/01/21 06:22:01	BASE	7.95	333	10.19	343	1.2	100	1.2	0	0	977.0	NA	0.0000		9999	0	0	0	3510
2019/01/21 06:23:01	BASE	8.18	335	9.83	327	1.2	100	1.2	0	0	977.0	NA	0.0000		9999	0	0	0	3450
2019/01/21 06:24:01	BASE	8.61	333	9.83	327	1.2	100	1.2	0	0	977.0	NA	0.2540		9999	0	0	0	3250
2019/01/21 06:25:01	BASE	8.13	331	9.83	327	1.2	100	1.2	0	0	977.0	NA	0.0000		9999	0	0	0	4460
2019/01/21 06:26:01	BASE	7.35	333	9.83	327	1.2	100	1.2	1	0	977.0	NA	0.0000		9999	0	0	0	4920
2019/01/21 06:27:01	BASE	7.93	333	9.62	328	1.2	100	1.2	1	0	977.0	NA	0.0000		9999	360	0	0	0
2019/01/21 06:28:01	BASE	8.39	333	9.62	328	1.2	100	1.2	1	0	977.0	NA	0.0000		9999	0	0	0	4990
2019/01/21 06:29:01	BASE	8.19	334	9.62	328	1.2	100	1.2	1	0	977.0	NA	0.0000		9999	0	0	0	5410
2019/01/21 06:30:01	BASE	8.24	334	9.62	328	1.2	100	1.2	1	0	977.0	NA	0.0000		9999	0	0	0	4860
2019/01/21 06:31:01	BASE	8.01	334	9.77	331	1.2	100	1.2	1	0	977.0	NA	0.0000		9999	0	0	0	4720
2019/01/21 06:32:01	BASE	8.57	333	9.93	330	1.2	100	1.2	1	0	976.9	NA	0.0000		9999	0	0	0	4270
2019/01/21 06:33:01	BASE	9.06	332	9.98	336	1.2	100	1.2	1	0	976.9	NA	0.0000		9999	0	0	0	3900
2019/01/21 06:34:01	BASE	8.43	332	9.98	336	1.2	100	1.2	1	0	977.0	NA	0.0000		9999	330	0	0	0
2019/01/21 06:35:01	BASE	8.19	331	9.98	336	1.2	100	1.2	1	0	976.9	NA	0.0000		9999	330	0	0	0
2019/01/21 06:36:01	BASE	8.34	331	9.98	336	1.2	100	1.2	1	0	976.9	NA	0.0000		9999	330	0	0	0
2019/01/21 06:37:01	BASE	7.66	332	9.98	336	1.2	100	1.2	1	1	977.0	NA	0.0000		9999	330	0	0	0
2019/01/21 06:38:01	BASE	7.37	334	9.98	336	1.2	100	1.2	1	1	977.0	NA	0.0000		9999	330	0	0	0
2019/01/21 06:39:01	BASE	7.76	334	9.98	336	1.2	100	1.2	1	1	977.0	NA	0.0000		9999	330	0	0	0
2019/01/21 06:40:01	BASE	7.80	334	9.98	336	1.2	100	1.2	2	1	976.9	NA	0.0000		9999	0	0	0	2620
2019/01/21 06:41:01	BASE	7.93	333	9.98	336	1.2	100	1.2	2	2	976.9	NA	0.0000		9999	0	0	0	2660
2019/01/21 06:42:01	BASE	8.10	333	9.98	336	1.2	100	1.2	2	2	976.9	NA	0.0000		9999	0	0	0	6000
2019/01/21 06:43:01	BASE	7.46	335	9.21	335	1.2	100	1.2	2	2	976.9	NA	0.0000		9999	0	0	0	5970
2019/01/21 06:44:01	BASE	7.72	334	9.52	336	1.2	100	1.2	2	2	976.9	NA	0.0000		9999	0	0	0	5680
2019/01/21 06:45:01	BASE	8.88	333	9.83	336	1.2	100	1.2	2	2	976.8	NA	0.0000		9999	0	0	0	5710
2019/01/21 06:46:01	BASE	9.06	331	9.83	336	1.2	100	1.2	2	2	976.9	NA	0.0000		9999	0	0	0	6920
2019/01/21 06:47:01	BASE	8.73	330	9.83	336	1.2	100	1.2	2	2	976.9	NA	0.0000		9999	430	0	0	0
2019/01/21 06:48:01	BASE	8.51	332	9.83	336	1.2	100	1.2	2	2	976.9	NA	0.0000		9999	360	0	0	0
2019/01/21 06:49:01	BASE	8.33	332	9.83	336	1.2	100	1.2	2	2	977.0	NA	0.0000		9999	330	0	0	0
2019/01/21 06:50:01	BASE	8.15	330	9.83	336	1.2	100	1.2	2	2	977.0	NA	0.0000		9999	360	0	0	0
2019/01/21 06:51:01	BASE	7.96	332	9.83	336	1.2	100	1.2	2	2	977.0	NA	0.0000		9999	360	0	0	0
2019/01/21 06:52:01	BASE	7.66	333	9.83	336	1.2	100	1.2	2	3	977.0	NA	0.0000		9999	330	0	0	0
2019/01/21 06:53:01	BASE	7.40	332	9.83	336	1.2	100	1.2	2	3	977.0	NA	0.0000		9999	330	0	0	0
2019/01/21 06:54:01	BASE	7.85	333	9.83	337	1.2	100	1.2	2	3	977.0	NA	0.0000		9999	360	0	0	0
2019/01/21 06:55:01	BASE	8.79	334	9.83	337	1.2	100	1.2	2	3	977.0	NA	0.0000		9999	330	0	0	0
2019/01/21 06:56:01	BASE	8.72	334	9.83	337	1.2	100	1.2	2	4	977.0	NA	0.0000		9999	360	0	0	0
2019/01/21 06:57:01	BASE	8.29	334	9.83	337	1.2	100	1.2	2	4	977.0	NA	0.0000		9999	360	0	0	0
2019/01/21 06:58:01	BASE	7.96	334	9.83	337	1.2	100	1.2	2	4	977.0	NA	0.0000		9999	0	0	0	4720
2019/01/21 06:59:01	BASE	8.03	333	9.83	337	1.2	100	1.2	2	4	977.0	NA	0.0000		9999	0	0	0	4690
2019/01/21 07:00:01	BASE	8.49	332	9.83	337	1.2	100	1.2	2	4	977.0	NA	0.0000		9999	0	0	0	3150
2019/01/21 07:01:01	BASE	8.43	331	9.83	337	1.2	100	1.2	2	4	977.0	NA	0.0000		9999	360	0	0	0
2019/01/21 07:02:01	BASE	8.17	332	9.83	337	1.2	100	1.2	2	4	977.0	NA	0.0000		9999	360	0	0	0
2019/01/21 07:03:01	BASE	7.81	332	9.83	337	1.2	100	1.2	2	4	977.1	NA	0.0000		9999	360	0	0	0
2019/01/21 07:04:01	BASE	7.57	332	9.67	345	1.2	100	1.2	2	4	977.1	NA	0.0000		9999	360	0	0	0
2019/01/21 07:05:01	BASE	8.07	332	9.67	345	1.1	100	1.1	2	4	977.0	NA	0.0000		9999	360	0	0	0
2019/01/21 07:06:01	BASE	8.24	334	9.67	345	1.1	100	1.1	2	4	977.1	NA	0.0000		9999	0	0	0	2430
2019/01/21 07:07:01	BASE	7.87	332	9.41	337	1.1	100	1.1	2	4	977.1	NA	0.0000		9999	300	0	0	0
2019/01/21 07:08:01	BASE	8.00	331	9.41	337	1.1	100	1.1	2	4	977.0	NA	0.0000		9999	920	0	0	0
2019/01/21 07:09:01	BASE	8.38	331	9.41	337	1.1	100	1.1	2	4	977.1	NA	0.0000		9999	300	0	0	0
2019/01/21 07:10:01	BASE	8.42	333	9.41	337	1.1	100	1.1	2	5	977.1	NA	0.0000		9999	300	0	0	0
2019/01/21 07:11:01	BASE	8.24	334	9.21	336	1.1	100	1.1	2	5	977.1	NA	0.0000		9999	260	0	0	0
2019/01/21 07:12:01	BASE	8.27	332	9.62	335	1.1	100	1.1	2	4	977.1	NA	0.0000		9999	0	0	0	1970
2019/01/21 07:13:01	BASE	8.67	331	9.93	326	1.1	100	1.1	2	4	977.0	NA	0.0000		9999	300	0	0	0
2019/01/21 07:14:01	BASE	8.90	332	9.93	326	1.0	100	1.0	2	4	977.1	NA	0.0000		9999	260	0	0	0
2019/01/21 07:15:01	BASE	8.40	334	9.93	326	1.0	100	1.0	2	5	977.1	NA	0.0000		9999	260	0	0	0
2019/01/21 07:16:01	BASE	8.05	333	9.93	326	1.0	100	1.0	2	5	977.1	NA	0.0000		9999	260	0	0	0
2019/01/21 07:17:01	BASE	8.06	331	9.93	326	1.0	100	1.0	2	5	977.1	NA	0.0000		9999	0	0	0	1800
2019/01/21 07:18:00	BASE	7.73	331	9.93	326	1.0	100	1.0	2	5	977.1	NA	0.0000		9999	300	0	0	0
2019/01/21 07:19:00	BASE	7.70	330	9.93	326	0.9	100	0.9	2	5	977.1	NA	0.0000		9999	300	0	0	0
2019/01/21 07:20:01	BASE	8.25	329	9.93	326	0.9	100	0.9	2	4	977.1	NA	0.0000		9999	260	0	0	0
2019/01/21 07:21:01	BASE	8.32	329	9.93	326	0.9	100	0.9	2	5	977.1	NA	0.2540		9999	260	0	0	0
2019/01/21 07:22:01	BASE	7.98	327	9.93	326	0.9	100	0.9	3	6	977.1	NA	0.0000		9999	260	0	0	0
2019/01/21 07:23:01	BASE	8.24	328	9.67	337	0.9	100	0.9	3	6	977.1	NA	0.0000		9999	260	0	0	0
2019/01/21 07:24:01	BASE	9.02	329	11.42	324	0.9	100	0.9	3	6	977.1	NA	0.0000		9999	300	0	0	0
2019/01/21 07:25:01	BASE	9.74	329	11.42	324	0.9	100	0.9	4	7	977.1	NA	0.0000		9999	260	0	0	0
2019/01/21 07:26:01	BASE	9.93	326	11.42	324	0.9	100	0.9	5	9	977.0	NA	0.0000		9999	230	0	0	0
2019/01/21 07:27:01	BASE	9.35	325	11.42	324	0.9	100	0.9	6	11	977.1	NA	0.0000	UP	9999	230	0	0	0
2019/01/21 07:28:01	BASE	8.83	328	11.42	324	0.9	100	0.9	7	13	977.1	NA	0.0000	UP	9999	0	0	0	1800
2019/01/21 07:29:00	BASE	8.71	329	11.42	324	0.8	100	0.8	7	13	977.1	NA	0.0000	UP	9999	0	0	0	2130
2019/01/21 07:30:00	BASE	8.84	328	11.42	324	0.8	100	0.8	8	15	977.1	NA	0.0000	UP	9999	0	0	0	2100
2019/01/21 07:31:00	BASE	9.14	329	11.42	324	0.8	100	0.8	9	15	977.1	NA	0.0000	UP	9999	0	0	0	2720
2019/01/21 07:32:00	BASE	9.23	329	11.42	324	0.8	100	0.8	9	16	977.1	NA	0.0000	UP	9999	0	0	0	2920
2019/01/21 07:33:00	BASE	9.32	329	11.42	324	0.8	100	0.8	10	17	977.1	NA	0.0000	UP	9999	330	0	0	0
2019/01/21 07:34:00	BASE	8.54	330	11.06	320	0.8	100	0.8	10	18	977.1	NA	0.0000	UP	9999	0	0	0	2790
2019/01/21 07:35:00	BASE	7.96	332	11.06	320	0.8	100	0.8	11	19	977.2	NA	0.0000	UP	9999	0	0	0	3410
2019/01/21 07:36:00	BASE	8.07	334	10.65	329	0.8	100	0.8	11	19	977.2	NA	0.0000	UP	9999	0	0	0	3710
2019/01/21 07:37:00	BASE	7.58	332	10.65	329	0.9	100	0.9	11	20	977.2	NA	0.0000		9999	0	0	0	3580
2019/01/21 07:38:00	BASE	7.31	332	10.65	329	0.9	100	0.9	11	19	977.2	NA	0.0000		9999	0	0	0	3770
2019/01/21 07:39:00	BASE	7.14	335	10.65	329	0.9	100	0.9	10	19	977.2	NA	0.0000		9999	0	0	0	3310
2019/01/21 07:40:00	BASE	7.03	334	10.24	326	0.9	100	0.9	10	18	977.2	NA	0.0000		9999	0	0	0	3050
2019/01/21 07:41:00	BASE	7.38	332	10.24	326	0.9	100	0.9	9	17	977.2	NA	0.0000		9999	0	0	0	2300
2019/01/21 07:42:00	BASE	7.58	332	10.03	325	0.9	100	0.9	9	17	977.2	NA	0.0000		9999	0	0	0	1940
2019/01/21 07:43:00	BASE	7.68	333	9.11	332	0.9	100	0.9	8	16	977.1	NA	0.0000		9999	0	0	0	1740
2019/01/21 07:44:00	BASE	8.09	332	9.11	332	0.9	100	0.9	7	15	977.1	NA	0.0000		9999	0	0	0	1840
2019/01/21 07:45:00	BASE	7.92	334	8.80	335	0.9	100	0.9	7	14	977.2	NA	0.0000		9999	330	0	0	0
2019/01/21 07:46:00	BASE	7.55	336	9.11	336	0.9	100	0.9	6	13	977.2	NA	0.0000		9999	260	0	0	0
2019/01/21 07:47:00	BASE	8.18	335	9.62	336	0.9	100	0.9	7	14	977.1	NA	0.0000		9999	0	0	0	1610
2019/01/21 07:48:00	BASE	8.41	334	9.62	336	0.8	100	0.8	9	18	977.1	NA	0.0000		9999	0	0	0	1670
2019/01/21 07:49:00	BASE	7.92	335	9.62	336	0.8	100	0.8	10	20	977.1	NA	0.0000	UP	9999	0	0	0	1740
2019/01/21 07:50:00	BASE	7.37	336	9.62	336	0.8	100	0.8	10	21	977.2	NA	0.0000	UP	9999	300	0	0	0
2019/01/21 07:51:00	BASE	7.00	336	9.62	336	0.8	100	0.8	11	22	977.2	NA	0.0000	UP	9999	260	0	0	0
2019/01/21 07:52:00	BASE	7.29	335	9.62	336	0.8	100	0.8	11	24	977.1	NA	0.0000	UP	9999	750	0	0	0
2019/01/21 07:53:00	BASE	7.49	332	9.62	336	0.8	100	0.8	12	25	977.1	NA	0.0000	UP	9999	0	0	0	1640
2019/01/21 07:54:00	BASE	7.94	333	9.62	336	0.8	100	0.8	13	27	977.1	NA	0.0000	UP	9999	0	0	0	1970
2019/01/21 07:55:00	BASE	8.17	334	9.62	336	0.8	100	0.8	14	29	977.1	NA	0.2540	UP	9999	0	0	0	2590
2019/01/21 07:56:00	BASE	7.50	331	9.62	336	0.8	100	0.8	14	31	977.2	NA	0.0000	UP	9999	0	0	0	3940
2019/01/21 07:57:00	BASE	6.88	330	9.21	334	0.9	100	0.9	15	32	977.2	NA	0.0000	UP	9999	360	0	0	0
2019/01/21 07:58:00	BASE	6.59	329	9.21	334	0.9	100	0.9	15	32	977.2	NA	0.0000	UP	9999	360	0	0	0
2019/01/21 07:59:00	BASE	7.16	330	9.21	334	0.9	100	0.9	13	28	977.1	NA	0.0000	UP	9999	390	2330	0	0
2019/01/21 08:00:00	BASE	7.90	329	9.21	334	0.9	100	0.9	12	26	977.1	NA	0.0000	UP	9999	390	0	0	0
2019/01/21 08:01:00	BASE	8.13	330	9.21	334	0.9	100	0.9	11	24	977.1	NA	0.0000	UP	9999	360	0	0	0
2019/01/21 08:02:00	BASE	7.94	331	9.21	334	0.9	100	0.9	11	24	977.1	NA	0.0000	UP	9999	330	0	0	0
2019/01/21 08:03:00	BASE	7.62	330	9.21	334	0.9	100	0.9	12	27	977.1	NA	0.0000		9999	300	1380	0	0
2019/01/21 08:04:00	BASE	7.27	330	9.05	319	0.9	100	0.9	14	32	977.1	NA	0.0000		9999	300	0	0	0
2019/01/21 08:05:00	BASE	6.82	330	9.05	319	0.9	100	0.9	15	35	977.1	NA	0.0000		9999	360	0	0	0
2019/01/21 08:06:00	BASE	6.92	330	9.05	319	0.9	100	0.9	16	38	977.1	NA	0.0000		9999	360	0	0	0
2019/01/21 08:07:00	BASE	7.75	332	9.05	319	0.9	100	0.9	17	39	977.1	NA	0.0000		9999	390	0	0	0
2019/01/21 08:08:00	BASE	8.75	332	10.34	343	0.9	100	0.9	18	40	977.1	NA	0.0000		9999	0	0	0	6230
2019/01/21 08:09:00	BASE	8.85	331	10.34	343	0.9	100	0.9	18	40	977.1	NA	0.0000		9999	0	0	0	7090
2019/01/21 08:10:00	BASE	8.18	331	10.34	343	0.9	100	0.9	18	40	977.1	NA	0.0000		9999	0	0	0	5840
2019/01/21 08:11:00	BASE	8.10	331	10.34	343	0.9	100	0.9	18	40	977.1	NA	0.0000		9999	0	0	0	5940
2019/01/21 08:12:00	BASE	8.15	331	10.34	343	1.0	100	1.0	19	41	977.1	NA	0.0000		9999	0	0	0	5910
2019/01/21 08:13:00	BASE	7.67	333	10.34	343	1.0	100	1.0	19	41	977.1	NA	0.0000		9999	0	0	0	7150
2019/01/21 08:14:00	BASE	7.80	331	10.34	343	1.0	100	1.0	19	41	977.1	NA	0.0000		9999	0	0	0	5540
2019/01/21 08:15:00	BASE	8.43	330	10.34	343	1.0	100	1.0	19	41	977.1	NA	0.0000		9999	0	0	0	4130
2019/01/21 08:16:00	BASE	8.52	332	10.34	343	1.0	100	1.0	17	37	977.1	NA	0.0000		9999	0	0	0	4070
2019/01/21 08:17:00	BASE	8.56	331	10.34	343	1.0	100	1.0	15	33	977.1	NA	0.0000		9999	0	0	0	3180
2019/01/21 08:18:00	BASE	8.22	330	9.67	325	1.0	100	1.0	15	35	977.1	NA	0.0000		9999	300	0	0	0
2019/01/21 08:19:00	BASE	7.68	329	9.67	325	1.0	100	1.0	17	38	977.1	NA	0.0000		9999	330	0	0	0
2019/01/21 08:20:00	BASE	7.67	328	9.67	325	1.0	100	1.0	16	37	977.1	NA	0.0000		9999	330	0	0	0
2019/01/21 08:21:00	BASE	7.95	325	9.67	325	1.0	100	1.0	16	37	977.1	NA	0.0000		9999	330	0	0	0
2019/01/21 08:22:00	BASE	7.89	328	9.67	325	1.0	100	1.0	15	35	977.1	NA	0.0000		9999	330	0	0	0
2019/01/21 08:23:00	BASE	7.51	331	9.67	325	0.9	100	0.9	14	34	977.2	NA	0.0000		9999	0	0	0	2820
2019/01/21 08:24:00	BASE	7.71	334	9.67	325	0.9	100	0.9	15	37	977.1	NA	0.0000		9999	260	0	0	0
2019/01/21 08:25:00	BASE	7.43	335	9.67	325	0.9	100	0.9	15	37	977.1	NA	0.0000		9999	300	0	0	0
2019/01/21 08:26:00	BASE	7.25	333	9.67	325	0.9	100	0.9	14	33	977.2	NA	0.0000		9999	330	0	0	0
2019/01/21 08:27:00	BASE	7.93	332	9.05	331	1.0	100	1.0	13	31	977.2	NA	0.0000		9999	0	0	0	2720
2019/01/21 08:28:00	BASE	8.11	334	9.05	331	1.0	100	1.0	14	34	977.2	NA	0.0000		9999	300	0	0	0
2019/01/21 08:29:00	BASE	7.34	338	9.05	331	1.0	100	1.0	16	37	977.2	NA	0.0000		9999	260	0	0	0
2019/01/21 08:30:00	BASE	6.83	334	9.05	331	1.0	100	1.0	19	44	977.2	NA	0.0000		9999	300	0	0	0
2019/01/21 08:31:00	BASE	7.45	331	9.05	331	0.9	100	0.9	20	47	977.2	NA	0.0000		9999	0	0	0	2260
2019/01/21 08:32:00	BASE	7.57	333	9.05	331	0.9	100	0.9	21	49	977.2	NA	0.0000		9999	0	0	0	3540
2019/01/21 08:33:00	BASE	7.59	331	9.05	331	0.9	100	0.9	22	49	977.2	NA	0.0000		9999	0	0	0	3120
2019/01/21 08:34:00	BASE	7.51	331	9.05	331	0.9	100	0.9	23	51	977.2	NA	0.0000		9999	0	0	0	2560
2019/01/21 08:35:00	BASE	7.10	333	9.05	331	0.9	100	0.9	24	55	977.2	NA	0.0000		9999	0	0	0	2620
2019/01/21 08:36:00	BASE	7.25	331	9.05	331	0.9	100	0.9	25	57	977.2	NA	0.0000		9999	0	0	0	2720
2019/01/21 08:37:00	BASE	7.47	331	8.95	335	0.9	100	0.9	26	59	977.2	NA	0.0000		9999	0	0	0	3870
2019/01/21 08:38:00	BASE	7.63	332	8.95	335	0.9	100	0.9	26	59	977.2	NA	0.0000		9999	0	0	0	3870
2019/01/21 08:39:00	BASE	8.47	331	9.88	326	0.9	100	0.9	25	58	977.2	NA	0.0000		9999	0	0	0	3540
2019/01/21 08:40:00	BASE	8.92	331	9.88	326	1.0	100	1.0	24	55	977.1	NA	0.0000		9999	0	0	0	3410
2019/01/21 08:41:00	BASE	8.34	330	9.88	326	1.0	100	1.0	23	53	977.1	NA	0.0000		9999	0	0	0	3380
2019/01/21 08:42:00	BASE	8.38	327	9.88	326	1.0	100	1.0	23	53	977.2	NA	0.0000		9999	300	0	0	0
2019/01/21 08:43:00	BASE	8.57	325	9.88	326	1.0	100	1.0	23	55	977.2	NA	0.0000		9999	0	0	0	2820
2019/01/21 08:44:00	BASE	8.60	326	9.88	326	1.0	100	1.0	24	56	977.2	NA	0.0000		9999	0	0	0	2950
2019/01/21 08:45:00	BASE	9.30	327	10.96	330	1.0	100	1.0	24	57	977.1	NA	0.0000		9999	0	0	0	3220
2019/01/21 08:46:00	BASE	9.74	326	10.96	330	1.0	100	1.0	23	56	977.1	NA	0.0000		9999	0	0	0	3670
2019/01/21 08:47:00	BASE	9.59	325	10.96	330	1.0	100	1.0	22	54	977.1	NA	0.0000		9999	0	0	0	3540
2019/01/21 08:48:00	BASE	9.48	325	10.96	330	1.0	100	1.0	20	51	977.1	NA	0.0000		9999	0	0	0	3740
2019/01/21 08:49:00	BASE	9.04	327	10.96	330	1.0	100	1.0	19	49	977.1	NA	0.0000		9999	0	0	0	3380
2019/01/21 08:50:00	BASE	9.75	326	11.94	326	1.0	100	1.0	18	48	977.0	NA	0.0000		9999	0	0	0	3150
2019/01/21 08:51:00	BASE	10.13	327	11.94	326	1.0	100	1.0	18	47	977.1	NA	0.0000		9999	0	0	0	2790
2019/01/21 08:52:00	BASE	9.40	327	11.94	326	1.0	100	1.0	18	46	977.0	NA	0.0000		9999	0	0	0	2660
2019/01/21 08:53:00	BASE	9.07	325	11.94	326	1.0	100	1.0	17	44	977.1	NA	0.0000		9999	0	0	0	2260
2019/01/21 08:54:00	BASE	8.86	325	11.94	326	0.9	100	0.9	17	44	977.1	NA	0.0000		9999	260	0	0	0
2019/01/21 08:55:00	BASE	8.46	328	11.94	326	0.9	100	0.9	17	45	977.1	NA	0.0000		9999	230	0	0	0
2019/01/21 08:56:00	BASE	8.80	331	11.94	326	0.9	100	0.9	18	47	977.1	NA	0.0000	UP	9999	230	0	0	0
2019/01/21 08:57:00	BASE	10.05	334	11.94	326	0.9	100	0.9	19	49	977.0	NA	0.0000	UP	9999	0	0	0	2000
2019/01/21 08:58:00	BASE	10.08	335	11.94	326	0.9	100	0.9	20	52	977.0	NA	0.0000	UP	9999	0	0	0	2030
2019/01/21 08:59:00	BASE	9.66	332	11.94	326	0.9	100	0.9	23	58	977.0	NA	0.0000	UP	9999	0	0	0	2170
2019/01/21 09:00:00	BASE	9.87	332	11.32	336	0.9	100	0.9	26	64	977.0	NA	0.0000	UP	9999	0	0	0	2330
2019/01/21 09:01:00	BASE	9.80	332	11.32	336	0.9	100	0.9	29	69	977.1	NA	0.0000	UP	9999	0	0	0	2920
2019/01/21 09:02:00	BASE	9.73	331	11.32	336	0.9	100	0.9	30	71	977.1	NA	0.0000	UP	9999	0	0	0	3050
2019/01/21 09:03:00	BASE	9.38	333	11.32	336	1.0	100	1.0	30	70	977.1	NA	0.0000	UP	9999	0	0	0	2990
2019/01/21 09:04:00	BASE	8.67	335	11.32	336	1.0	100	1.0	30	71	977.1	NA	0.0000	UP	9999	0	0	0	2690
2019/01/21 09:05:00	BASE	8.58	333	11.32	336	1.0	100	1.0	31	72	977.2	NA	0.0000	UP	9999	0	0	0	2850
2019/01/21 09:06:00	BASE	8.50	332	11.32	336	1.0	100	1.0	31	73	977.1	NA	0.0000	UP	9999	0	0	0	2890
2019/01/21 09:07:00	BASE	8.51	332	11.06	340	0.9	100	0.9	27	64	977.2	NA	0.0000	UP	9999	0	0	0	3020
2019/01/21 09:08:00	BASE	8.68	330	10.96	326	0.9	100	0.9	23	55	977.1	NA	0.0000		9999	0	0	0	2560
2019/01/21 09:09:00	BASE	8.31	330	10.96	326	0.9	100	0.9	22	55	977.2	NA	0.0000		9999	300	0	0	0
2019/01/21 09:10:00	BASE	8.13	332	10.91	316	0.9	100	0.9	23	57	977.1	NA	0.0000		9999	260	0	0	0
2019/01/21 09:11:00	BASE	8.20	335	10.85	331	0.9	100	0.9	22	55	977.2	NA	0.0000		9999	0	0	0	3020
2019/01/21 09:12:00	BASE	8.60	335	9.72	333	0.9	100	0.9	21	55	977.1	NA	0.0000		9999	0	0	0	2760
2019/01/21 09:13:00	BASE	9.11	334	10.70	333	0.9	100	0.9	20	51	977.1	NA	0.2540		9999	330	0	0	0
2019/01/21 09:14:00	BASE	9.00	332	10.70	333	0.9	100	0.9	16	43	977.1	NA	0.0000		9999	0	0	0	2820
2019/01/21 09:15:00	BASE	8.98	335	10.70	333	1.0	100	1.0	14	37	977.1	NA	0.0000		9999	0	0	0	2430
2019/01/21 09:16:00	BASE	8.75	337	10.70	333	1.0	100	1.0	15	39	977.2	NA	0.0000		9999	0	0	0	2130
2019/01/21 09:17:00	BASE	8.35	337	10.70	333	1.0	100	1.0	15	40	977.2	NA	0.0000		9999	200	0	0	0
2019/01/21 09:18:00	BASE	8.11	337	10.70	333	1.0	100	1.0	14	38	977.2	NA	0.0000		9999	260	0	0	0
2019/01/21 09:19:00	BASE	7.69	338	10.70	333	0.9	100	0.9	14	38	977.3	NA	0.0000		9999	0	0	0	2170
2019/01/21 09:20:00	BASE	7.61	337	10.70	333	0.9	100	0.9	15	40	977.3	NA	0.0000		9999	0	0	0	2260
2019/01/21 09:21:00	BASE	7.82	337	10.70	333	0.9	100	0.9	15	40	977.3	NA	0.0000		9999	0	0	0	2200
2019/01/21 09:22:00	BASE	8.48	337	10.70	333	0.9	100	0.9	16	41	977.2	NA	0.0000		9999	300	0	0	0
2019/01/21 09:23:00	BASE	8.97	337	9.83	331	0.9	100	0.9	17	46	977.2	NA	0.0000		9999	300	0	0	0
2019/01/21 09:24:00	BASE	8.77	340	9.83	331	0.9	100	0.9	20	51	977.2	NA	0.0000		9999	330	0	0	0
2019/01/21 09:25:00	BASE	9.04	343	10.49	344	0.9	100	0.9	20	51	977.2	NA	0.0000		9999	330	0	0	0
2019/01/21 09:26:00	BASE	9.60	341	10.80	341	0.9	100	0.9	19	49	977.1	NA	0.0000		9999	330	0	0	0
2019/01/21 09:27:00	BASE	9.85	340	11.21	342	0.9	100	0.9	19	50	977.1	NA	0.0000		9999	360	0	0	0
2019/01/21 09:28:00	BASE	9.56	342	11.21	342	0.9	100	0.9	18	48	977.2	NA	0.0000		9999	360	0	0	0
2019/01/21 09:29:00	BASE	9.02	342	11.21	342	0.9	100	0.9	18	48	977.2	NA	0.0000		9999	390	0	0	0
2019/01/21 09:30:00	BASE	8.67	340	11.21	342	1.0	100	1.0	18	48	977.2	NA	0.0000		9999	390	0	0	0
2019/01/21 09:31:00	BASE	8.45	341	11.21	342	1.0	100	1.0	18	48	977.3	NA	0.0000		9999	390	1710	0	0
2019/01/21 09:32:00	BASE	8.25	340	11.21	342	1.0	100	1.0	18	48	977.3	NA	0.0000		9999	330	0	0	0
2019/01/21 09:33:00	BASE	8.46	336	11.21	342	1.0	100	1.0	17	46	977.2	NA	0.0000		9999	330	0	0	0
2019/01/21 09:34:00	BASE	8.94	334	11.21	342	1.0	100	1.0	18	47	977.2	NA	0.0000		9999	330	1180	0	0
2019/01/21 09:35:00	BASE	8.82	332	11.21	342	1.1	100	1.1	19	51	977.3	NA	0.0000		9999	330	0	0	0
2019/01/21 09:36:00	BASE	8.33	333	11.21	342	1.1	100	1.1	22	57	977.2	NA	0.0000		9999	330	0	0	0
2019/01/21 09:37:00	BASE	8.46	332	10.49	332	1.1	100	1.1	23	60	977.1	NA	0.0000		9999	330	0	0	0
2019/01/21 09:38:00	BASE	8.97	334	10.49	332	1.1	100	1.1	23	61	977.2	NA	0.0000		9999	360	0	0	0
2019/01/21 09:39:00	BASE	8.83	334	10.49	332	1.1	100	1.1	22	59	977.2	NA	0.0000		9999	360	0	0	0
2019/01/21 09:40:00	BASE	8.80	330	10.49	332	1.1	100	1.1	22	57	977.2	NA	0.0000		9999	360	0	0	0
2019/01/21 09:41:00	BASE	8.57	330	10.49	332	1.1	100	1.1	21	55	977.2	NA	0.0000		9999	360	0	0	0
2019/01/21 09:42:00	BASE	8.13	332	10.49	332	1.2	100	1.2	20	54	977.2	NA	0.0000		9999	360	0	0	0
2019/01/21 09:43:00	BASE	8.48	333	10.49	332	1.2	100	1.2	20	53	977.3	NA	0.0000		9999	360	0	0	0
2019/01/21 09:44:00	BASE	8.77	334	10.34	326	1.2	100	1.2	20	52	977.2	NA	0.0000		9999	360	0	0	0
2019/01/21 09:45:00	BASE	9.44	333	11.06	333	1.2	100	1.2	21	54	977.3	NA	0.0000		9999	330	0	0	0
2019/01/21 09:46:00	BASE	9.39	331	11.06	333	1.2	100	1.2	21	56	977.3	NA	0.0000		9999	330	0	0	0
2019/01/21 09:47:00	BASE	8.63	333	11.06	333	1.2	100	1.2	23	60	977.3	NA	0.0000		9999	330	0	0	0
2019/01/21 09:48:00	BASE	8.58	335	11.06	333	1.2	100	1.2	23	61	977.3	NA	0.0000		9999	360	0	0	0
2019/01/21 09:49:00	BASE	8.62	333	11.06	333	1.2	100	1.2	23	61	977.3	NA	0.0000		9999	330	0	0	0
2019/01/21 09:50:00	BASE	8.69	333	11.06	333	1.2	100	1.2	23	60	977.3	NA	0.0000		9999	330	0	0	0
2019/01/21 09:51:00	BASE	8.72	333	11.06	333	1.2	100	1.2	23	60	977.3	NA	0.0000		9999	330	0	0	0
2019/01/21 09:52:00	BASE	8.67	333	11.06	333	1.2	100	1.2	23	61	977.3	NA	0.0000		9999	330	0	0	0
2019/01/21 09:53:00	BASE	9.04	333	11.06	333	1.2	100	1.2	23	60	977.3	NA	0.0000		9999	330	0	0	0
2019/01/21 09:54:00	BASE	9.29	334	11.06	333	1.2	100	1.2	25	66	977.3	NA	0.0000		9999	330	1210	0	0
2019/01/21 09:55:00	BASE	9.25	336	10.44	334	1.2	100	1.2	27	71	977.3	NA	0.0000		9999	330	0	0	0
2019/01/21 09:56:00	BASE	9.46	336	11.06	340	1.2	100	1.2	28	74	977.3	NA	0.0000		9999	330	0	0	0
2019/01/21 09:57:00	BASE	9.14	336	11.06	340	1.2	100	1.2	31	80	977.3	NA	0.0000		9999	330	0	0	0
2019/01/21 09:58:00	BASE	8.99	334	11.06	340	1.2	100	1.2	35	88	977.3	NA	0.0000		9999	330	0	0	0
2019/01/21 09:59:00	BASE	9.19	333	11.06	340	1.2	100	1.2	38	97	977.3	NA	0.0000		9999	330	0	0	0
2019/01/21 10:00:00	BASE	9.00	334	11.06	340	1.2	100	1.2	40	100	977.3	NA	0.0000		9999	330	0	0	0
2019/01/21 10:01:00	BASE	8.53	335	11.06	340	1.2	100	1.2	42	104	977.3	NA	0.0000		9999	330	0	0	0
2019/01/21 10:02:00	BASE	8.47	338	11.06	340	1.2	100	1.2	43	108	977.3	NA	0.0000		9999	330	0	0	0
2019/01/21 10:03:00	BASE	8.78	338	11.06	340	1.2	100	1.2	46	116	977.3	NA	0.0000		9999	360	0	0	0
2019/01/21 10:04:00	BASE	8.61	336	11.06	340	1.2	100	1.2	50	123	977.3	NA	0.0000		9999	330	0	0	0
2019/01/21 10:05:00	BASE	8.43	338	11.06	340	1.2	100	1.2	47	116	977.3	NA	0.0000		9999	360	0	0	0
2019/01/21 10:06:00	BASE	8.56	340	10.29	334	1.2	100	1.2	42	106	977.3	NA	0.0000		9999	360	0	0	0
2019/01/21 10:07:00	BASE	8.82	337	10.29	334	1.2	100	1.2	39	98	977.3	NA	0.0000		9999	390	0	0	0
2019/01/21 10:08:00	BASE	9.09	337	10.29	340	1.2	100	1.2	37	94	977.3	NA	0.0000		9999	360	0	0	0
2019/01/21 10:09:00	BASE	8.66	336	10.29	340	1.2	100	1.2	35	91	977.3	NA	0.0000		9999	360	0	0	0
2019/01/21 10:10:00	BASE	8.44	335	10.29	340	1.2	100	1.2	35	91	977.3	NA	0.0000		9999	390	0	0	0
2019/01/21 10:11:00	BASE	8.76	336	10.29	340	1.2	100	1.2	38	98	977.3	NA	0.0000		9999	390	0	0	0
2019/01/21 10:12:00	BASE	8.91	337	10.29	340	1.2	100	1.2	39	100	977.3	NA	0.0000		9999	360	0	0	0
2019/01/21 10:13:00	BASE	8.74	336	10.29	340	1.2	100	1.2	40	104	977.3	NA	0.0000		9999	360	0	0	0
2019/01/21 10:14:00	BASE	8.63	333	10.29	340	1.2	100	1.2	38	99	977.3	NA	0.0000		9999	390	0	0	0
2019/01/21 10:15:00	BASE	8.67	332	10.29	340	1.2	100	1.2	34	89	977.3	NA	0.0000		9999	390	0	0	0
2019/01/21 10:16:00	BASE	8.61	333	10.29	340	1.2	100	1.2	32	85	977.3	NA	0.0000		9999	390	0	0	0
2019/01/21 10:17:00	BASE	8.13	333	10.29	340	1.2	100	1.2	33	87	977.4	NA	0.0000		9999	330	0	0	0
2019/01/21 10:18:00	BASE	7.95	334	9.93	333	1.2	100	1.2	35	91	977.3	NA	0.0000		9999	300	1280	0	0
2019/01/21 10:19:00	BASE	8.18	337	9.93	333	1.2	100	1.2	33	88	977.3	NA	0.0000		9999	260	0	0	0
2019/01/21 10:20:00	BASE	8.48	334	9.93	333	1.2	100	1.2	33	87	977.3	NA	0.0000		9999	260	0	0	0
2019/01/21 10:21:00	BASE	8.73	333	9.93	333	1.2	100	1.2	34	90	977.3	NA	0.0000		9999	300	0	0	0
2019/01/21 10:22:00	BASE	9.00	332	10.08	333	1.1	100	1.1	36	93	977.3	NA	0.0000		9999	300	0	0	0
2019/01/21 10:23:00	BASE	9.16	329	10.08	333	1.1	100	1.1	38	98	977.3	NA	0.0000		9999	300	0	0	0
2019/01/21 10:24:00	BASE	8.51	329	10.08	333	1.1	100	1.1	40	104	977.3	NA	0.0000		9999	330	0	0	0
2019/01/21 10:25:00	BASE	8.81	329	10.55	331	1.1	100	1.1	39	102	977.3	NA	0.0000		9999	360	0	0	0
2019/01/21 10:26:00	BASE	9.56	330	10.55	331	1.1	100	1.1	37	98	977.3	NA	0.0000		9999	390	0	0	0
2019/01/21 10:27:00	BASE	9.02	331	10.55	331	1.1	100	1.1	39	101	977.4	NA	0.0000		9999	330	0	0	0
2019/01/21 10:28:00	BASE	8.84	330	10.55	324	1.1	100	1.1	39	102	977.3	NA	0.0000		9999	360	0	0	0
2019/01/21 10:29:00	BASE	9.40	330	10.55	324	1.1	100	1.1	42	111	977.3	NA	0.0000		9999	360	0	0	0
2019/01/21 10:30:00	BASE	10.16	329	11.21	324	1.1	100	1.1	46	120	977.3	NA	0.0000		9999	360	0	0	0
2019/01/21 10:31:00	BASE	10.74	328	11.78	327	1.1	100	1.1	48	124	977.3	NA	0.0000		9999	360	0	0	0
2019/01/21 10:32:00	BASE	9.94	328	11.78	327	1.1	100	1.1	43	113	977.3	NA	0.0000		9999	430	0	0	0
2019/01/21 10:33:01	BASE	9.38	328	11.78	327	1.1	100	1.1	39	105	977.3	NA	0.0000		9999	430	0	0	0
2019/01/21 10:34:01	BASE	9.29	327	11.78	327	1.1	100	1.1	40	107	977.3	NA	0.0000		9999	750	0	0	0
2019/01/21 10:35:00	BASE	9.01	330	11.78	327	1.1	100	1.1	35	95	977.3	NA	0.0000		9999	660	0	0	0
2019/01/21 10:36:01	BASE	9.55	333	11.78	327	1.1	100	1.1	37	100	977.3	NA	0.0000		9999	390	0	0	0
2019/01/21 10:37:00	BASE	10.31	331	11.78	327	1.1	100	1.1	37	100	977.3	NA	0.0000		9999	690	0	0	0
2019/01/21 10:38:00	BASE	10.56	328	11.78	327	1.1	100	1.1	38	102	977.3	NA	0.0000		9999	390	0	0	0
2019/01/21 10:39:00	BASE	10.15	327	11.78	327	1.1	100	1.1	42	112	977.3	NA	0.0000		9999	620	0	0	0
2019/01/21 10:40:00	BASE	10.02	328	11.78	327	1.1	100	1.1	39	105	977.3	NA	0.0000		9999	590	0	0	0
2019/01/21 10:41:00	BASE	10.15	329	11.37	329	1.2	100	1.2	35	95	977.3	NA	0.0000		9999	430	0	0	0
2019/01/21 10:42:00	BASE	10.25	333	11.47	337	1.1	100	1.1	32	88	977.3	NA	0.0000		9999	390	0	0	0
2019/01/21 10:43:00	BASE	10.31	333	11.47	337	1.1	100	1.1	30	83	977.3	NA	0.0000		9999	620	0	0	0
2019/01/21 10:44:00	BASE	10.26	331	11.47	337	1.1	100	1.1	35	94	977.3	NA	0.0000		9999	390	0	0	0
2019/01/21 10:45:00	BASE	10.22	330	11.47	337	1.1	100	1.1	30	83	977.4	NA	0.0000		9999	690	0	0	0
2019/01/21 10:46:00	BASE	9.88	327	11.47	337	1.1	100	1.1	31	84	977.4	NA	0.0000		9999	720	0	0	0
2019/01/21 10:47:00	BASE	9.52	329	11.47	337	1.1	100	1.1	32	88	977.4	NA	0.0000		9000	390	0	0	0
2019/01/21 10:48:00	BASE	9.87	330	11.47	337	1.1	100	1.1	33	91	977.4	NA	0.0000		9999	360	0	0	0
2019/01/21 10:49:00	BASE	10.30	330	11.47	337	1.1	100	1.1	37	99	977.4	NA	0.0000		9999	520	0	0	0
2019/01/21 10:50:00	BASE	9.59	332	11.47	337	1.1	100	1.1	40	109	977.4	NA	0.0000		9999	430	0	0	0
2019/01/21 10:51:00	BASE	9.81	333	11.94	333	1.1	100	1.1	39	106	977.4	NA	0.0000		9999	360	0	0	0
2019/01/21 10:52:00	BASE	10.51	331	11.94	333	1.1	100	1.1	35	97	977.4	NA	0.0000		9999	360	0	0	0
2019/01/21 10:53:00	BASE	10.54	329	12.14	324	1.1	100	1.1	34	94	977.4	NA	0.2540		9999	330	0	0	0
2019/01/21 10:54:00	BASE	9.85	331	12.14	324	1.1	100	1.1	33	90	977.4	NA	0.0000		9999	330	0	0	0
2019/01/21 10:55:00	BASE	8.88	331	12.14	324	1.1	100	1.1	27	76	977.4	NA	0.0000		9999	330	0	0	0
2019/01/21 10:56:00	BASE	9.53	329	12.14	324	1.1	100	1.1	26	74	977.4	NA	0.0000		9999	360	0	0	0
2019/01/21 10:57:00	BASE	10.46	328	12.14	324	1.1	100	1.1	27	77	977.4	NA	0.0000		9000	300	0	0	0
2019/01/21 10:58:00	BASE	10.25	329	12.14	324	1.1	100	1.1	32	89	977.4	NA	0.0000		9000	300	950	0	0
2019/01/21 10:59:00	BASE	9.87	330	12.14	324	1.1	100	1.1	35	95	977.4	NA	0.0000		9999	330	0	0	0
2019/01/21 11:00:00	BASE	10.18	327	12.14	324	1.1	100	1.1	35	97	977.4	NA	0.0000		9999	330	0	0	0
2019/01/21 11:01:00	BASE	10.61	327	12.14	324	1.1	100	1.1	33	90	977.4	NA	0.0000		9999	330	0	0	0
2019/01/21 11:02:00	BASE	10.42	329	12.14	324	1.1	100	1.1	33	91	977.5	NA	0.0000		9999	300	0	0	0
2019/01/21 11:03:00	BASE	9.74	323	12.04	320	1.1	100	1.1	34	93	977.5	NA	0.0000		9000	230	0	0	0
2019/01/21 11:04:00	BASE	9.26	319	12.04	320	1.1	100	1.1	34	95	977.5	NA	0.0000	BR	8000	230	0	0	0
2019/01/21 11:05:00	BASE	9.22	323	12.04	320	1.0	100	1.0	31	87	977.6	NA	0.0000	BR	8000	360	0	0	0
2019/01/21 11:06:00	BASE	9.58	325	12.04	320	1.0	100	1.0	28	77	977.6	NA	0.0000	BR	9000	330	0	0	0
2019/01/21 11:07:00	BASE	9.87	324	12.04	320	1.0	100	1.0	27	75	977.5	NA	0.0000	BR	9000	360	0	0	0
2019/01/21 11:08:00	BASE	10.03	324	12.04	320	1.0	100	1.0	31	87	977.4	NA	0.0000	BR	9999	360	0	0	0
2019/01/21 11:09:00	BASE	9.95	326	12.04	320	1.0	100	1.0	34	95	977.6	NA	0.0000	BR	9999	430	0	0	0
2019/01/21 11:10:00	BASE	9.80	326	12.04	320	1.0	100	1.0	39	108	977.6	NA	0.0000	BR	9999	660	0	0	0
2019/01/21 11:11:00	BASE	9.62	323	10.96	325	1.0	100	1.0	38	105	977.6	NA	0.0000	BR	9999	660	0	0	0
2019/01/21 11:12:00	BASE	9.14	322	10.96	325	1.0	100	1.0	38	103	977.6	NA	0.0000	BR	9999	690	0	0	0
2019/01/21 11:13:00	BASE	9.00	322	10.96	325	1.0	100	1.0	40	108	977.6	NA	0.0000	BR	9999	620	0	0	0
2019/01/21 11:14:00	BASE	9.11	321	10.96	325	1.0	100	1.0	41	111	977.6	NA	0.0000		9999	430	0	0	0
2019/01/21 11:15:00	BASE	9.43	320	10.96	325	1.1	100	1.1	44	117	977.6	NA	0.0000		9999	720	0	0	0
2019/01/21 11:16:00	BASE	9.53	321	10.80	325	1.1	100	1.1	47	126	977.6	NA	0.0000		9000	660	0	0	0
2019/01/21 11:17:00	BASE	9.20	323	10.80	325	1.1	100	1.1	51	138	977.6	NA	0.0000		9999	790	0	0	0
2019/01/21 11:18:00	BASE	9.56	322	10.75	328	1.1	100	1.1	52	139	977.6	NA	0.0000		9999	460	2760	0	0
2019/01/21 11:19:00	BASE	9.96	322	11.16	324	1.1	100	1.1	54	145	977.6	NA	0.0000		9999	430	0	0	0
2019/01/21 11:20:00	BASE	9.87	325	11.16	324	1.1	100	1.1	52	139	977.6	NA	0.0000		9000	720	0	0	0
2019/01/21 11:21:00	BASE	9.66	326	11.16	324	1.1	100	1.1	50	136	977.6	NA	0.0000		9000	690	0	0	0
2019/01/21 11:22:00	BASE	10.17	327	12.04	325	1.1	100	1.1	53	144	977.6	NA	0.0000	BR	9000	430	0	0	0
2019/01/21 11:23:00	BASE	10.37	328	12.04	325	1.1	100	1.1	50	136	977.6	NA	0.0000	BR	9999	430	0	0	0
2019/01/21 11:24:00	BASE	10.05	328	12.04	325	1.1	100	1.1	45	124	977.6	NA	0.0000	BR	9999	430	0	0	0
2019/01/21 11:25:00	BASE	10.07	328	12.04	325	1.1	100	1.1	45	123	977.6	NA	0.0000	BR	9000	430	0	0	0
2019/01/21 11:26:00	BASE	9.47	327	12.04	325	1.1	100	1.1	48	133	977.7	NA	0.0000	BR	9999	390	0	0	0
2019/01/21 11:27:00	BASE	9.26	325	12.04	325	1.1	100	1.1	51	139	977.6	NA	0.0000	BR	9999	430	0	0	0
2019/01/21 11:28:00	BASE	9.49	325	12.04	325	1.1	100	1.1	50	135	977.7	NA	0.0000	BR	9999	430	0	0	0
2019/01/21 11:29:00	BASE	9.62	324	12.04	325	1.1	100	1.1	48	130	977.7	NA	0.0000	BR	9999	520	0	0	0
2019/01/21 11:30:00	BASE	9.88	324	12.04	325	1.1	100	1.1	49	134	977.6	NA	0.0000	BR	9999	430	0	0	0
2019/01/21 11:31:00	BASE	9.92	325	12.04	325	1.1	100	1.1	48	133	977.7	NA	0.0000	BR	9999	430	0	0	0
2019/01/21 11:32:00	BASE	9.58	324	11.01	331	1.1	100	1.1	50	138	977.6	NA	0.0000	BR	9999	430	0	0	0
2019/01/21 11:33:00	BASE	9.18	323	11.01	331	1.1	100	1.1	55	150	977.7	NA	0.0000	BR	9999	430	0	0	0
2019/01/21 11:34:00	BASE	9.46	325	11.01	331	1.0	100	1.0	55	150	977.6	NA	0.0000	BR	9999	390	0	0	0
2019/01/21 11:35:00	BASE	9.68	327	10.75	326	1.0	100	1.0	53	146	977.6	NA	0.0000		9999	390	0	0	0
2019/01/21 11:36:00	BASE	9.47	327	10.75	326	1.0	100	1.0	51	140	977.7	NA	0.0000		9999	390	0	0	0
2019/01/21 11:37:00	BASE	9.02	327	10.75	326	1.0	100	1.0	51	139	977.7	NA	0.0000		9999	360	0	0	0
2019/01/21 11:38:00	BASE	8.96	327	10.75	329	1.0	100	1.0	44	123	977.6	NA	0.0000		9999	360	1570	0	0
2019/01/21 11:39:00	BASE	9.52	327	11.01	331	1.0	100	1.0	40	111	977.7	NA	0.0000		9000	360	1570	0	0
2019/01/21 11:40:00	BASE	9.49	327	11.01	331	1.0	100	1.0	38	106	977.7	NA	0.0000		9999	360	0	0	0
2019/01/21 11:41:00	BASE	9.23	327	11.01	331	1.0	100	1.0	40	110	977.7	NA	0.0000		9000	390	0	0	0
2019/01/21 11:42:00	BASE	9.14	329	11.01	331	1.0	100	1.0	43	117	977.7	NA	0.0000	BR	9999	330	0	0	0
2019/01/21 11:43:00	BASE	8.65	329	11.01	331	1.0	100	1.0	43	118	977.7	NA	0.0000		9999	330	1570	0	0
2019/01/21 11:44:00	BASE	8.55	328	11.01	331	1.0	100	1.0	46	126	977.7	NA	0.0000	BR	9000	330	0	0	0
2019/01/21 11:45:00	BASE	9.13	328	11.01	331	1.0	100	1.0	48	132	977.7	NA	0.0000	BR	9000	390	0	0	0
2019/01/21 11:46:00	BASE	9.11	330	11.01	331	1.0	100	1.0	53	144	977.7	NA	0.0000	BR	9000	390	0	0	0
2019/01/21 11:47:00	BASE	9.01	329	11.01	331	1.0	100	1.0	60	162	977.7	NA	0.0000	BR	9000	390	0	0	0
2019/01/21 11:48:00	BASE	9.13	327	11.01	331	1.0	100	1.0	63	171	977.7	NA	0.0000	BR	9000	430	2030	0	0
2019/01/21 11:49:00	BASE	8.99	330	10.24	330	1.1	100	1.1	64	174	977.7	NA	0.0000	BR	8000	430	1940	0	0
2019/01/21 11:50:00	BASE	8.87	329	10.24	330	1.1	100	1.1	63	173	977.7	NA	0.0000	BR	8000	430	0	0	0
2019/01/21 11:51:00	BASE	9.14	328	10.55	324	1.1	100	1.1	60	166	977.6	NA	0.0000	BR	9000	1080	0	0	0
2019/01/21 11:52:00	BASE	9.75	329	10.75	332	1.1	100	1.1	59	164	977.6	NA	0.0000	BR	9000	1020	0	0	0
2019/01/21 11:53:00	BASE	10.06	327	11.11	323	1.1	100	1.1	59	163	977.6	NA	0.0000	BR	9000	390	0	0	0
2019/01/21 11:54:00	BASE	10.13	326	11.57	326	1.1	100	1.1	53	148	977.6	NA	0.0000	BR	9000	330	2000	0	0
2019/01/21 11:55:00	BASE	10.53	330	11.73	336	1.1	100	1.1	47	131	977.6	NA	0.0000	BR	9000	260	1150	0	0
2019/01/21 11:56:00	BASE	10.12	333	11.73	336	1.1	100	1.1	44	125	977.6	NA	0.0000	BR	9000	0	0	0	1480
2019/01/21 11:57:00	BASE	9.70	332	11.73	336	1.1	100	1.1	45	127	977.6	NA	0.0000	BR	9000	300	0	0	0
2019/01/21 11:58:00	BASE	9.85	329	11.73	336	1.0	100	1.0	48	134	977.7	NA	0.0000	BR	9000	330	0	0	0
2019/01/21 11:59:00	BASE	9.33	330	11.73	336	1.0	100	1.0	49	135	977.7	NA	0.0000	BR	9999	330	0	0	0
2019/01/21 12:00:00	BASE	9.09	332	11.73	336	1.0	100	1.0	51	141	977.6	NA	0.0000	BR	9999	330	0	0	0
2019/01/21 12:01:00	BASE	9.56	329	11.73	336	1.0	100	1.0	51	141	977.7	NA	0.0000	BR	9999	330	0	0	0
2019/01/21 12:02:00	BASE	9.64	328	11.73	336	1.0	100	1.0	50	137	977.6	NA	0.0000	BR	9999	330	0	0	0
2019/01/21 12:03:00	BASE	9.22	328	11.73	336	1.0	100	1.0	49	135	977.7	NA	0.0000	BR	9999	360	0	0	0
2019/01/21 12:04:00	BASE	9.53	327	11.73	336	1.0	100	1.0	49	135	977.7	NA	0.0000	BR	9999	390	0	0	0
2019/01/21 12:05:00	BASE	9.52	326	11.42	337	1.0	100	1.0	49	135	977.7	NA	0.0000	BR	9999	390	0	0	0
2019/01/21 12:06:00	BASE	8.81	322	11.01	323	1.0	100	1.0	56	151	977.7	NA	0.0000		9999	360	0	0	0
2019/01/21 12:07:00	BASE	8.33	321	11.01	323	1.0	100	1.0	65	173	977.8	NA	0.0000		9000	360	0	0	0
2019/01/21 12:08:00	BASE	8.26	323	11.01	323	1.0	100	1.0	71	187	977.8	NA	0.0000		9000	390	0	0	0
2019/01/21 12:09:00	BASE	8.42	325	11.01	323	1.0	100	1.0	69	182	977.8	NA	0.0000		9999	360	1350	0	0
2019/01/21 12:10:00	BASE	8.12	326	11.01	323	1.0	100	1.0	69	182	977.8	NA	0.0000		9999	360	1410	0	0
2019/01/21 12:11:00	BASE	7.82	324	10.80	334	1.0	100	1.0	70	186	977.8	NA	0.0000		9999	330	0	0	0
2019/01/21 12:12:00	BASE	7.99	322	10.80	334	1.0	100	1.0	70	185	977.8	NA	0.0000		9999	330	0	0	0
2019/01/21 12:13:00	BASE	8.23	322	10.80	334	1.0	100	1.0	65	172	977.8	NA	0.0000		9999	230	1480	0	0
2019/01/21 12:14:00	BASE	8.39	324	10.03	325	0.9	100	0.9	63	171	977.8	NA	0.0000		9999	260	22640	0	0
2019/01/21 12:15:00	BASE	8.12	325	9.41	315	0.9	100	0.9	65	175	977.8	NA	0.0000		9999	300	0	0	0
2019/01/21 12:16:00	BASE	8.04	326	9.83	324	0.9	100	0.9	68	183	977.8	NA	0.0000		9999	330	0	0	0
2019/01/21 12:17:00	BASE	9.12	326	11.06	327	0.9	100	0.9	76	203	977.8	NA	0.0000		9999	360	0	0	0
2019/01/21 12:18:00	BASE	9.75	326	11.06	327	0.9	100	0.9	83	220	977.8	NA	0.0000		9999	390	0	0	0
2019/01/21 12:19:00	BASE	9.71	327	11.06	327	0.9	100	0.9	80	214	977.7	NA	0.0000		9999	390	0	0	0
2019/01/21 12:20:00	BASE	9.94	326	11.06	327	1.0	100	1.0	78	208	977.7	NA	0.0000		9999	430	0	0	0
2019/01/21 12:21:00	BASE	10.08	326	11.37	326	1.0	100	1.0	77	207	977.7	NA	0.0000		9999	720	0	0	0
2019/01/21 12:22:00	BASE	9.99	328	11.37	326	1.0	100	1.0	77	204	977.7	NA	0.0000		9999	750	0	0	0
2019/01/21 12:23:00	BASE	9.88	330	11.37	326	1.1	100	1.1	75	201	977.7	NA	0.0000		9999	690	0	0	0
2019/01/21 12:24:00	BASE	9.81	331	11.37	326	1.1	100	1.1	79	211	977.7	NA	0.0000		9999	430	0	0	0
2019/01/21 12:25:00	BASE	9.85	328	11.37	326	1.1	100	1.1	83	220	977.8	NA	0.0000		9999	690	0	0	0
2019/01/21 12:26:00	BASE	10.21	330	11.37	326	1.1	100	1.1	86	225	977.7	NA	0.0000		9999	490	0	0	0
2019/01/21 12:27:00	BASE	10.21	332	11.37	326	1.2	100	1.2	73	195	977.8	NA	0.0000		9999	460	0	0	0
2019/01/21 12:28:00	BASE	10.76	328	12.86	327	1.2	100	1.2	65	176	977.7	NA	0.0000		9999	490	0	0	0
2019/01/21 12:29:00	BASE	11.33	327	12.86	327	1.2	100	1.2	77	205	977.7	NA	0.0000		9999	590	0	0	0
2019/01/21 12:30:00	BASE	10.79	326	12.86	327	1.2	100	1.2	82	215	977.8	NA	0.0000		9999	560	1310	0	0
2019/01/21 12:31:00	BASE	9.87	327	12.86	327	1.2	100	1.2	86	227	977.8	NA	0.0000		9999	590	0	0	0
2019/01/21 12:32:00	BASE	9.55	328	12.86	327	1.2	100	1.2	96	250	977.8	NA	0.0000		9999	620	0	0	0
2019/01/21 12:33:00	BASE	10.34	327	12.86	327	1.2	100	1.2	101	260	977.8	NA	0.0000		9000	660	0	0	0
2019/01/21 12:34:00	BASE	10.32	326	12.86	327	1.2	100	1.2	94	245	977.8	NA	0.0000	BR	8000	790	0	0	0
2019/01/21 12:35:00	BASE	9.79	324	12.86	327	1.2	100	1.2	91	239	977.8	NA	0.0000	BR	8000	820	0	0	0
2019/01/21 12:36:00	BASE	9.76	324	12.86	327	1.2	100	1.2	97	253	977.9	NA	0.0000	BR	9000	660	0	0	0
2019/01/21 12:37:00	BASE	9.28	325	12.86	327	1.2	100	1.2	103	268	977.8	NA	0.0000	BR	9000	620	0	0	0
2019/01/21 12:38:00	BASE	9.15	325	12.40	327	1.2	100	1.2	106	272	977.8	NA	0.0000	BR	9000	750	0	0	0
2019/01/21 12:39:00	BASE	9.49	324	12.40	327	1.2	100	1.2	100	258	977.9	NA	0.0000	BR	9999	790	0	0	0
2019/01/21 12:40:00	BASE	9.43	324	12.40	327	1.2	100	1.2	96	247	977.9	NA	0.0000	BR	9000	750	0	0	0
2019/01/21 12:41:00	BASE	9.37	325	12.40	327	1.2	100	1.2	94	242	977.9	NA	0.0000	BR	9000	690	0	0	0
2019/01/21 12:42:00	BASE	9.55	327	12.40	327	1.2	100	1.2	99	254	977.9	NA	0.0000	BR	9999	720	0	0	0
2019/01/21 12:43:00	BASE	9.48	327	11.32	324	1.2	100	1.2	106	271	977.9	NA	0.0000	BR	9000	560	1120	0	0
2019/01/21 12:44:00	BASE	9.50	327	11.32	324	1.2	100	1.2	114	288	977.9	NA	0.0000	BR	9000	720	0	0	0
2019/01/21 12:45:00	BASE	9.53	329	11.32	324	1.2	100	1.2	126	315	977.9	NA	0.0000	BR	9000	590	0	0	0
2019/01/21 12:46:00	BASE	9.34	329	11.32	324	1.2	100	1.2	137	341	977.9	NA	0.0000	BR	8000	690	0	0	0
2019/01/21 12:47:00	BASE	9.37	327	11.32	324	1.2	100	1.2	154	380	977.9	NA	0.0000	BR	9000	620	1570	0	0
2019/01/21 12:48:00	BASE	9.41	327	10.44	324	1.2	100	1.2	172	422	977.9	NA	0.0000	BR	9999	1770	0	0	0
2019/01/21 12:49:00	BASE	9.62	326	11.32	325	1.2	100	1.2	179	436	977.9	NA	0.0000	BR	9999	1940	0	0	0
2019/01/21 12:50:00	BASE	9.47	327	11.32	325	1.2	100	1.2	181	441	977.9	NA	0.0000	BR	9000	1080	2170	0	0
2019/01/21 12:51:00	BASE	8.83	329	11.32	325	1.3	100	1.3	166	408	977.9	NA	0.0000	BR	9000	950	2330	0	0
2019/01/21 12:52:00	BASE	8.98	330	11.32	325	1.3	100	1.3	150	373	977.9	NA	0.0000	BR	9999	1840	23160	0	0
2019/01/21 12:53:00	BASE	8.82	330	11.32	325	1.3	100	1.3	144	359	977.9	NA	0.0000	BR	9000	1640	0	0	0
2019/01/21 12:54:00	BASE	8.32	330	11.32	325	1.3	100	1.3	136	345	977.9	NA	0.0000	BR	9999	1350	1940	0	0
2019/01/21 12:55:00	BASE	8.28	331	11.32	325	1.3	100	1.3	144	360	977.9	NA	0.0000	BR	9999	1210	0	0	0
2019/01/21 12:56:00	BASE	8.52	332	11.32	325	1.3	100	1.3	150	371	977.9	NA	0.0000	BR	9000	980	0	0	0
2019/01/21 12:57:00	BASE	8.88	330	11.32	325	1.3	100	1.3	143	355	977.9	NA	0.0000	BR	9000	430	0	0	0
2019/01/21 12:58:00	BASE	9.51	327	11.32	325	1.3	100	1.3	143	350	977.9	NA	0.0000	BR	9000	330	1020	0	0
2019/01/21 12:59:00	BASE	9.83	329	11.21	325	1.3	100	1.3	142	349	977.9	NA	0.0000	BR	9000	260	1120	0	0
2019/01/21 13:00:00	BASE	9.25	330	11.21	325	1.3	100	1.3	167	409	978.0	NA	0.0000	BR	9000	260	1670	0	0
2019/01/21 13:01:01	BASE	9.30	328	11.21	325	1.3	100	1.3	194	470	978.0	NA	0.0000	BR	9000	330	1020	0	0
2019/01/21 13:02:00	BASE	9.33	326	11.21	325	1.3	100	1.3	203	493	978.0	NA	0.0000	BR	9000	360	0	0	0
2019/01/21 13:03:00	BASE	9.01	325	11.21	325	1.2	100	1.2	224	538	978.0	NA	0.0000	BR	9000	850	0	0	0
2019/01/21 13:04:00	BASE	8.94	329	11.21	325	1.2	100	1.2	241	574	978.1	NA	0.0000	BR	9000	790	0	0	0
2019/01/21 13:05:00	BASE	8.90	332	11.21	325	1.2	100	1.2	224	537	978.1	NA	0.0000	BR	9999	790	0	0	0
2019/01/21 13:06:00	BASE	9.06	330	11.21	325	1.3	100	1.3	213	514	978.1	NA	0.0000	BR	9999	750	0	0	0
2019/01/21 13:07:00	BASE	9.31	333	11.21	325	1.3	100	1.3	182	448	978.0	NA	0.0000	BR	9999	720	0	0	0
2019/01/21 13:08:00	BASE	8.91	333	10.65	334	1.4	100	1.4	169	418	978.1	NA	0.0000	BR	9999	660	0	0	0
2019/01/21 13:09:00	BASE	8.85	332	10.65	334	1.4	100	1.4	162	402	978.1	NA	0.0000	BR	9999	690	20080	0	0
2019/01/21 13:10:00	BASE	9.12	330	10.65	334	1.4	100	1.4	154	386	978.0	NA	0.0000	BR	9000	660	0	0	0
2019/01/21 13:11:00	BASE	9.12	327	10.65	334	1.4	100	1.4	146	369	978.1	NA	0.0000	BR	9999	720	0	0	0
2019/01/21 13:12:00	BASE	9.02	325	10.65	334	1.4	100	1.4	150	380	978.1	NA	0.0000	BR	9999	620	0	0	0
2019/01/21 13:13:00	BASE	8.66	326	10.65	334	1.4	100	1.4	129	333	978.1	NA	0.0000	BR	9999	620	0	0	0
2019/01/21 13:14:00	BASE	8.17	325	10.65	334	1.4	100	1.4	133	340	978.2	NA	0.0000	BR	9000	560	0	0	0
2019/01/21 13:15:00	BASE	7.93	324	10.65	334	1.4	100	1.4	122	319	978.2	NA	0.0000	BR	9000	620	1510	0	0
2019/01/21 13:16:00	BASE	7.82	325	10.65	334	1.4	100	1.4	125	329	978.2	NA	0.0000	BR	8000	660	0	0	0
2019/01/21 13:17:00	BASE	8.08	327	10.44	325	1.4	100	1.4	120	319	978.1	NA	0.0000	BR	9000	660	0	0	0
2019/01/21 13:18:00	BASE	9.09	331	10.44	325	1.4	100	1.4	112	302	978.1	NA	0.0000	BR	9999	660	0	0	0
2019/01/21 13:19:00	BASE	9.19	329	10.29	329	1.4	100	1.4	109	297	978.1	NA	0.0000	BR	9000	620	0	0	0
2019/01/21 13:20:00	BASE	9.09	328	10.29	329	1.4	100	1.4	102	278	978.2	NA	0.0000	BR	9000	590	0	0	0
2019/01/21 13:21:00	BASE	9.55	331	10.75	325	1.4	100	1.4	92	252	978.2	NA	0.0000	BR	9000	430	0	0	0
2019/01/21 13:22:00	BASE	9.48	333	10.75	325	1.3	100	1.3	83	229	978.2	NA	0.0000	BR	9999	330	0	0	0
2019/01/21 13:23:00	BASE	9.34	332	10.80	329	1.3	100	1.3	83	227	978.1	NA	0.0000	BR	9000	300	0	0	0
2019/01/21 13:24:00	BASE	9.05	330	10.80	329	1.3	100	1.3	89	240	978.2	NA	0.0000	BR	8000	200	1280	0	0
2019/01/21 13:25:00	BASE	9.07	332	10.80	329	1.3	100	1.3	96	261	978.2	NA	0.2540	BR	8000	230	1020	0	0
2019/01/21 13:26:00	BASE	9.58	334	10.80	329	1.2	100	1.2	90	248	978.2	NA	0.0000	BR	8000	720	0	0	0
2019/01/21 13:27:00	BASE	9.43	332	10.80	329	1.2	100	1.2	71	200	978.2	NA	0.0000	BR	9000	390	0	0	0
2019/01/21 13:28:00	BASE	9.03	330	10.80	329	1.2	100	1.2	69	191	978.2	NA	0.0000	BR	9999	0	0	0	1050
2019/01/21 13:29:00	BASE	9.16	330	10.80	329	1.1	100	1.1	77	213	978.2	NA	0.0000	BR	9000	0	0	0	1480
2019/01/21 13:30:00	BASE	9.10	331	10.80	329	1.1	100	1.1	79	218	978.2	NA	0.0000	BR	8000	0	0	0	1510
2019/01/21 13:31:00	BASE	8.99	331	10.80	329	1.1	100	1.1	76	210	978.2	NA	0.0000	BR	8000	0	0	0	1710
2019/01/21 13:32:00	BASE	9.06	332	10.80	329	1.0	100	1.0	82	225	978.2	NA	0.0000	BR	8000	0	0	0	1610
2019/01/21 13:33:00	BASE	9.03	333	10.39	335	1.0	100	1.0	85	233	978.2	NA	0.0000	UP BR	9999	300	0	0	0
2019/01/21 13:34:00	BASE	9.49	332	10.80	324	1.0	100	1.0	91	244	978.2	NA	0.0000	UP BR	9999	390	0	0	0
2019/01/21 13:35:00	BASE	9.43	331	10.80	324	1.0	100	1.0	104	277	978.2	NA	0.0000	UP BR	9999	390	0	0	0
2019/01/21 13:36:00	BASE	9.12	332	10.80	324	1.0	100	1.0	112	294	978.2	NA	0.0000	UP BR	9000	660	0	0	0
2019/01/21 13:37:00	BASE	9.33	331	10.80	324	1.0	100	1.0	125	322	978.2	NA	0.0000	UP BR	9000	620	0	0	0
2019/01/21 13:38:00	BASE	9.62	332	10.80	331	1.1	100	1.1	124	321	978.2	NA	0.0000	UP BR	9000	430	0	0	0
2019/01/21 13:39:00	BASE	9.70	331	11.01	329	1.1	100	1.1	129	334	978.2	NA	0.0000	UP BR	9000	360	0	0	0
2019/01/21 13:40:00	BASE	9.14	332	11.01	329	1.1	100	1.1	134	344	978.3	NA	0.2540	UP BR	9000	430	0	0	0
2019/01/21 13:41:00	BASE	8.76	335	11.01	329	1.1	100	1.1	128	334	978.3	NA	0.0000	UP BR	9000	460	0	0	0
2019/01/21 13:42:00	BASE	9.06	335	11.01	329	1.2	100	1.2	127	331	978.3	NA	0.0000	BR	9999	620	0	0	0
2019/01/21 13:43:00	BASE	9.66	333	11.01	329	1.2	100	1.2	127	332	978.2	NA	0.0000	BR	9999	620	0	0	0
2019/01/21 13:44:00	BASE	10.04	329	11.06	323	1.2	100	1.2	140	363	978.2	NA	0.0000	BR	9000	690	0	0	0
2019/01/21 13:45:00	BASE	9.37	327	11.06	323	1.2	100	1.2	136	353	978.3	NA	0.0000	BR	9000	720	22770	0	0
2019/01/21 13:46:00	BASE	9.03	328	11.06	323	1.2	100	1.2	119	313	978.3	NA	0.0000	BR	8000	790	0	0	0
2019/01/21 13:47:00	BASE	9.32	330	11.06	323	1.2	100	1.2	113	298	978.2	NA	0.0000	BR	9000	820	0	0	0
2019/01/21 13:48:00	BASE	9.27	333	11.06	323	1.2	100	1.2	115	302	978.3	NA	0.0000	BR	9999	790	0	0	0
2019/01/21 13:49:00	BASE	8.64	332	11.06	323	1.2	100	1.2	114	299	978.3	NA	0.0000	BR	9000	790	0	0	0
2019/01/21 13:50:00	BASE	8.32	332	11.06	323	1.2	100	1.2	113	295	978.4	NA	0.0000	BR	9000	750	0	0	0
2019/01/21 13:51:00	BASE	9.05	332	11.06	323	1.2	100	1.2	109	287	978.3	NA	0.0000	BR	9000	750	0	0	0
2019/01/21 13:52:00	BASE	9.22	333	11.06	323	1.2	100	1.2	101	267	978.3	NA	0.0000	BR	9000	690	0	0	0
2019/01/21 13:53:00	BASE	8.52	331	11.06	323	1.2	100	1.2	97	258	978.4	NA	0.0000	BR	9000	690	0	0	0
2019/01/21 13:54:00	BASE	8.49	328	10.49	329	1.3	100	1.3	97	259	978.4	NA	0.0000	BR	9000	720	0	0	0
2019/01/21 13:55:00	BASE	8.56	331	10.34	335	1.3	100	1.3	101	268	978.4	NA	0.0000	BR	8000	690	0	0	0
2019/01/21 13:56:00	BASE	8.83	329	10.34	335	1.3	100	1.3	107	284	978.4	NA	0.0000	BR	9000	750	0	0	0
2019/01/21 13:57:00	BASE	9.19	326	10.29	331	1.3	100	1.3	108	287	978.4	NA	0.0000	BR	9999	690	0	0	0
2019/01/21 13:58:00	BASE	8.82	324	10.29	331	1.3	100	1.3	126	329	978.4	NA	0.0000	BR	9000	690	0	0	0
2019/01/21 13:59:00	BASE	8.96	326	10.39	321	1.3	100	1.3	140	362	978.3	NA	0.0000	BR	9000	720	0	0	0
2019/01/21 14:00:00	BASE	9.20	328	10.91	325	1.4	100	1.4	148	380	978.4	NA	0.0000	BR	9000	750	0	0	0
2019/01/21 14:01:00	BASE	9.74	326	10.91	325	1.4	100	1.4	156	397	978.3	NA	0.0000	BR	9000	790	0	0	0
2019/01/21 14:02:00	BASE	10.23	326	10.91	325	1.4	100	1.4	162	410	978.4	NA	0.0000	BR	9000	790	0	0	0
2019/01/21 14:03:00	BASE	9.67	327	10.91	325	1.4	100	1.4	160	407	978.4	NA	0.0000	BR	9000	850	2070	0	0
2019/01/21 14:04:00	BASE	9.27	327	10.91	325	1.4	100	1.4	168	423	978.4	NA	0.0000	BR	9000	790	0	0	0
2019/01/21 14:05:00	BASE	9.59	328	11.16	324	1.4	100	1.4	163	411	978.4	NA	0.0000	BR	9999	890	0	0	0
2019/01/21 14:06:00	BASE	10.04	327	11.16	324	1.4	100	1.4	144	368	978.5	NA	0.0000	BR	9000	750	0	0	0
2019/01/21 14:07:00	BASE	10.11	329	11.16	324	1.4	100	1.4	149	381	978.5	NA	0.0000	BR	9000	690	0	0	0
2019/01/21 14:08:00	BASE	10.29	329	11.52	326	1.4	100	1.4	150	383	978.5	NA	0.0000	BR	9000	750	0	0	0
2019/01/21 14:09:00	BASE	10.56	325	11.57	322	1.4	100	1.4	132	341	978.4	NA	0.0000	BR	9000	720	0	0	0
2019/01/21 14:10:00	BASE	10.41	326	11.57	322	1.4	100	1.4	142	365	978.5	NA	0.0000	BR	8000	690	0	0	0
2019/01/21 14:11:00	BASE	10.26	328	11.57	322	1.4	100	1.4	152	388	978.5	NA	0.0000	BR	8000	690	0	0	0
2019/01/21 14:12:00	BASE	9.54	327	11.57	322	1.4	100	1.4	160	406	978.5	NA	0.0000	BR	8000	750	0	0	0
2019/01/21 14:13:00	BASE	9.00	326	11.57	322	1.4	100	1.4	178	444	978.5	NA	0.0000	BR	9000	690	0	0	0
2019/01/21 14:14:00	BASE	9.41	327	11.57	322	1.4	100	1.4	178	446	978.5	NA	0.0000	BR	9999	690	1770	0	0
2019/01/21 14:15:00	BASE	9.65	325	11.57	322	1.4	100	1.4	191	475	978.5	NA	0.0000	BR	9999	690	1840	0	0
2019/01/21 14:16:00	BASE	9.85	325	11.57	322	1.4	100	1.4	177	445	978.5	NA	0.0000	BR	9000	660	0	0	0
2019/01/21 14:17:00	BASE	10.26	326	11.68	329	1.5	100	1.5	175	441	978.5	NA	0.0000	BR	9000	660	0	0	0
2019/01/21 14:18:00	BASE	10.48	325	11.68	329	1.5	100	1.5	175	443	978.5	NA	0.0000	BR	9000	620	0	0	0
2019/01/21 14:19:00	BASE	10.26	326	11.68	329	1.5	100	1.5	174	441	978.5	NA	0.0000	BR	9000	660	0	0	0
2019/01/21 14:20:00	BASE	10.16	327	11.68	329	1.5	100	1.5	184	464	978.5	NA	0.0000	BR	9000	660	0	0	0
2019/01/21 14:21:00	BASE	9.99	326	11.68	329	1.5	100	1.5	158	405	978.6	NA	0.0000	BR	9000	660	0	0	0
2019/01/21 14:22:00	BASE	9.41	327	11.68	329	1.4	100	1.4	129	337	978.6	NA	0.0000	BR	9999	690	0	0	0
2019/01/21 14:23:00	BASE	9.39	326	11.68	329	1.4	100	1.4	110	292	978.6	NA	0.0000	BR	9000	520	0	0	0
2019/01/21 14:24:00	BASE	9.47	324	11.68	329	1.4	100	1.4	95	256	978.7	NA	0.0000	BR	8000	460	0	0	0
2019/01/21 14:25:00	BASE	8.77	325	11.68	329	1.4	100	1.4	108	286	978.7	NA	0.0000	BR	8000	490	0	0	0
2019/01/21 14:26:00	BASE	8.55	324	11.68	329	1.4	100	1.4	122	317	978.7	NA	0.0000	BR	8000	820	0	0	0
2019/01/21 14:27:00	BASE	8.99	322	11.11	324	1.4	100	1.4	141	363	978.7	NA	0.0000	BR	8000	390	0	0	0
2019/01/21 14:28:00	BASE	8.70	322	11.01	324	1.4	100	1.4	156	397	978.7	NA	0.0000	BR	8000	820	0	0	0
2019/01/21 14:29:00	BASE	8.62	323	10.85	323	1.4	100	1.4	165	416	978.7	NA	0.0000	BR	8000	790	0	0	0
2019/01/21 14:30:00	BASE	8.75	322	10.55	330	1.4	100	1.4	166	416	978.7	NA	0.0000	BR	9000	720	1570	0	0
2019/01/21 14:31:00	BASE	8.61	322	10.55	330	1.4	100	1.4	161	407	978.7	NA	0.0000	BR	9000	750	0	0	0
2019/01/21 14:32:00	BASE	8.78	322	10.55	330	1.4	100	1.4	152	386	978.7	NA	0.0000	BR	8000	720	0	0	0
2019/01/21 14:33:00	BASE	8.57	323	10.19	321	1.4	100	1.4	170	428	978.7	NA	0.0000	BR	8000	720	0	0	0
2019/01/21 14:34:00	BASE	8.60	325	10.19	321	1.4	100	1.4	172	432	978.7	NA	0.0000	BR	8000	720	0	0	0
2019/01/21 14:35:00	BASE	8.61	325	10.19	321	1.4	100	1.4	177	444	978.8	NA	0.0000	BR	8000	690	22150	0	0
2019/01/21 14:36:00	BASE	8.34	324	9.88	323	1.5	100	1.5	182	456	978.8	NA	0.0000	BR	8000	690	0	0	0
2019/01/21 14:37:00	BASE	8.56	325	9.88	329	1.5	100	1.5	196	488	978.8	NA	0.0000	BR	8000	720	0	0	0
2019/01/21 14:38:00	BASE	8.48	323	9.88	329	1.5	100	1.5	194	484	978.8	NA	0.0000	BR	9000	660	0	0	0
2019/01/21 14:39:00	BASE	8.21	323	9.88	329	1.5	100	1.5	209	518	978.8	NA	0.0000	BR	9000	690	0	0	0
2019/01/21 14:40:00	BASE	8.46	325	9.88	329	1.5	100	1.5	213	528	978.8	NA	0.0000	BR	8000	790	21820	0	0
2019/01/21 14:41:00	BASE	8.77	326	9.88	325	1.5	100	1.5	195	489	978.8	NA	0.0000	BR	8000	1120	1900	0	0
2019/01/21 14:42:00	BASE	8.86	328	10.44	323	1.5	100	1.5	186	471	978.8	NA	0.0000	BR	8000	750	0	0	0
2019/01/21 14:43:00	BASE	9.30	326	10.55	324	1.5	100	1.5	219	541	978.8	NA	0.0000	BR	8000	790	0	0	0
2019/01/21 14:44:00	BASE	9.49	327	10.55	324	1.5	100	1.5	224	552	978.8	NA	0.0000	BR	9000	750	1940	0	0
2019/01/21 14:45:00	BASE	9.02	326	10.55	324	1.5	100	1.5	225	555	978.8	NA	0.0000	BR	9000	720	0	0	0
2019/01/21 14:46:00	BASE	8.64	324	10.55	324	1.5	100	1.5	231	564	978.9	NA	0.0000	BR	8000	430	22110	0	0
2019/01/21 14:47:00	BASE	8.80	324	10.55	325	1.5	100	1.5	199	494	978.8	NA	0.0000	BR	8000	390	0	0	0
2019/01/21 14:48:00	BASE	9.60	326	11.11	327	1.5	100	1.5	212	525	978.8	NA	0.0000	BR	8000	390	0	0	0
2019/01/21 14:49:00	BASE	10.09	328	11.11	327	1.5	100	1.5	233	573	978.8	NA	0.0000	BR	8000	660	0	0	0
2019/01/21 14:50:00	BASE	9.81	328	11.11	327	1.5	100	1.5	235	579	978.9	NA	0.0000	BR	9999	720	0	0	0
2019/01/21 14:51:00	BASE	9.39	328	11.11	327	1.5	100	1.5	251	614	978.9	NA	0.0000	BR	9000	750	0	0	0
2019/01/21 14:52:00	BASE	9.17	327	11.11	327	1.5	100	1.5	254	619	978.9	NA	0.0000	BR	8000	820	0	0	0
2019/01/21 14:53:00	BASE	9.22	327	11.11	327	1.5	100	1.5	248	607	978.9	NA	0.0000	BR	8000	820	21750	0	0
2019/01/21 14:54:00	BASE	9.12	327	11.11	327	1.5	100	1.5	270	655	978.9	NA	0.0000	BR	8000	890	0	0	0
2019/01/21 14:55:00	BASE	8.89	326	11.11	327	1.5	100	1.5	283	686	978.8	NA	0.0000	BR	9000	750	6170	0	0
2019/01/21 14:56:00	BASE	8.81	325	11.11	327	1.5	100	1.5	274	666	978.9	NA	0.0000	BR	9999	750	0	0	0
2019/01/21 14:57:00	BASE	8.92	325	11.11	327	1.5	100	1.5	260	636	978.9	NA	0.0000	BR	9000	850	2230	0	0
2019/01/21 14:58:00	BASE	8.77	325	10.75	326	1.5	100	1.5	258	633	978.9	NA	0.0000	BR	9999	1180	0	0	0
2019/01/21 14:59:00	BASE	8.89	326	10.80	333	1.5	100	1.5	270	659	978.9	NA	0.0000	BR	9000	850	0	0	0
2019/01/21 15:00:00	BASE	9.36	327	10.80	333	1.6	100	1.6	260	637	978.9	NA	0.0000	BR	8000	0	0	0	3610
2019/01/21 15:01:00	BASE	9.01	325	10.80	333	1.6	100	1.6	240	594	978.9	NA	0.0000	BR	9000	390	0	0	0
2019/01/21 15:02:00	BASE	8.88	324	10.80	333	1.6	100	1.6	246	608	978.9	NA	0.0000	BR	8000	390	0	0	0
2019/01/21 15:03:00	BASE	9.71	326	10.96	321	1.6	100	1.6	265	651	978.9	NA	0.0000	BR	8000	430	2000	0	0
2019/01/21 15:04:00	BASE	9.78	326	10.96	321	1.6	100	1.6	266	656	978.9	NA	0.0000	BR	9000	2100	0	0	0
2019/01/21 15:05:00	BASE	9.27	326	10.96	321	1.6	100	1.6	256	637	978.9	NA	0.0000	BR	8000	720	2070	0	0
2019/01/21 15:06:00	BASE	9.44	327	10.96	321	1.6	100	1.6	236	597	978.9	NA	0.0000	BR	8000	1900	0	0	0
2019/01/21 15:07:00	BASE	9.64	326	10.96	321	1.6	100	1.6	217	556	978.9	NA	0.0000	BR	9000	920	0	0	0
2019/01/21 15:08:00	BASE	9.66	323	10.96	321	1.6	100	1.6	226	577	978.9	NA	0.0000	BR	9000	820	0	0	0
2019/01/21 15:09:00	BASE	9.87	324	10.96	321	1.6	100	1.6	241	611	978.9	NA	0.0000	BR	9000	820	0	0	0
2019/01/21 15:10:00	BASE	9.57	325	10.96	321	1.6	100	1.6	241	611	978.9	NA	0.0000	BR	9000	820	2000	0	0
2019/01/21 15:11:00	BASE	9.18	326	10.96	321	1.6	100	1.6	246	622	978.9	NA	0.0000	BR	9999	850	2170	0	0
2019/01/21 15:12:00	BASE	9.58	327	10.96	321	1.5	100	1.5	240	610	978.9	NA	0.0000	BR	9999	850	2000	0	0
2019/01/21 15:13:00	BASE	9.14	327	10.70	325	1.5	100	1.5	241	613	979.0	NA	0.0000	BR	9000	890	0	0	0
2019/01/21 15:14:00	BASE	8.41	328	10.70	325	1.5	100	1.5	241	613	979.0	NA	0.0000	BR	9000	820	1570	0	0
2019/01/21 15:15:00	BASE	8.58	328	10.70	325	1.5	100	1.5	242	615	979.0	NA	0.0000	BR	9999	850	1480	0	0
2019/01/21 15:16:00	BASE	8.60	329	10.70	325	1.5	100	1.5	245	623	979.0	NA	0.0000	BR	9999	1410	0	0	0
2019/01/21 15:17:00	BASE	8.49	328	10.65	327	1.5	100	1.5	256	648	979.0	NA	0.0000	BR	9999	950	1710	0	0
2019/01/21 15:18:00	BASE	8.10	328	10.65	327	1.6	100	1.6	277	692	979.1	NA	0.0000	BR	9000	920	1610	0	0
2019/01/21 15:19:00	BASE	8.67	328	11.21	326	1.6	100	1.6	273	683	979.0	NA	0.0000	BR	9000	820	0	0	0
2019/01/21 15:20:00	BASE	9.77	326	11.21	326	1.6	100	1.6	262	660	979.0	NA	0.0000	BR	9000	850	0	0	0
2019/01/21 15:21:00	BASE	9.69	326	11.21	326	1.6	100	1.6	252	638	979.0	NA	0.0000	BR	9000	820	1640	0	0
2019/01/21 15:22:00	BASE	9.59	328	11.21	326	1.6	100	1.6	248	632	979.0	NA	0.0000	BR	8000	890	0	0	0
2019/01/21 15:23:00	BASE	9.51	330	11.21	326	1.6	100	1.6	263	660	979.0	NA	0.0000	BR	9000	850	0	0	0
2019/01/21 15:24:00	BASE	9.67	332	11.21	326	1.6	100	1.6	245	621	979.0	NA	0.0000	BR	9999	950	1840	0	0
2019/01/21 15:25:00	BASE	9.66	332	11.21	326	1.6	100	1.6	229	586	979.1	NA	0.0000	BR	8000	820	0	0	0
2019/01/21 15:26:00	BASE	9.37	331	11.21	326	1.6	100	1.6	251	634	979.1	NA	0.0000	BR	9000	820	0	0	0
2019/01/21 15:27:00	BASE	9.44	331	11.21	326	1.6	100	1.6	259	652	979.1	NA	0.0000	BR	9000	820	0	0	0
2019/01/21 15:28:00	BASE	9.42	331	11.21	326	1.6	100	1.6	262	660	979.1	NA	0.0000	BR	9000	890	0	0	0
2019/01/21 15:29:00	BASE	9.70	331	11.06	332	1.6	100	1.6	272	680	979.1	NA	0.0000	BR	9999	820	0	0	0
2019/01/21 15:30:00	BASE	9.53	330	11.06	332	1.6	100	1.6	267	668	979.1	NA	0.0000	BR	9999	950	2200	0	0
2019/01/21 15:31:00	BASE	9.31	331	11.06	332	1.6	100	1.6	257	643	979.1	NA	0.0000	BR	9999	790	1870	0	0
2019/01/21 15:32:00	BASE	9.36	333	11.06	332	1.6	100	1.6	211	543	979.1	NA	0.0000	BR	9000	890	0	0	0
2019/01/21 15:33:00	BASE	8.99	332	11.06	332	1.6	100	1.6	204	527	979.2	NA	0.0000	BR	9000	750	0	0	0
2019/01/21 15:34:00	BASE	8.84	332	10.91	329	1.6	100	1.6	195	506	979.2	NA	0.0000	BR	9000	750	0	0	0
2019/01/21 15:35:00	BASE	8.91	331	10.91	329	1.6	100	1.6	204	523	979.2	NA	0.0000	BR	9000	820	0	0	0
2019/01/21 15:36:00	BASE	8.92	330	10.91	329	1.6	100	1.6	191	491	979.2	NA	0.0000	BR	9999	790	0	0	0
2019/01/21 15:37:00	BASE	9.07	332	10.91	329	1.6	100	1.6	187	482	979.2	NA	0.0000	BR	9999	820	0	0	0
2019/01/21 15:38:00	BASE	9.01	335	10.91	329	1.6	100	1.6	203	521	979.2	NA	0.0000	BR	9999	720	0	0	0
2019/01/21 15:39:00	BASE	8.58	334	10.80	341	1.6	100	1.6	198	509	979.2	NA	0.0000	BR	9999	750	0	0	0
2019/01/21 15:40:00	BASE	8.96	329	10.80	341	1.7	100	1.7	209	534	979.2	NA	0.0000	BR	9000	750	0	0	0
2019/01/21 15:41:00	BASE	9.40	328	10.80	341	1.7	100	1.7	229	577	979.2	NA	0.0000	BR	8000	720	0	0	0
2019/01/21 15:42:00	BASE	9.23	328	10.80	341	1.7	100	1.7	248	620	979.2	NA	0.0000	BR	8000	920	0	0	0
2019/01/21 15:43:00	BASE	9.37	327	10.80	341	1.7	100	1.7	237	595	979.2	NA	0.0000	BR	9000	920	0	0	0
2019/01/21 15:44:00	BASE	9.27	328	10.80	341	1.7	100	1.7	211	539	979.2	NA	0.0000	BR	9000	980	0	0	0
2019/01/21 15:45:00	BASE	9.14	328	10.80	341	1.7	100	1.7	194	498	979.2	NA	0.0000	BR	9000	890	0	0	0
2019/01/21 15:46:00	BASE	9.07	327	10.80	341	1.7	100	1.7	178	461	979.2	NA	0.0000	BR	8000	920	0	0	0
2019/01/21 15:47:00	BASE	9.18	331	10.75	336	1.7	100	1.7	183	473	979.2	NA	0.0000	BR	9000	690	0	0	0
2019/01/21 15:48:00	BASE	9.37	332	10.75	336	1.7	100	1.7	190	488	979.2	NA	0.0000	BR	9999	750	21750	0	0
2019/01/21 15:49:00	BASE	9.01	332	10.75	336	1.7	100	1.7	178	461	979.3	NA	0.0000	BR	9000	720	0	0	0
2019/01/21 15:50:00	BASE	9.19	330	10.91	324	1.6	100	1.6	183	475	979.3	NA	0.0000	BR	9999	790	0	0	0
2019/01/21 15:51:00	BASE	9.39	328	10.91	324	1.6	100	1.6	168	440	979.3	NA	0.0000	BR	9000	750	0	0	0
2019/01/21 15:52:00	BASE	9.08	330	10.91	324	1.6	100	1.6	168	439	979.3	NA	0.0000	BR	8000	750	0	0	0
2019/01/21 15:53:00	BASE	9.14	333	10.91	324	1.6	100	1.6	154	408	979.3	NA	0.0000	BR	8000	750	0	0	0
2019/01/21 15:54:00	BASE	9.13	333	10.91	324	1.6	100	1.6	149	395	979.3	NA	0.0000	BR	9000	790	22610	0	0
2019/01/21 15:55:00	BASE	9.02	333	10.91	324	1.6	100	1.6	152	400	979.3	NA	0.0000	BR	9000	720	0	0	0
2019/01/21 15:56:00	BASE	8.87	331	10.91	324	1.6	100	1.6	150	396	979.3	NA	0.0000	BR	9000	790	0	0	0
2019/01/21 15:57:00	BASE	8.68	332	10.91	324	1.6	100	1.6	139	369	979.3	NA	0.0000	BR	9000	720	0	0	0
2019/01/21 15:58:00	BASE	9.13	331	10.91	324	1.6	100	1.6	151	396	979.3	NA	0.0000	BR	8000	750	0	0	0
2019/01/21 15:59:00	BASE	9.15	328	10.91	324	1.6	100	1.6	148	391	979.3	NA	0.0000	BR	8000	750	0	0	0
2019/01/21 16:00:00	BASE	8.82	329	10.49	324	1.6	100	1.6	145	384	979.3	NA	0.0000	BR	8000	750	0	0	0
2019/01/21 16:01:00	BASE	9.00	331	10.49	324	1.6	100	1.6	158	415	979.4	NA	0.0000	BR	8000	690	0	0	0
2019/01/21 16:02:00	BASE	9.08	332	10.49	324	1.6	100	1.6	170	442	979.3	NA	0.0000	BR	8000	720	0	0	0
2019/01/21 16:03:00	BASE	9.04	332	10.49	324	1.6	100	1.6	158	414	979.4	NA	0.0000	BR	8000	750	0	0	0
2019/01/21 16:04:00	BASE	9.02	330	10.49	324	1.6	100	1.6	170	445	979.3	NA	0.0000	BR	9000	690	0	0	0
2019/01/21 16:05:00	BASE	9.21	330	10.49	324	1.6	100	1.6	163	428	979.3	NA	0.0000	BR	9000	720	0	0	0
2019/01/21 16:06:00	BASE	9.42	333	10.49	324	1.6	100	1.6	149	394	979.3	NA	0.0000	BR	9000	850	0	0	0
2019/01/21 16:07:00	BASE	9.17	332	10.49	324	1.6	100	1.6	148	389	979.4	NA	0.0000	BR	9000	720	0	0	0
2019/01/21 16:08:00	BASE	8.80	329	10.39	330	1.6	100	1.6	130	347	979.5	NA	0.0000	BR	9000	750	1310	0	0
2019/01/21 16:09:00	BASE	8.98	327	11.06	332	1.6	100	1.6	135	359	979.4	NA	0.0000	BR	9000	720	0	0	0
2019/01/21 16:10:00	BASE	9.17	329	11.06	332	1.6	100	1.6	142	375	979.5	NA	0.0000	BR	9000	790	0	0	0
2019/01/21 16:11:00	BASE	8.71	333	11.06	332	1.6	100	1.6	141	375	979.5	NA	0.0000	BR	9000	750	0	0	0
2019/01/21 16:12:00	BASE	8.98	332	11.06	332	1.6	100	1.6	148	393	979.5	NA	0.0000	BR	9999	720	0	0	0
2019/01/21 16:13:00	BASE	9.25	327	11.06	332	1.6	100	1.6	158	416	979.5	NA	0.0000	BR	9000	890	0	0	0
2019/01/21 16:14:00	BASE	8.67	323	11.06	332	1.6	100	1.6	165	432	979.5	NA	0.0000	BR	9000	790	0	0	0
2019/01/21 16:15:00	BASE	8.24	323	11.06	332	1.6	100	1.6	163	427	979.5	NA	0.0000	BR	8000	850	0	0	0
2019/01/21 16:16:00	BASE	8.03	325	11.06	332	1.7	100	1.7	150	396	979.6	NA	0.0000	BR	9000	850	0	0	0
2019/01/21 16:17:00	BASE	8.59	327	11.06	332	1.7	100	1.7	144	381	979.5	NA	0.0000	BR	8000	820	0	0	0
2019/01/21 16:18:00	BASE	9.09	325	11.06	332	1.7	100	1.7	138	368	979.5	NA	0.0000	BR	8000	790	0	0	0
2019/01/21 16:19:00	BASE	8.85	321	10.39	322	1.7	100	1.7	132	356	979.6	NA	0.0000	BR	8000	720	0	0	0
2019/01/21 16:20:00	BASE	8.38	319	10.39	322	1.7	100	1.7	147	394	979.6	NA	0.0000	BR	8000	750	0	0	0
2019/01/21 16:21:00	BASE	8.48	321	10.39	322	1.7	100	1.7	175	461	979.6	NA	0.0000	BR	8000	720	0	0	0
2019/01/21 16:22:00	BASE	9.35	324	10.39	322	1.7	100	1.7	196	511	979.6	NA	0.0000	BR	8000	750	0	0	0
2019/01/21 16:23:00	BASE	9.43	326	10.39	322	1.6	100	1.6	231	589	979.6	NA	0.0000	BR	8000	820	0	0	0
2019/01/21 16:24:00	BASE	9.59	327	11.06	327	1.6	100	1.6	261	656	979.5	NA	0.0000	BR	8000	790	0	0	0
2019/01/21 16:25:00	BASE	10.08	328	11.06	327	1.6	100	1.6	237	601	979.5	NA	0.0000	BR	8000	920	0	0	0
2019/01/21 16:26:00	BASE	9.44	330	11.06	327	1.6	100	1.6	208	537	979.6	NA	0.0000	BR	9000	820	0	0	0
2019/01/21 16:27:00	BASE	8.74	330	11.06	327	1.6	100	1.6	207	534	979.6	NA	0.0000	BR	8000	720	20830	0	0
2019/01/21 16:28:00	BASE	8.36	331	11.06	327	1.7	100	1.7	185	484	979.6	NA	0.0000	BR	8000	720	0	0	0
2019/01/21 16:29:00	BASE	8.51	329	11.06	327	1.7	100	1.7	180	471	979.6	NA	0.0000	BR	8000	690	20380	0	0
2019/01/21 16:30:00	BASE	8.83	329	11.06	327	1.7	100	1.7	170	446	979.7	NA	0.0000	BR	8000	820	0	0	0
2019/01/21 16:31:00	BASE	8.89	329	11.06	327	1.7	100	1.7	163	431	979.6	NA	0.0000	BR	8000	750	22510	0	0
2019/01/21 16:32:00	BASE	9.10	327	11.06	327	1.7	100	1.7	167	442	979.7	NA	0.0000	BR	9000	720	0	0	0
2019/01/21 16:33:00	BASE	9.30	326	11.06	327	1.7	100	1.7	177	466	979.7	NA	0.0000	BR	9000	720	0	0	0
2019/01/21 16:34:00	BASE	9.08	324	10.96	330	1.7	100	1.7	157	418	979.7	NA	0.0000	BR	9000	720	0	0	0
2019/01/21 16:35:00	BASE	8.70	321	10.19	327	1.6	100	1.6	169	447	979.7	NA	0.0000	BR	9000	690	0	0	0
2019/01/21 16:36:00	BASE	8.68	322	10.19	327	1.6	100	1.6	180	473	979.7	NA	0.0000	BR	9000	690	0	0	0
2019/01/21 16:37:00	BASE	8.98	324	10.19	327	1.6	100	1.6	186	486	979.7	NA	0.0000	BR	8000	850	0	0	0
2019/01/21 16:38:00	BASE	8.82	326	10.19	327	1.6	100	1.6	190	497	979.8	NA	0.0000	BR	9000	750	0	0	0
2019/01/21 16:39:00	BASE	8.40	323	10.19	327	1.6	100	1.6	194	506	979.8	NA	0.0000	BR	9000	920	0	0	0
2019/01/21 16:40:00	BASE	8.32	325	10.19	327	1.7	100	1.7	205	531	979.8	NA	0.0000	BR	9000	850	0	0	0
2019/01/21 16:41:00	BASE	8.40	326	10.19	327	1.7	100	1.7	183	477	979.8	NA	0.0000	BR	9000	890	0	0	0
2019/01/21 16:42:00	BASE	8.26	324	10.19	327	1.7	100	1.7	166	436	979.8	NA	0.0000	BR	8000	820	0	0	0
2019/01/21 16:43:00	BASE	8.31	325	10.08	328	1.7	100	1.7	161	424	979.8	NA	0.0000	BR	8000	750	0	0	0
2019/01/21 16:44:00	BASE	8.84	325	10.08	328	1.7	100	1.7	155	409	979.8	NA	0.0000	BR	9000	790	0	0	0
2019/01/21 16:45:00	BASE	8.98	325	10.08	328	1.7	100	1.7	156	409	979.8	NA	0.0000	BR	8000	920	0	0	0
2019/01/21 16:46:00	BASE	8.84	322	10.08	328	1.7	100	1.7	157	412	979.8	NA	0.0000	BR	8000	890	0	0	0
2019/01/21 16:47:00	BASE	8.79	319	9.88	332	1.7	100	1.7	173	450	979.8	NA	0.0000	BR	9000	850	0	0	0
2019/01/21 16:48:00	BASE	8.40	322	9.88	332	1.7	100	1.7	183	474	979.8	NA	0.0000	BR	8000	980	0	0	0
2019/01/21 16:49:00	BASE	8.16	325	9.88	332	1.7	100	1.7	194	497	979.8	NA	0.0000	BR	8000	850	0	0	0
2019/01/21 16:50:00	BASE	8.56	327	9.88	332	1.7	100	1.7	198	506	979.8	NA	0.0000	BR	9000	950	0	0	0
2019/01/21 16:51:00	BASE	8.76	327	10.24	331	1.7	100	1.7	185	477	979.8	NA	0.0000	BR	8000	890	0	0	0
2019/01/21 16:52:00	BASE	8.48	330	10.24	331	1.7	100	1.7	180	466	979.8	NA	0.0000	BR	8000	820	0	0	0
2019/01/21 16:53:00	BASE	8.25	330	10.24	331	1.7	100	1.7	187	482	979.8	NA	0.0000	BR	9000	750	0	0	0
2019/01/21 16:54:00	BASE	8.97	327	10.44	328	1.7	100	1.7	185	479	979.8	NA	0.0000	BR	9000	820	0	0	0
2019/01/21 16:55:00	BASE	9.78	325	10.80	323	1.7	100	1.7	206	528	979.8	NA	0.0000	BR	9000	890	0	0	0
2019/01/21 16:56:00	BASE	9.48	326	10.80	323	1.7	100	1.7	210	537	979.8	NA	0.0000	BR	9000	850	0	0	0
2019/01/21 16:57:00	BASE	9.10	326	10.80	323	1.7	100	1.7	208	533	979.9	NA	0.0000	BR	9999	980	0	0	0
2019/01/21 16:58:00	BASE	8.93	324	10.80	323	1.7	100	1.7	218	554	979.9	NA	0.0000	BR	9000	1020	0	0	0
2019/01/21 16:59:00	BASE	8.69	322	10.80	323	1.7	100	1.7	218	553	979.9	NA	0.0000	BR	8000	890	0	0	0
2019/01/21 17:00:00	BASE	8.77	324	10.80	323	1.7	100	1.7	216	545	979.9	NA	0.0000	BR	8000	950	0	0	0
2019/01/21 17:01:00	BASE	8.73	324	10.80	323	1.8	100	1.8	235	587	979.9	NA	0.0000	BR	8000	920	0	0	0
2019/01/21 17:02:00	BASE	8.91	321	10.80	323	1.8	100	1.8	226	567	979.9	NA	0.0000	BR	8000	1050	0	0	0
2019/01/21 17:03:00	BASE	9.52	321	10.80	323	1.8	100	1.8	240	596	979.9	NA	0.0000	BR	8000	950	0	0	0
2019/01/21 17:04:00	BASE	9.54	321	10.80	323	1.8	100	1.8	257	636	979.9	NA	0.0000	BR	9999	1050	0	0	0
2019/01/21 17:05:00	BASE	9.18	322	10.55	321	1.8	100	1.8	252	624	979.9	NA	0.0000	BR	9000	1350	0	0	0
2019/01/21 17:06:00	BASE	8.99	321	10.55	321	1.8	100	1.8	238	594	980.0	NA	0.0000	BR	9000	1210	0	0	0
2019/01/21 17:07:00	BASE	8.40	323	10.55	321	1.8	100	1.8	229	575	980.0	NA	0.0000	BR	9000	1180	0	0	0
2019/01/21 17:08:00	BASE	8.02	325	10.55	321	1.9	100	1.9	239	597	980.1	NA	0.0000	BR	9000	980	0	0	0
2019/01/21 17:09:00	BASE	8.15	323	10.55	321	1.9	100	1.9	247	615	980.1	NA	0.0000	BR	8000	1020	0	0	0
2019/01/21 17:10:00	BASE	7.99	322	10.55	321	1.9	100	1.9	249	620	980.1	NA	0.0000	BR	9000	1080	0	0	0
2019/01/21 17:11:00	BASE	8.05	321	10.55	321	1.8	100	1.8	237	590	980.1	NA	0.0000	BR	9000	1050	18730	0	0
2019/01/21 17:12:00	BASE	8.26	320	10.55	321	1.8	100	1.8	223	558	980.1	NA	0.0000	BR	9000	1080	0	0	0
2019/01/21 17:13:00	BASE	8.43	319	10.13	319	1.8	100	1.8	215	537	980.1	NA	0.0000	BR	8000	1050	23230	0	0
2019/01/21 17:14:00	BASE	8.67	320	9.98	322	1.8	100	1.8	205	515	980.1	NA	0.0000	BR	8000	1020	0	0	0
2019/01/21 17:15:00	BASE	8.28	317	9.77	321	1.8	100	1.8	199	500	980.1	NA	0.0000	BR	8000	1020	0	0	0
2019/01/21 17:16:00	BASE	7.96	316	9.77	321	1.8	100	1.8	202	508	980.1	NA	0.0000	BR	9999	1480	0	0	0
2019/01/21 17:17:00	BASE	7.88	321	9.77	321	1.8	100	1.8	209	523	980.1	NA	0.0000	BR	9999	1150	0	0	0
2019/01/21 17:18:00	BASE	7.97	322	9.77	321	1.8	100	1.8	223	552	980.2	NA	0.0000	BR	9000	1120	0	0	0
2019/01/21 17:19:00	BASE	8.18	320	9.77	321	1.9	100	1.9	229	566	980.2	NA	0.0000	BR	9000	1050	1640	0	0
2019/01/21 17:20:00	BASE	8.08	321	9.77	321	1.9	100	1.9	224	553	980.2	NA	0.0000	BR	9999	1120	0	0	0
2019/01/21 17:21:01	BASE	8.19	322	9.77	321	1.9	100	1.9	211	524	980.2	NA	0.0000	BR	9000	1120	0	0	0
2019/01/21 17:22:00	BASE	8.14	321	9.77	321	1.9	100	1.9	202	504	980.2	NA	0.0000	BR	9999	1150	0	0	0
2019/01/21 17:23:00	BASE	8.01	320	9.77	321	1.9	100	1.9	214	531	980.2	NA	0.0000	BR	9999	520	0	0	0
2019/01/21 17:24:00	BASE	8.07	320	9.41	311	1.9	100	1.9	222	549	980.2	NA	0.0000	BR	9999	920	0	0	0
2019/01/21 17:25:00	BASE	8.23	321	9.41	311	1.9	100	1.9	225	555	980.2	NA	0.0000	BR	9999	1020	0	0	0
2019/01/21 17:26:00	BASE	8.46	323	9.52	319	1.9	100	1.9	227	561	980.2	NA	0.0000	BR	9999	1210	0	0	0
2019/01/21 17:27:00	BASE	8.65	321	9.52	319	1.9	100	1.9	233	575	980.2	NA	0.0000	BR	9999	1150	0	0	0
2019/01/21 17:28:00	BASE	8.72	322	9.57	315	1.9	100	1.9	248	608	980.2	NA	0.0000	BR	9999	1050	0	0	0
2019/01/21 17:29:00	BASE	8.16	321	9.57	315	1.9	100	1.9	245	601	980.2	NA	0.0000	BR	9000	1150	0	0	0
2019/01/21 17:30:00	BASE	7.68	320	9.57	315	1.9	100	1.9	234	576	980.2	NA	0.0000	BR	9999	1180	0	0	0
2019/01/21 17:31:00	BASE	7.58	321	9.57	315	1.9	100	1.9	217	537	980.3	NA	0.0000	BR	9000	430	0	0	0
2019/01/21 17:32:00	BASE	7.59	322	9.57	315	1.9	100	1.9	204	510	980.3	NA	0.0000	BR	8000	1250	0	0	0
2019/01/21 17:33:00	BASE	7.52	323	9.57	315	1.9	100	1.9	203	508	980.2	NA	0.0000	BR	9999	1250	0	0	0
2019/01/21 17:34:00	BASE	7.05	325	9.57	315	1.9	100	1.9	210	523	980.3	NA	0.0000	BR	9000	1150	22970	0	0
2019/01/21 17:35:00	BASE	6.84	324	9.57	315	1.9	100	1.9	223	554	980.3	NA	0.0000	BR	9999	1150	0	0	0
2019/01/21 17:36:00	BASE	7.09	320	9.57	315	1.9	100	1.9	238	585	980.3	NA	0.0000	BR	9999	1250	1800	0	0
2019/01/21 17:37:00	BASE	7.28	322	9.57	315	1.9	100	1.9	241	593	980.3	NA	0.0000	BR	9999	1710	0	0	0
2019/01/21 17:38:00	BASE	7.00	325	8.69	324	1.9	100	1.9	234	578	980.4	NA	0.0000	BR	8000	1180	1740	0	0
2019/01/21 17:39:00	BASE	6.74	325	8.69	324	1.9	100	1.9	231	573	980.3	NA	0.0000	BR	8000	1150	0	0	0
2019/01/21 17:40:00	BASE	6.55	324	8.69	324	1.9	100	1.9	231	574	980.4	NA	0.0000	BR	9000	1150	0	0	0
2019/01/21 17:41:00	BASE	6.73	324	8.69	324	1.9	100	1.9	226	561	980.4	NA	0.0000	BR	9000	1150	0	0	0
2019/01/21 17:42:00	BASE	6.88	327	8.33	325	1.9	100	1.9	212	531	980.4	NA	0.0000	BR	8000	1120	0	0	0
2019/01/21 17:43:00	BASE	6.92	329	8.39	324	1.9	100	1.9	197	497	980.4	NA	0.0000	BR	9000	1080	0	0	0
2019/01/21 17:44:00	BASE	7.40	328	8.49	325	1.9	100	1.9	192	485	980.4	NA	0.0000	BR	9000	1080	0	0	0
2019/01/21 17:45:00	BASE	7.46	329	8.49	325	1.9	100	1.9	201	507	980.4	NA	0.0000	BR	9000	1120	0	0	0
2019/01/21 17:46:00	BASE	7.56	329	8.49	325	1.8	100	1.8	221	551	980.4	NA	0.0000	BR	9999	1050	0	0	0
2019/01/21 17:47:00	BASE	7.40	329	8.49	325	1.8	100	1.8	237	587	980.4	NA	0.0000	BR	9999	1120	0	0	0
2019/01/21 17:48:00	BASE	7.29	330	8.49	325	1.8	100	1.8	236	586	980.4	NA	0.0000	BR	9000	1080	0	0	0
2019/01/21 17:49:00	BASE	7.36	329	8.49	325	1.8	100	1.8	242	600	980.4	NA	0.0000	BR	9999	1080	21330	0	0
2019/01/21 17:50:00	BASE	6.75	330	8.49	325	1.8	100	1.8	249	615	980.4	NA	0.0000	BR	9000	1120	0	0	0
2019/01/21 17:51:00	BASE	6.78	331	8.49	325	1.8	100	1.8	251	619	980.4	NA	0.0000	BR	9999	1180	0	0	0
2019/01/21 17:52:00	BASE	7.34	331	8.49	325	1.8	100	1.8	268	658	980.4	NA	0.0000	BR	9000	1080	1940	0	0
2019/01/21 17:53:00	BASE	7.11	329	8.49	325	1.8	100	1.8	285	695	980.4	NA	0.0000	BR	8000	1120	0	0	0
2019/01/21 17:54:00	BASE	7.00	330	8.39	329	1.8	100	1.8	291	706	980.4	NA	0.0000	BR	9000	1210	1800	0	0
2019/01/21 17:55:00	BASE	7.39	330	8.39	335	1.8	100	1.8	290	703	980.4	NA	0.0000	BR	9999	1280	1840	0	0
2019/01/21 17:56:00	BASE	7.27	334	8.39	335	1.8	100	1.8	293	709	980.4	NA	0.0000	BR	9000	1250	1940	0	0
2019/01/21 17:57:00	BASE	6.98	334	8.39	335	1.9	100	1.9	307	740	980.4	NA	0.0000	BR	9000	1280	1870	0	0
2019/01/21 17:58:00	BASE	6.84	332	8.39	335	1.9	100	1.9	341	811	980.4	NA	0.0000	BR	9999	1510	1970	0	0
2019/01/21 17:59:00	BASE	7.44	333	8.85	333	1.9	100	1.9	367	861	980.4	NA	0.0000	BR	9000	1380	2260	0	0
2019/01/21 18:00:00	BASE	7.91	334	8.85	333	2.0	100	2.0	366	858	980.4	NA	0.0000	BR	9000	2230	2850	0	0
2019/01/21 18:01:00	BASE	7.37	336	8.85	333	2.0	100	2.0	370	867	980.5	NA	0.0000	BR	9000	1510	6820	0	0
2019/01/21 18:02:00	BASE	7.41	336	8.85	333	2.0	100	2.0	375	876	980.5	NA	0.0000	BR	9000	1510	2030	0	0
2019/01/21 18:03:00	BASE	7.94	333	8.85	333	2.0	100	2.0	368	863	980.5	NA	0.0000	BR	9000	1350	2100	0	0
2019/01/21 18:04:00	BASE	7.88	334	8.85	333	2.0	100	2.0	360	845	980.5	NA	0.0000	BR	9000	2070	6730	0	0
2019/01/21 18:05:00	BASE	8.00	336	9.05	334	2.0	100	2.0	346	815	980.5	NA	0.0000	BR	9999	2070	6820	0	0
2019/01/21 18:06:00	BASE	8.08	333	9.05	334	2.0	100	2.0	335	793	980.6	NA	0.0000	BR	9999	2070	6820	0	0
2019/01/21 18:07:00	BASE	7.70	333	9.05	334	2.0	100	2.0	331	787	980.6	NA	0.0000	BR	9000	1310	2170	0	0
2019/01/21 18:08:00	BASE	7.50	334	9.05	334	2.0	100	2.0	340	804	980.5	NA	0.0000	BR	8000	1150	2070	0	0
2019/01/21 18:09:00	BASE	7.19	333	9.05	334	2.0	100	2.0	343	811	980.6	NA	0.0000	BR	8000	2990	0	0	0
2019/01/21 18:10:00	BASE	7.34	333	9.05	334	2.0	100	2.0	351	828	980.6	NA	0.0000	BR	9000	3020	0	0	0
2019/01/21 18:11:00	BASE	7.55	333	9.05	336	2.0	100	2.0	358	841	980.6	NA	0.0000	BR	9000	1710	2720	0	0
2019/01/21 18:12:00	BASE	7.88	333	9.05	335	2.0	100	2.0	365	854	980.5	NA	0.0000	BR	8000	1250	2990	0	0
2019/01/21 18:13:00	BASE	7.61	331	9.05	335	2.0	100	2.0	367	857	980.6	NA	0.0000	BR	9000	1350	2850	0	0
2019/01/21 18:14:00	BASE	6.97	330	9.05	335	2.0	100	2.0	367	857	980.6	NA	0.0000	BR	9000	1080	2920	0	0
2019/01/21 18:15:00	BASE	7.24	332	9.05	335	2.0	100	2.0	369	860	980.6	NA	0.0000	BR	9999	1050	2890	0	0
2019/01/21 18:16:00	BASE	7.14	333	9.05	335	2.1	100	2.1	367	853	980.6	NA	0.0000	BR	9999	1440	2590	0	0
2019/01/21 18:17:00	BASE	7.08	334	9.05	335	2.1	100	2.1	363	844	980.6	NA	0.0000	BR	9000	3120	6820	0	0
2019/01/21 18:18:00	BASE	7.36	334	9.05	335	2.1	100	2.1	351	818	980.6	NA	0.0000	BR	9999	2850	6890	0	0
2019/01/21 18:19:00	BASE	7.56	331	9.05	335	2.1	100	2.1	332	778	980.6	NA	0.0000	BR	9999	6860	0	0	0
2019/01/21 18:20:00	BASE	7.47	332	9.05	335	2.1	100	2.1	313	739	980.7	NA	0.0000	BR	9000	2790	0	0	0
2019/01/21 18:21:00	BASE	7.59	330	9.05	335	2.1	100	2.1	297	707	980.7	NA	0.0000	BR	9999	2950	0	0	0
2019/01/21 18:22:00	BASE	7.77	329	8.95	324	2.1	100	2.1	280	673	980.7	NA	0.0000	BR	9999	2330	19160	0	0
2019/01/21 18:23:00	BASE	7.53	330	8.95	324	2.1	100	2.1	271	655	980.7	NA	0.0000	BR	9999	2400	0	0	0
2019/01/21 18:24:00	BASE	7.53	330	8.95	324	2.1	100	2.1	270	653	980.7	NA	0.0000	BR	9999	2170	0	0	0
2019/01/21 18:25:00	BASE	7.56	331	8.75	333	2.1	100	2.1	266	643	980.7	NA	0.0000	BR	9000	1210	2170	0	0
2019/01/21 18:26:00	BASE	7.57	329	8.75	333	2.1	100	2.1	256	623	980.8	NA	0.0000	BR	9999	2230	0	0	0
2019/01/21 18:27:00	BASE	7.20	329	8.75	333	2.1	100	2.1	246	602	980.8	NA	0.0000	BR	9000	1380	2170	0	0
2019/01/21 18:28:00	BASE	6.64	333	8.75	333	2.0	100	2.0	236	578	980.8	NA	0.0000	BR	9000	2130	0	0	0
2019/01/21 18:29:00	BASE	7.11	335	8.75	333	2.0	100	2.0	232	572	980.8	NA	0.0000	BR	9000	1410	2100	0	0
2019/01/21 18:30:00	BASE	7.63	335	8.75	333	2.0	100	2.0	241	591	980.7	NA	0.0000	BR	9999	2130	0	0	0
2019/01/21 18:31:00	BASE	7.54	334	9.00	324	2.0	100	2.0	255	622	980.8	NA	0.0000	BR	9999	2100	22020	0	0
2019/01/21 18:32:00	BASE	7.03	332	9.00	324	2.0	100	2.0	263	639	980.8	NA	0.0000	BR	9000	2200	0	0	0
2019/01/21 18:33:00	BASE	6.66	331	9.00	324	2.0	100	2.0	257	626	980.8	NA	0.0000	BR	9999	2330	0	0	0
2019/01/21 18:34:00	BASE	6.80	330	9.00	324	2.1	100	2.1	246	603	980.8	NA	0.0000	BR	9999	2170	0	0	0
2019/01/21 18:35:00	BASE	6.89	331	9.00	324	2.1	100	2.1	242	595	980.8	NA	0.0000	BR	9000	2130	0	0	0
2019/01/21 18:36:00	BASE	6.86	331	9.00	324	2.1	100	2.1	245	602	980.8	NA	0.0000	BR	9999	2130	0	0	0
2019/01/21 18:37:00	BASE	7.02	330	9.00	324	2.1	100	2.1	250	612	980.8	NA	0.0000	BR	9000	2230	0	0	0
2019/01/21 18:38:00	BASE	7.16	330	9.00	324	2.1	100	2.1	253	619	980.8	NA	0.0000	BR	9000	2200	0	0	0
2019/01/21 18:39:00	BASE	7.07	329	9.00	324	2.1	100	2.1	250	612	980.9	NA	0.0000	BR	9000	2300	0	0	0
2019/01/21 18:40:00	BASE	6.64	330	9.00	324	2.1	100	2.1	239	587	980.9	NA	0.0000	BR	9999	2330	0	0	0
2019/01/21 18:41:00	BASE	6.48	332	8.18	330	2.1	100	2.1	225	556	980.9	NA	0.0000	BR	9999	2330	0	0	0
2019/01/21 18:42:00	BASE	7.11	331	8.18	330	2.1	100	2.1	212	529	980.9	NA	0.0000	BR	9999	2300	0	0	0
2019/01/21 18:43:00	BASE	7.34	332	8.18	330	2.1	100	2.1	203	508	980.9	NA	0.0000	BR	9999	2260	0	0	0
2019/01/21 18:44:00	BASE	7.53	332	8.33	328	2.1	100	2.1	196	493	980.9	NA	0.0000		9999	2260	0	0	0
2019/01/21 18:45:00	BASE	7.57	331	8.33	328	2.1	100	2.1	192	485	980.9	NA	0.0000		9999	2260	0	0	0
2019/01/21 18:46:00	BASE	7.13	333	8.33	328	2.1	100	2.0	193	488	980.9	NA	0.0000		9999	2230	0	0	0
2019/01/21 18:47:00	BASE	6.58	334	8.33	328	2.0	100	2.0	199	502	981.0	NA	0.0000		9999	2170	0	0	0
2019/01/21 18:48:00	BASE	7.00	333	8.49	330	2.0	100	2.0	210	527	981.0	NA	0.0000		9000	2330	0	0	0
2019/01/21 18:49:00	BASE	7.15	332	8.49	330	2.0	100	2.0	226	563	981.0	NA	0.0000		9000	2130	21230	0	0
2019/01/21 18:50:00	BASE	6.47	333	8.49	330	2.0	100	2.0	244	603	981.0	NA	0.0000	BR	8000	2030	0	0	0
2019/01/21 18:51:00	BASE	6.36	333	8.49	330	2.0	100	2.0	263	643	981.0	NA	0.0000	BR	8000	1640	2000	19520	0
2019/01/21 18:52:00	BASE	6.34	330	8.49	330	2.0	100	2.0	284	686	981.0	NA	0.0000	BR	9999	2070	0	0	0
2019/01/21 18:53:00	BASE	6.16	327	8.49	330	2.1	100	2.1	300	720	981.0	NA	0.0000	BR	9000	2030	24250	0	0
2019/01/21 18:54:00	BASE	6.00	321	8.49	330	2.1	100	2.1	304	726	981.0	NA	0.0000	BR	9000	2000	0	0	0
2019/01/21 18:55:00	BASE	6.47	317	8.49	330	2.1	100	2.1	295	706	981.0	NA	0.0000	BR	9000	2200	0	0	0
2019/01/21 18:56:00	BASE	7.47	319	8.54	323	2.1	100	2.1	282	679	981.0	NA	0.0000	BR	9000	2130	0	0	0
2019/01/21 18:57:00	BASE	7.57	320	8.54	323	2.1	100	2.1	273	660	981.0	NA	0.0000	BR	9999	2030	0	0	0
2019/01/21 18:58:00	BASE	7.37	317	8.54	323	2.1	100	2.1	282	681	981.0	NA	0.0000	BR	9999	2000	0	0	0
2019/01/21 18:59:00	BASE	7.11	318	8.54	323	2.2	100	2.2	290	698	981.0	NA	0.0000	BR	9999	2070	23690	0	0
2019/01/21 19:00:00	BASE	6.60	320	8.54	323	2.2	100	2.2	291	700	981.0	NA	0.0000	BR	9000	2460	0	0	0
2019/01/21 19:01:00	BASE	6.46	322	8.54	323	2.2	100	2.2	300	721	981.0	NA	0.0000	BR	9999	2260	0	0	0
2019/01/21 19:02:00	BASE	6.27	323	8.54	323	2.2	100	2.2	318	757	981.0	NA	0.0000	BR	9999	2260	0	0	0
2019/01/21 19:03:00	BASE	6.10	318	8.54	323	2.2	100	2.2	338	799	981.0	NA	0.0000	BR	9999	1570	2230	0	0
2019/01/21 19:04:00	BASE	6.22	318	8.54	323	2.2	100	2.2	344	809	981.0	NA	0.0000	BR	9999	1480	2460	0	0
2019/01/21 19:05:00	BASE	6.18	320	8.54	323	2.2	100	2.2	327	771	981.0	NA	0.0000	BR	9999	2360	22640	0	0
2019/01/21 19:06:00	BASE	6.08	322	8.03	310	2.3	100	2.3	309	733	981.0	NA	0.0000		9999	1570	2360	0	0
2019/01/21 19:07:00	BASE	6.39	324	8.03	310	2.3	100	2.3	308	728	981.0	NA	0.0000		9999	1570	2400	0	0
2019/01/21 19:08:00	BASE	6.52	324	7.92	319	2.3	100	2.3	314	741	981.0	NA	0.0000		9999	1740	2260	0	0
2019/01/21 19:09:00	BASE	6.58	319	7.92	319	2.4	100	2.4	338	793	981.0	NA	0.0000		9999	2460	0	0	0
2019/01/21 19:10:00	BASE	6.53	318	7.92	319	2.4	100	2.4	373	860	981.0	NA	0.0000		9999	2720	0	0	0
2019/01/21 19:11:00	BASE	6.76	325	7.92	319	2.4	100	2.4	376	864	981.0	NA	0.0000		9999	1480	2360	0	0
2019/01/21 19:12:00	BASE	7.16	328	7.92	319	2.4	100	2.4	373	856	981.0	NA	0.0000		9999	2000	22510	0	0
2019/01/21 19:13:00	BASE	7.18	329	7.92	319	2.3	100	2.3	350	806	981.0	NA	0.0000		9000	0	0	0	690
2019/01/21 19:14:00	BASE	6.96	328	7.92	319	2.2	100	2.2	353	808	981.0	NA	0.0000	BR	9999	0	0	0	2950
2019/01/21 19:15:00	BASE	6.90	327	7.92	319	2.1	100	2.1	357	813	981.0	NA	0.0000	BR	8000	0	0	0	3120
2019/01/21 19:16:00	BASE	7.01	326	7.92	319	2.1	100	2.1	337	768	981.0	NA	0.0000	BR	9000	0	0	0	2460
2019/01/21 19:17:00	BASE	6.89	325	7.72	327	2.0	100	2.0	307	704	981.0	NA	0.0000	BR	9000	22380	0	0	0
2019/01/21 19:18:00	BASE	6.50	327	7.72	327	2.0	100	2.0	292	673	981.1	NA	0.0000	BR	9000	0	0	0	2300
2019/01/21 19:19:00	BASE	6.34	328	7.72	327	2.0	100	2.0	278	645	981.2	NA	0.0000	BR	9999	360	22540	0	0
2019/01/21 19:20:00	BASE	6.37	327	7.72	327	1.9	100	1.9	268	625	981.2	NA	0.0000	BR	9999	0	0	0	2260
2019/01/21 19:21:00	BASE	6.11	328	7.72	327	1.9	100	1.9	265	620	981.2	NA	0.0000	BR	9999	660	0	0	0
2019/01/21 19:22:00	BASE	5.86	328	7.51	322	1.8	100	1.8	265	620	981.2	NA	0.0000	BR	9000	2330	0	0	0
2019/01/21 19:23:00	BASE	5.84	330	7.51	322	1.8	100	1.8	258	605	981.2	NA	0.0000	BR	9999	430	0	0	0
2019/01/21 19:24:00	BASE	5.66	330	7.51	322	1.8	100	1.8	249	588	981.2	NA	0.0000	BR	9999	390	0	0	0
2019/01/21 19:25:00	BASE	5.31	329	7.31	327	1.8	100	1.8	246	584	981.2	NA	0.0000	BR	9000	360	0	0	0
2019/01/21 19:26:00	BASE	5.15	331	7.25	323	1.7	100	1.7	242	575	981.2	NA	0.0000	BR	9999	0	0	0	2590
2019/01/21 19:27:00	BASE	5.14	331	7.00	325	1.7	100	1.7	243	576	981.2	NA	0.0000	BR	9999	0	0	0	2620
2019/01/21 19:28:00	BASE	5.24	331	7.00	325	1.7	100	1.7	247	582	981.2	NA	0.0000	BR	9999	390	0	0	0
2019/01/21 19:29:00	BASE	5.10	330	6.53	320	1.6	100	1.6	231	547	981.2	NA	0.0000	BR	9000	360	0	0	0
2019/01/21 19:30:00	BASE	4.92	330	6.53	320	1.6	100	1.6	220	527	981.2	NA	0.0000	BR	9999	0	0	0	2690
2019/01/21 19:31:00	BASE	5.07	330	6.53	320	1.6	100	1.6	222	532	981.3	NA	0.0000	BR	9999	390	2400	0	0
2019/01/21 19:32:00	BASE	5.34	329	6.43	333	1.6	100	1.6	230	548	981.2	NA	0.0000		9999	330	0	0	0
2019/01/21 19:33:00	BASE	5.69	330	6.28	328	1.6	100	1.6	237	560	981.2	NA	0.0000		9999	0	0	0	2400
2019/01/21 19:34:00	BASE	5.76	332	6.33	329	1.6	100	1.6	243	573	981.3	NA	0.0000		9999	360	0	0	0
2019/01/21 19:35:00	BASE	5.29	334	6.33	329	1.5	100	1.5	264	618	981.2	NA	0.0000		9999	260	2230	0	0
2019/01/21 19:36:00	BASE	5.01	335	6.33	329	1.5	100	1.5	278	651	981.2	NA	0.0000		9000	2100	0	0	0
2019/01/21 19:37:00	BASE	5.02	336	6.33	329	1.5	100	1.5	284	664	981.3	NA	0.0000	UP	9999	2030	0	0	0
2019/01/21 19:38:00	BASE	5.13	337	6.33	329	1.5	100	1.5	281	658	981.3	NA	0.0000	UP	9999	2030	0	0	0
2019/01/21 19:39:00	BASE	5.23	334	6.33	329	1.5	100	1.5	273	639	981.4	NA	0.0000	UP	9999	1410	0	0	0
2019/01/21 19:40:00	BASE	5.40	335	6.33	329	1.5	100	1.5	269	629	981.4	NA	0.0000	UP	9999	2720	0	0	0
2019/01/21 19:41:00	BASE	5.43	336	6.33	329	1.5	100	1.5	280	654	981.4	NA	0.0000	UP	9999	2690	0	0	0
2019/01/21 19:42:00	BASE	5.26	334	6.33	329	1.5	100	1.5	291	674	981.4	NA	0.0000	UP	9999	1740	0	0	0
2019/01/21 19:43:00	BASE	5.37	332	6.33	329	1.5	100	1.5	316	729	981.4	NA	0.0000	UP	9999	330	1740	0	0
2019/01/21 19:44:00	BASE	5.55	330	6.28	333	1.5	100	1.5	315	726	981.4	NA	0.0000	UP	9999	1570	2400	0	0
2019/01/21 19:45:00	BASE	5.74	328	6.28	331	1.5	100	1.5	315	724	981.4	NA	0.0000	UP	9999	1740	2430	0	0
2019/01/21 19:46:00	BASE	5.60	326	6.28	331	1.5	100	1.5	320	735	981.4	NA	0.0000	UP	9999	1800	2620	0	0
2019/01/21 19:47:01	BASE	4.84	325	6.28	331	1.6	100	1.6	331	758	981.4	NA	0.0000		9999	1610	3350	19230	0
2019/01/21 19:48:01	BASE	4.76	325	6.28	331	1.6	100	1.6	316	725	981.4	NA	0.0000		9000	1570	0	0	0
2019/01/21 19:49:01	BASE	4.87	326	6.28	331	1.7	100	1.7	283	655	981.5	NA	0.0000		9000	2000	3280	0	0
2019/01/21 19:50:01	BASE	4.54	329	6.28	331	1.7	100	1.7	250	584	981.5	NA	0.0000		9999	2100	3180	0	0
2019/01/21 19:51:01	BASE	4.60	332	6.28	331	1.8	100	1.8	229	541	981.5	NA	0.0000		9999	1310	2100	7090	0
2019/01/21 19:52:01	BASE	4.79	333	6.28	331	1.7	100	1.7	223	529	981.5	NA	0.0000		9999	1180	2170	0	0
2019/01/21 19:53:01	BASE	4.88	332	6.28	331	1.7	100	1.7	210	500	981.5	NA	0.0000		9999	1180	21650	0	0
2019/01/21 19:54:01	BASE	4.76	333	6.28	331	1.6	100	1.6	198	474	981.5	NA	0.0000		9999	1310	0	0	0
2019/01/21 19:55:01	BASE	4.60	335	5.81	321	1.5	100	1.5	195	470	981.5	NA	0.0000		9999	1280	0	0	0
2019/01/21 19:56:01	BASE	4.73	334	5.56	326	1.5	100	1.5	191	460	981.5	NA	0.0000		9999	980	1640	2130	0
2019/01/21 19:57:01	BASE	4.96	333	5.56	326	1.5	100	1.5	179	434	981.5	NA	0.0000		9999	1350	0	0	0
2019/01/21 19:58:01	BASE	4.77	332	5.56	326	1.5	100	1.5	161	396	981.6	NA	0.0000		9999	1280	1900	0	0
2019/01/21 19:59:01	BASE	4.53	329	5.56	326	1.5	100	1.5	149	371	981.6	NA	0.0000		9999	1250	0	0	0
2019/01/21 20:00:01	BASE	4.35	328	5.56	326	1.5	100	1.5	153	377	981.6	NA	0.0000		9999	1080	0	0	0
2019/01/21 20:01:01	BASE	4.24	330	5.56	326	1.6	100	1.6	159	388	981.6	NA	0.0000		9999	1050	1870	0	0
2019/01/21 20:02:01	BASE	4.08	330	5.56	326	1.6	100	1.6	158	384	981.6	NA	0.0000		9999	1180	1840	0	0
2019/01/21 20:03:01	BASE	4.00	331	5.56	326	1.6	100	1.6	155	376	981.6	NA	0.0000		9999	620	1710	0	0
2019/01/21 20:04:01	BASE	4.24	333	5.56	326	1.6	100	1.6	152	372	981.6	NA	0.0000		9999	460	1710	0	0
2019/01/21 20:05:01	BASE	4.36	331	5.56	326	1.5	100	1.5	150	369	981.6	NA	0.0000		9999	1210	0	0	0
2019/01/21 20:06:01	BASE	4.41	331	5.45	332	1.5	100	1.5	148	364	981.6	NA	0.0000		9999	1050	1670	0	0
2019/01/21 20:07:01	BASE	4.68	332	5.40	328	1.4	100	1.4	151	370	981.6	NA	0.0000		9999	560	0	0	0
2019/01/21 20:08:01	BASE	4.86	333	5.40	328	1.4	100	1.4	142	348	981.6	NA	0.0000		9999	490	0	0	0
2019/01/21 20:09:01	BASE	4.80	332	5.40	328	1.4	100	1.4	131	323	981.6	NA	0.0000		9999	360	0	0	0
2019/01/21 20:10:01	BASE	4.78	328	5.40	328	1.4	100	1.4	130	322	981.6	NA	0.0000		9000	330	1610	0	0
2019/01/21 20:11:01	BASE	4.61	326	5.40	328	1.3	100	1.3	124	305	981.6	NA	0.0000		9999	330	0	0	0
2019/01/21 20:12:01	BASE	4.18	322	5.40	328	1.3	100	1.3	120	295	981.6	NA	0.0000	UP	9999	260	0	0	0
2019/01/21 20:13:01	BASE	3.94	321	5.40	328	1.3	100	1.3	116	287	981.6	NA	0.0000	UP	9000	300	1570	0	0
2019/01/21 20:14:01	BASE	4.31	326	5.40	328	1.3	100	1.3	126	309	981.6	NA	0.0000	UP	9999	260	1570	0	0
2019/01/21 20:15:01	BASE	4.71	329	5.40	328	1.3	100	1.3	138	338	981.6	NA	0.0000	UP	9999	0	0	0	1870
2019/01/21 20:16:01	BASE	4.62	329	5.40	328	1.2	100	1.2	136	336	981.6	NA	0.0000	UP	9999	390	0	0	0
2019/01/21 20:17:01	BASE	4.39	327	5.25	321	1.2	100	1.2	128	319	981.7	NA	0.0000	UP	9999	1050	0	0	0
2019/01/21 20:18:01	BASE	4.30	326	5.25	321	1.2	100	1.2	125	310	981.7	NA	0.0000	UP	9999	980	1770	0	0
2019/01/21 20:19:01	BASE	4.24	326	5.25	321	1.1	100	1.1	121	299	981.7	NA	0.0000	UP	9999	430	1670	0	0
2019/01/21 20:20:01	BASE	4.28	326	5.25	321	1.1	100	1.1	113	282	981.7	NA	0.0000	UP	9999	980	1610	0	0
2019/01/21 20:21:01	BASE	4.40	326	5.14	305	1.1	100	1.1	119	296	981.7	NA	0.0000	UP	9999	390	1570	0	0
2019/01/21 20:22:01	BASE	4.38	326	5.09	328	1.2	100	1.2	122	303	981.7	NA	0.0000	UP	9999	1180	1710	0	0
2019/01/21 20:23:01	BASE	4.29	328	5.09	328	1.1	100	1.1	125	312	981.7	NA	0.0000	UP	9999	950	1510	0	0
2019/01/21 20:24:01	BASE	3.99	327	4.89	328	1.1	100	1.1	125	314	981.7	NA	0.0000	UP	9999	1350	2330	0	0
2019/01/21 20:25:01	BASE	3.72	329	4.84	328	1.1	100	1.1	125	315	981.7	NA	0.0000	UP	9999	1350	0	0	0
2019/01/21 20:26:01	BASE	3.83	333	4.73	328	1.1	100	1.1	124	312	981.6	NA	0.0000		9999	1410	0	0	0
2019/01/21 20:27:01	BASE	4.06	334	4.73	328	1.1	100	1.1	121	304	981.6	NA	0.0000		9999	1480	0	0	0
2019/01/21 20:28:01	BASE	4.59	333	5.45	332	1.1	100	1.1	121	305	981.6	NA	0.0000		9999	1410	2230	0	0
2019/01/21 20:29:01	BASE	4.85	335	5.45	332	1.1	100	1.1	133	332	981.6	NA	0.0000		9999	2170	0	0	0
2019/01/21 20:30:01	BASE	4.73	337	5.45	332	1.1	100	1.1	149	367	981.7	NA	0.0000		9999	2170	0	0	0
2019/01/21 20:31:01	BASE	4.66	338	5.45	332	1.1	100	1.1	160	390	981.7	NA	0.0000		9999	2000	0	0	0
2019/01/21 20:32:01	BASE	4.60	339	5.45	332	1.1	100	1.1	165	401	981.6	NA	0.0000		9999	2100	0	0	0
2019/01/21 20:33:01	BASE	4.85	338	5.45	343	1.1	100	1.1	167	407	981.7	NA	0.0000		9999	2400	0	0	0
2019/01/21 20:34:01	BASE	4.86	340	5.45	343	1.1	100	1.1	168	408	981.6	NA	0.0000		9999	2230	0	0	0
2019/01/21 20:35:01	BASE	4.91	339	5.45	343	1.1	100	1.1	164	400	981.6	NA	0.0000		9999	2260	0	0	0
2019/01/21 20:36:01	BASE	5.07	335	5.45	343	1.2	100	1.2	154	378	981.7	NA	0.0000		9999	2230	2790	7120	0
2019/01/21 20:37:01	BASE	5.18	335	5.81	339	1.2	100	1.2	141	349	981.7	NA	0.0000		9999	2200	0	0	0
2019/01/21 20:38:01	BASE	5.38	335	6.33	337	1.2	100	1.2	129	324	981.7	NA	0.0000		9999	1970	0	0	0
2019/01/21 20:39:01	BASE	5.58	331	6.38	324	1.2	100	1.2	121	306	981.7	NA	0.0000		9999	2030	0	0	0
2019/01/21 20:40:01	BASE	5.56	328	6.38	324	1.3	100	1.3	113	289	981.7	NA	0.0000		9999	1940	0	0	0
2019/01/21 20:41:01	BASE	5.36	329	6.38	324	1.3	100	1.3	108	278	981.7	NA	0.0000		9999	620	1970	0	0
2019/01/21 20:42:01	BASE	5.63	330	6.58	328	1.3	100	1.3	104	271	981.7	NA	0.0000		9000	660	1870	0	0
2019/01/21 20:43:01	BASE	6.10	329	6.58	328	1.3	100	1.3	101	262	981.7	NA	0.0000		9000	1870	0	0	0
2019/01/21 20:44:01	BASE	6.05	329	6.58	328	1.3	100	1.3	95	249	981.7	NA	0.0000		9000	1870	0	0	0
2019/01/21 20:45:01	BASE	5.83	330	6.58	328	1.3	100	1.3	91	238	981.7	NA	0.0000		9000	1870	0	0	0
2019/01/21 20:46:01	BASE	5.71	330	6.58	328	1.3	100	1.3	89	234	981.7	NA	0.0000		8000	1870	0	0	0
2019/01/21 20:47:01	BASE	5.39	328	6.58	328	1.3	100	1.3	89	233	981.7	NA	0.0000	BR	8000	1870	0	0	0
2019/01/21 20:48:01	BASE	5.27	328	6.58	328	1.3	100	1.3	88	229	981.8	NA	0.0000	BR	8000	1870	0	0	0
2019/01/21 20:49:01	BASE	5.43	329	6.58	328	1.3	100	1.3	87	227	981.8	NA	0.0000	BR	9000	1800	0	0	0
2019/01/21 20:50:01	BASE	5.42	327	6.58	328	1.3	100	1.3	86	224	981.8	NA	0.0000	BR	9000	1770	0	0	0
2019/01/21 20:51:01	BASE	5.14	328	6.58	328	1.4	100	1.4	86	223	981.8	NA	0.0000	BR	9000	1670	0	0	0
2019/01/21 20:52:01	BASE	4.96	330	6.58	328	1.4	100	1.4	84	220	981.8	NA	0.0000	BR	9000	1710	0	0	0
2019/01/21 20:53:01	BASE	5.27	330	6.48	327	1.4	100	1.4	83	218	981.8	NA	0.0000	BR	8000	720	1380	0	0
2019/01/21 20:54:01	BASE	5.60	329	6.48	327	1.4	100	1.4	83	218	981.8	NA	0.0000	BR	9000	1410	0	0	0
2019/01/21 20:55:01	BASE	5.27	330	6.07	331	1.4	100	1.4	83	217	981.8	NA	0.0000	BR	9000	1710	0	0	0
2019/01/21 20:56:01	BASE	5.17	330	6.07	331	1.4	100	1.4	82	214	981.8	NA	0.0000	BR	9000	1710	0	0	0
2019/01/21 20:57:01	BASE	5.07	331	6.07	331	1.4	100	1.4	81	212	981.8	NA	0.0000	BR	9000	1710	0	0	0
2019/01/21 20:58:01	BASE	4.52	333	6.07	331	1.4	100	1.4	79	208	981.9	NA	0.0000	BR	9000	1710	0	0	0
2019/01/21 20:59:01	BASE	4.69	332	6.07	331	1.4	100	1.4	76	202	981.9	NA	0.0000	BR	8000	1840	0	0	0
2019/01/21 21:00:01	BASE	5.07	330	6.07	331	1.4	100	1.4	75	197	981.9	NA	0.0000	BR	9999	1770	0	0	0
2019/01/21 21:01:01	BASE	4.94	332	6.07	331	1.5	100	1.5	75	198	981.9	NA	0.0000	BR	9000	1770	0	0	0
2019/01/21 21:02:01	BASE	4.49	334	6.02	328	1.5	100	1.5	76	202	981.9	NA	0.0000	BR	9000	1770	0	0	0
2019/01/21 21:03:01	BASE	4.47	334	6.02	328	1.5	100	1.5	78	206	981.9	NA	0.0000	BR	9999	1770	0	0	0
2019/01/21 21:04:01	BASE	4.57	334	5.76	326	1.5	100	1.5	80	211	981.8	NA	0.0000	BR	9999	1710	0	0	0
2019/01/21 21:05:01	BASE	4.42	333	5.76	326	1.5	100	1.5	79	209	981.9	NA	0.0000	BR	9999	1710	0	0	0
2019/01/21 21:06:01	BASE	4.52	332	5.76	326	1.5	100	1.5	76	202	981.9	NA	0.0000	BR	9999	1710	0	0	0
2019/01/21 21:07:01	BASE	4.66	331	5.76	326	1.5	100	1.5	74	194	981.9	NA	0.0000	BR	9999	1710	0	0	0
2019/01/21 21:08:01	BASE	4.51	333	5.76	326	1.5	100	1.5	72	192	982.0	NA	0.0000	BR	9999	1670	0	0	0
2019/01/21 21:09:01	BASE	4.36	332	5.76	326	1.6	100	1.6	73	192	982.0	NA	0.0000	BR	9999	1710	0	0	0
2019/01/21 21:10:01	BASE	4.38	330	5.35	342	1.6	100	1.6	71	189	982.0	NA	0.0000	BR	9999	1710	0	0	0
2019/01/21 21:11:01	BASE	4.60	331	5.45	325	1.6	100	1.6	70	186	982.0	NA	0.0000	BR	9999	1710	0	0	0
2019/01/21 21:12:01	BASE	4.84	332	5.45	325	1.6	100	1.6	71	187	982.0	NA	0.0000		9999	1710	0	0	0
2019/01/21 21:13:01	BASE	4.87	334	5.45	325	1.6	100	1.6	71	187	982.0	NA	0.0000		9999	1740	0	0	0
2019/01/21 21:14:01	BASE	5.06	335	5.71	327	1.6	100	1.6	70	185	982.0	NA	0.0000		9999	1710	0	0	0
2019/01/21 21:15:01	BASE	5.41	335	6.17	338	1.6	100	1.6	68	180	982.0	NA	0.0000		9999	1710	0	0	0
2019/01/21 21:16:01	BASE	5.43	335	6.17	338	1.6	100	1.6	66	176	982.0	NA	0.0000		9999	1710	0	0	0
2019/01/21 21:17:01	BASE	5.12	334	6.17	338	1.6	100	1.6	65	172	982.0	NA	0.0000		9999	1710	22410	0	0
2019/01/21 21:18:01	BASE	4.84	336	6.17	338	1.6	100	1.6	65	172	982.1	NA	0.0000		9999	1770	0	0	0
2019/01/21 21:19:01	BASE	4.84	337	6.17	338	1.6	100	1.6	66	175	982.1	NA	0.0000		9000	1770	0	0	0
2019/01/21 21:20:01	BASE	5.09	337	6.17	338	1.6	100	1.6	69	181	982.1	NA	0.0000		9999	1770	0	0	0
2019/01/21 21:21:01	BASE	5.14	338	6.17	338	1.6	100	1.6	71	186	982.1	NA	0.0000		9999	1770	0	0	0
2019/01/21 21:22:01	BASE	4.90	340	6.17	338	1.6	100	1.6	72	189	982.1	NA	0.0000		9999	1740	0	0	0
2019/01/21 21:23:01	BASE	4.95	343	6.17	338	1.6	100	1.6	71	187	982.1	NA	0.0000		9999	1740	0	0	0
2019/01/21 21:24:01	BASE	5.14	343	6.17	338	1.6	100	1.6	68	179	982.1	NA	0.0000		9999	1740	0	0	0
2019/01/21 21:25:01	BASE	5.14	339	5.81	336	1.7	100	1.7	65	172	982.1	NA	0.0000		9999	1740	0	0	0
2019/01/21 21:26:01	BASE	5.32	340	5.71	347	1.7	100	1.7	63	168	982.1	NA	0.0000		9999	1740	0	0	0
2019/01/21 21:27:01	BASE	5.35	344	5.71	347	1.7	100	1.7	62	166	982.1	NA	0.0000		9999	1670	0	0	0
2019/01/21 21:28:01	BASE	5.01	343	5.71	347	1.7	100	1.7	61	164	982.1	NA	0.0000		9999	1610	0	0	0
2019/01/21 21:29:01	BASE	4.92	341	5.71	347	1.7	100	1.7	59	159	982.1	NA	0.0000		9999	1570	0	0	0
2019/01/21 21:30:01	BASE	5.06	339	5.71	347	1.6	100	1.6	57	154	982.1	NA	0.0000		9999	1540	0	0	0
2019/01/21 21:31:01	BASE	5.08	338	5.71	347	1.6	100	1.6	56	152	982.1	NA	0.0000		9999	1610	0	0	0
2019/01/21 21:32:01	BASE	5.29	340	5.92	338	1.6	100	1.6	57	154	982.1	NA	0.0000		9999	1570	0	0	0
2019/01/21 21:33:01	BASE	5.22	341	5.92	338	1.6	100	1.6	60	162	982.1	NA	0.0000		9000	1510	0	0	0
2019/01/21 21:34:01	BASE	5.07	342	5.92	338	1.6	100	1.6	66	176	982.1	NA	0.0000		9999	1510	0	0	0
2019/01/21 21:35:01	BASE	4.98	342	5.92	338	1.6	100	1.6	72	190	982.1	NA	0.0000		9999	1570	0	0	0
2019/01/21 21:36:01	BASE	4.80	343	5.92	338	1.7	100	1.7	77	202	982.1	NA	0.0000		9000	1480	0	0	0
2019/01/21 21:37:01	BASE	4.86	343	5.92	338	1.7	100	1.7	79	207	982.2	NA	0.0000		9999	1180	0	0	0
2019/01/21 21:38:01	BASE	4.90	341	5.92	338	1.7	100	1.7	80	208	982.2	NA	0.0000		9999	720	0	0	0
2019/01/21 21:39:01	BASE	4.82	340	5.92	338	1.7	100	1.7	80	208	982.2	NA	0.0000		9999	1510	0	0	0
2019/01/21 21:40:01	BASE	4.72	340	5.92	338	1.7	100	1.7	81	210	982.2	NA	0.0000		9000	1440	0	0	0
2019/01/21 21:41:01	BASE	4.78	337	5.92	338	1.7	100	1.7	83	215	982.2	NA	0.0000		9999	1380	0	0	0
2019/01/21 21:42:01	BASE	4.76	336	5.45	335	1.7	100	1.7	86	221	982.2	NA	0.0000		9999	1310	0	0	0
2019/01/21 21:43:01	BASE	4.47	337	5.45	335	1.7	100	1.7	90	230	982.2	NA	0.0000		9999	1250	0	0	0
2019/01/21 21:44:01	BASE	4.60	338	5.45	335	1.7	100	1.7	93	236	982.2	NA	0.0000		9999	1310	0	0	0
2019/01/21 21:45:01	BASE	4.92	337	5.45	335	1.7	100	1.7	94	238	982.3	NA	0.0000		9999	1210	0	0	0
2019/01/21 21:46:01	BASE	4.82	337	5.45	335	1.7	100	1.7	96	243	982.3	NA	0.0000		9999	1180	0	0	0
2019/01/21 21:47:01	BASE	4.61	337	5.45	335	1.7	100	1.7	98	247	982.3	NA	0.0000		9999	1180	0	0	0
2019/01/21 21:48:01	BASE	4.56	335	5.45	335	1.7	100	1.7	98	247	982.2	NA	0.0000		9999	950	0	0	0
2019/01/21 21:49:01	BASE	4.38	334	5.45	335	1.7	100	1.7	96	242	982.3	NA	0.0000		9999	1310	0	0	0
2019/01/21 21:50:01	BASE	4.28	331	5.45	335	1.7	100	1.7	95	239	982.3	NA	0.0000		9999	1150	0	0	0
2019/01/21 21:51:01	BASE	4.27	332	5.20	332	1.7	100	1.7	93	235	982.3	NA	0.0000		9999	1280	0	0	0
2019/01/21 21:52:01	BASE	4.18	331	5.20	332	1.8	100	1.8	91	230	982.3	NA	0.0000		9999	1310	0	0	0
2019/01/21 21:53:01	BASE	4.35	330	5.20	332	1.8	100	1.8	89	225	982.3	NA	0.0000		9999	1310	0	0	0
2019/01/21 21:54:01	BASE	4.49	332	5.20	332	1.8	100	1.8	90	225	982.3	NA	0.0000		9999	1280	0	0	0
2019/01/21 21:55:01	BASE	4.39	332	5.04	331	1.8	100	1.8	92	231	982.3	NA	0.0000		9999	1280	0	0	0
2019/01/21 21:56:01	BASE	4.26	332	4.99	330	1.8	100	1.8	96	238	982.3	NA	0.0000		9999	1280	0	0	0
2019/01/21 21:57:01	BASE	4.32	331	4.99	329	1.8	100	1.8	97	240	982.3	NA	0.0000		9999	1350	0	0	0
2019/01/21 21:58:01	BASE	4.56	331	4.99	329	1.8	100	1.8	98	241	982.3	NA	0.0000		9999	1350	0	0	0
2019/01/21 21:59:01	BASE	4.48	333	4.99	328	1.8	100	1.8	104	254	982.3	NA	0.0000		9999	1280	0	0	0
2019/01/21 22:00:01	BASE	4.39	335	4.99	338	1.8	100	1.8	110	267	982.3	NA	0.0000		9999	1250	0	0	0
2019/01/21 22:01:01	BASE	4.49	333	4.99	338	1.8	100	1.8	115	276	982.3	NA	0.0000		9999	1350	0	0	0
2019/01/21 22:02:01	BASE	4.40	332	4.99	338	1.7	100	1.7	113	270	982.3	NA	0.0000		9999	1350	0	0	0
2019/01/21 22:03:01	BASE	4.31	333	4.99	338	1.7	100	1.7	102	247	982.3	NA	0.0000		9999	1280	0	0	0
2019/01/21 22:04:01	BASE	4.50	334	5.25	332	1.7	100	1.7	90	220	982.3	NA	0.0000		9999	1280	0	0	0
2019/01/21 22:05:01	BASE	4.61	336	5.25	332	1.7	100	1.7	80	198	982.3	NA	0.0000		8000	1180	22280	0	0
2019/01/21 22:06:01	BASE	4.48	336	5.25	332	1.7	100	1.7	72	182	982.3	NA	0.0000		9000	1120	0	0	0
2019/01/21 22:07:01	BASE	4.53	335	5.25	332	1.7	100	1.7	67	168	982.3	NA	0.0000		9999	1150	0	0	0
2019/01/21 22:08:01	BASE	4.44	332	5.25	332	1.7	100	1.7	63	159	982.3	NA	0.0000		9999	460	0	0	0
2019/01/21 22:09:01	BASE	4.06	330	5.25	332	1.7	100	1.7	62	157	982.3	NA	0.0000		9999	460	0	0	0
2019/01/21 22:10:01	BASE	3.68	329	5.25	332	1.7	100	1.7	60	152	982.3	NA	0.0000		9999	430	0	0	0
2019/01/21 22:11:01	BASE	3.46	326	5.25	332	1.7	100	1.7	55	142	982.3	NA	0.0000		9999	430	0	0	0
2019/01/21 22:12:01	BASE	3.40	322	5.25	332	1.7	100	1.7	52	135	982.3	NA	0.0000		9999	920	0	0	0
2019/01/21 22:13:01	BASE	3.49	322	5.25	332	1.6	100	1.6	51	131	982.3	NA	0.0000		9999	820	0	0	0
2019/01/21 22:14:01	BASE	3.61	321	5.09	338	1.6	100	1.6	52	134	982.3	NA	0.0000		9000	430	0	0	0
2019/01/21 22:15:01	BASE	3.59	319	5.09	338	1.6	100	1.6	55	142	982.3	NA	0.0000		9999	790	0	0	0
2019/01/21 22:16:01	BASE	3.51	318	5.09	338	1.6	100	1.6	61	157	982.3	NA	0.0000		9999	790	0	0	0
2019/01/21 22:17:01	BASE	3.38	317	4.58	336	1.6	100	1.6	67	170	982.3	NA	0.0000		9999	820	0	0	0
2019/01/21 22:18:01	BASE	3.29	318	4.37	335	1.6	100	1.6	72	181	982.3	NA	0.0000		9000	820	0	0	0
2019/01/21 22:19:01	BASE	3.39	317	3.91	318	1.6	100	1.6	74	185	982.3	NA	0.0000		9000	850	0	0	0
2019/01/21 22:20:01	BASE	3.53	314	3.91	318	1.6	100	1.6	72	181	982.3	NA	0.0000		9999	850	0	0	0
2019/01/21 22:21:01	BASE	3.48	317	3.96	313	1.6	100	1.6	72	179	982.3	NA	0.0000		9999	820	0	0	0
2019/01/21 22:22:01	BASE	3.51	318	3.96	313	1.6	100	1.6	71	176	982.3	NA	0.0000		9999	890	0	0	0
2019/01/21 22:23:01	BASE	3.44	318	3.96	313	1.6	100	1.6	68	171	982.3	NA	0.0000		9999	890	0	0	0
2019/01/21 22:24:01	BASE	3.27	318	3.96	313	1.6	100	1.6	65	163	982.3	NA	0.0000		9999	890	0	0	0
2019/01/21 22:25:01	BASE	3.38	314	3.96	313	1.6	100	1.6	64	162	982.3	NA	0.0000		9999	920	0	0	0
2019/01/21 22:26:01	BASE	3.48	314	3.96	313	1.6	100	1.6	69	173	982.3	NA	0.0000		9999	850	0	0	0
2019/01/21 22:27:01	BASE	3.32	319	3.96	313	1.7	100	1.7	73	181	982.3	NA	0.0000		9000	790	0	0	0
2019/01/21 22:28:01	BASE	3.33	320	3.96	313	1.7	100	1.7	73	182	982.3	NA	0.0000		9999	850	0	0	0
2019/01/21 22:29:01	BASE	3.32	318	3.96	313	1.7	100	1.7	72	180	982.3	NA	0.0000	BR	9000	950	0	0	0
2019/01/21 22:30:01	BASE	3.35	320	3.96	313	1.7	100	1.7	73	181	982.3	NA	0.0000	BR	9000	980	0	0	0
2019/01/21 22:31:01	BASE	3.58	325	4.32	323	1.6	100	1.6	75	186	982.3	NA	0.0000		9999	1020	0	0	0
2019/01/21 22:32:01	BASE	3.49	328	4.32	323	1.6	100	1.6	78	194	982.3	NA	0.0000	BR	9999	980	0	0	0
2019/01/21 22:33:01	BASE	3.62	328	4.58	332	1.6	100	1.6	79	195	982.3	NA	0.0000	BR	9000	1050	0	0	0
2019/01/21 22:34:01	BASE	3.93	328	4.58	332	1.6	100	1.6	77	192	982.3	NA	0.0000	BR	9000	1050	19230	0	0
2019/01/21 22:35:01	BASE	3.81	330	4.58	332	1.6	100	1.6	78	194	982.3	NA	0.0000	BR	9999	1050	0	0	0
2019/01/21 22:36:01	BASE	3.81	333	4.58	341	1.6	100	1.6	79	196	982.3	NA	0.0000	BR	9999	1080	0	0	0
2019/01/21 22:37:01	BASE	4.14	333	4.58	336	1.6	100	1.6	80	199	982.3	NA	0.0000	BR	9999	1020	0	0	0
2019/01/21 22:38:01	BASE	4.43	332	4.89	327	1.6	100	1.6	85	210	982.3	NA	0.0000	BR	9999	1020	0	0	0
2019/01/21 22:39:01	BASE	4.34	335	4.89	327	1.6	100	1.6	93	225	982.3	NA	0.0000	BR	9999	1020	0	0	0
2019/01/21 22:40:01	BASE	4.29	334	4.89	329	1.6	100	1.6	99	237	982.3	NA	0.0000		9999	1380	0	0	0
2019/01/21 22:41:01	BASE	4.56	327	4.89	330	1.7	100	1.7	99	238	982.3	NA	0.0000		9999	2230	0	0	0
2019/01/21 22:42:01	BASE	4.30	327	4.89	330	1.7	100	1.7	98	235	982.3	NA	0.0000		9999	1280	2170	0	0
2019/01/21 22:43:01	BASE	4.22	329	4.89	330	1.7	100	1.7	96	230	982.3	NA	0.0000		9999	1350	5940	0	0
2019/01/21 22:44:01	BASE	4.87	326	5.66	327	1.7	100	1.7	92	222	982.3	NA	0.0000		9999	1310	2070	0	0
2019/01/21 22:45:01	BASE	5.75	324	6.94	327	1.7	100	1.7	88	213	982.3	NA	0.0000		9999	1150	5940	0	0
2019/01/21 22:46:01	BASE	6.28	327	6.94	327	1.7	100	1.7	85	207	982.3	NA	0.0000		9999	1180	0	0	0
2019/01/21 22:47:01	BASE	5.86	328	6.94	327	1.7	100	1.7	82	200	982.3	NA	0.0000		9000	1120	6040	0	0
2019/01/21 22:48:01	BASE	5.49	329	6.94	327	1.7	100	1.7	79	191	982.3	NA	0.0000		9000	1940	0	0	0
2019/01/21 22:49:01	BASE	5.47	328	6.94	327	1.7	100	1.7	77	186	982.4	NA	0.0000		9000	1940	0	0	0
2019/01/21 22:50:01	BASE	5.25	328	6.94	327	1.7	100	1.7	74	180	982.4	NA	0.0000	BR	9000	1970	3410	0	0
2019/01/21 22:51:01	BASE	5.03	330	6.94	327	1.7	100	1.7	72	175	982.4	NA	0.0000	BR	9999	1970	3410	0	0
2019/01/21 22:52:01	BASE	5.12	330	6.94	327	1.7	100	1.7	70	169	982.4	NA	0.0000	BR	9000	3410	6100	0	0
2019/01/21 22:53:01	BASE	5.10	328	6.94	327	1.7	100	1.7	67	164	982.4	NA	0.0000	BR	9999	3280	3970	6100	0
2019/01/21 22:54:01	BASE	4.94	327	6.94	327	1.7	100	1.7	65	159	982.4	NA	0.0000	BR	9999	3220	3970	0	0
2019/01/21 22:55:01	BASE	4.85	325	6.58	326	1.7	100	1.7	63	154	982.4	NA	0.0000	BR	9999	3150	3870	6100	0
2019/01/21 22:56:01	BASE	4.75	324	5.97	333	1.7	100	1.7	61	149	982.4	NA	0.0000	BR	9000	3080	6100	0	0
2019/01/21 22:57:01	BASE	5.06	323	5.97	333	1.7	100	1.7	59	145	982.4	NA	0.0000	BR	8000	1740	2990	0	0
2019/01/21 22:58:01	BASE	5.37	325	6.02	325	1.7	100	1.7	57	141	982.4	NA	0.0000	BR	9000	2920	4460	6170	0
2019/01/21 22:59:01	BASE	4.98	325	6.02	325	1.7	100	1.7	55	137	982.4	NA	0.0000	BR	9999	3510	6100	24250	0
2019/01/21 23:00:01	BASE	4.60	323	6.02	325	1.7	100	1.7	54	135	982.4	NA	0.0000	BR	9999	3120	0	0	0
2019/01/21 23:01:01	BASE	4.39	320	6.02	325	1.7	100	1.7	53	133	982.4	NA	0.0000	BR	9999	3050	0	0	0
2019/01/21 23:02:01	BASE	4.28	318	6.02	325	1.7	100	1.7	53	132	982.4	NA	0.0000	BR	9000	3020	0	0	0
2019/01/21 23:03:01	BASE	4.09	320	6.02	325	1.7	100	1.7	53	131	982.4	NA	0.0000	BR	9000	3120	0	0	0
2019/01/21 23:04:01	BASE	4.14	319	6.02	325	1.7	100	1.7	53	131	982.4	NA	0.0000	BR	9999	3310	0	0	0
2019/01/21 23:05:01	BASE	4.47	317	6.02	325	1.7	100	1.7	52	130	982.4	NA	0.0000	BR	9999	3120	0	0	0
2019/01/21 23:06:01	BASE	4.64	316	6.02	325	1.7	100	1.7	52	129	982.4	NA	0.0000	BR	9999	3310	0	0	0
2019/01/21 23:07:01	BASE	4.58	316	6.02	325	1.7	100	1.7	52	128	982.4	NA	0.0000	BR	9999	3380	3870	0	0
2019/01/21 23:08:01	BASE	4.56	314	5.04	306	1.7	100	1.7	51	126	982.4	NA	0.0000	BR	9999	3540	7420	0	0
2019/01/21 23:09:01	BASE	4.57	313	5.25	320	1.7	100	1.7	50	123	982.4	NA	0.0000	BR	9999	3380	6040	7350	0
2019/01/21 23:10:01	BASE	4.38	315	5.25	320	1.7	100	1.7	50	122	982.4	NA	0.0000	BR	9999	2990	0	0	0
2019/01/21 23:11:01	BASE	4.20	316	5.25	320	1.7	100	1.7	50	123	982.4	NA	0.0000	BR	9999	3410	0	0	0
2019/01/21 23:12:01	BASE	3.83	311	5.25	320	1.7	100	1.7	51	125	982.4	NA	0.0000		9999	3180	0	0	0
2019/01/21 23:13:01	BASE	4.06	308	5.25	320	1.7	100	1.7	51	125	982.4	NA	0.0000		9999	3050	0	0	0
2019/01/21 23:14:01	BASE	4.31	310	5.25	320	1.7	100	1.7	51	126	982.4	NA	0.0000		9999	7320	0	0	0
2019/01/21 23:15:01	BASE	3.94	309	5.25	320	1.7	100	1.7	52	126	982.4	NA	0.0000		9999	3580	0	0	0
2019/01/21 23:16:01	BASE	3.91	309	5.25	320	1.7	100	1.7	52	127	982.4	NA	0.0000		9999	3670	0	0	0
2019/01/21 23:17:01	BASE	3.78	310	5.25	320	1.8	100	1.8	52	127	982.4	NA	0.0000		9999	3870	0	0	0
2019/01/21 23:18:01	BASE	3.64	306	5.25	320	1.8	100	1.8	52	127	982.4	NA	0.0000		9999	4200	0	0	0
2019/01/21 23:19:01	BASE	3.69	297	5.04	310	1.8	100	1.8	52	126	982.3	NA	0.0000		9999	4170	7250	0	0
2019/01/21 23:20:01	BASE	3.81	295	5.04	310	1.8	100	1.8	52	125	982.4	NA	0.0000		9999	4070	6920	7480	0
2019/01/21 23:21:01	BASE	3.91	294	5.04	310	1.8	100	1.8	52	125	982.4	NA	0.0000		9999	3710	6790	7510	0
2019/01/21 23:22:01	BASE	3.83	289	5.04	310	1.8	100	1.8	52	125	982.4	NA	0.0000		9999	3540	4070	0	0
2019/01/21 23:23:01	BASE	3.66	285	4.78	317	1.7	100	1.7	52	126	982.4	NA	0.0000		9999	4200	0	0	0
2019/01/21 23:24:01	BASE	3.57	285	4.78	317	1.7	100	1.7	53	126	982.4	NA	0.0000		9000	4100	0	0	0
2019/01/21 23:25:01	BASE	3.54	287	4.78	317	1.7	100	1.7	53	126	982.4	NA	0.0000	BR	9999	4360	7550	0	0
2019/01/21 23:26:01	BASE	3.44	288	4.58	298	1.7	100	1.7	53	126	982.4	NA	0.0000	BR	9999	7610	0	0	0
2019/01/21 23:27:01	BASE	3.27	289	4.58	298	1.7	100	1.7	53	126	982.4	NA	0.0000	BR	9999	4230	7450	0	0
2019/01/21 23:28:01	BASE	3.05	289	4.58	298	1.7	100	1.7	53	126	982.4	NA	0.0000	BR	9999	4230	7740	0	0
2019/01/21 23:29:01	BASE	3.24	296	4.58	298	1.6	100	1.6	53	126	982.4	NA	0.0000	BR	9000	7740	0	0	0
2019/01/21 23:30:01	BASE	3.33	313	4.58	298	1.6	100	1.6	53	126	982.4	NA	0.0000	BR	9000	7610	0	0	0
2019/01/21 23:31:01	BASE	3.61	337	5.25	349	1.6	100	1.6	53	126	982.4	NA	0.0000	BR	9999	7780	0	0	0
2019/01/21 23:32:01	BASE	4.38	355	5.61	3	1.7	100	1.7	54	126	982.4	NA	0.0000	BR	9999	7680	0	0	0
2019/01/21 23:33:01	BASE	4.75	359	5.61	3	1.8	100	1.8	54	127	982.4	NA	0.0000		9999	7610	0	0	0
2019/01/21 23:34:01	BASE	4.90	357	5.61	3	1.9	100	1.9	54	127	982.4	NA	0.0000		9999	7710	0	0	0
2019/01/21 23:35:01	BASE	4.95	352	6.02	341	2.0	100	2.0	54	126	982.4	NA	0.0000		9999	7970	0	0	0
2019/01/21 23:36:01	BASE	4.79	347	6.02	341	2.1	100	2.1	54	126	982.4	NA	0.0000		9999	7780	0	0	0
2019/01/21 23:37:01	BASE	4.19	343	6.02	341	2.2	100	2.2	54	126	982.4	NA	0.0000		9999	7810	0	0	0
2019/01/21 23:38:01	BASE	3.40	333	6.02	341	2.2	100	2.2	53	125	982.4	NA	0.0000		9999	7910	0	0	0
2019/01/21 23:39:01	BASE	3.70	333	6.02	341	2.2	100	2.2	53	125	982.4	NA	0.0000		9999	8240	0	0	0
2019/01/21 23:40:01	BASE	4.63	349	6.02	341	2.2	100	2.2	53	125	982.4	NA	0.0000		9999	8040	0	0	0
2019/01/21 23:41:01	BASE	5.07	354	6.02	341	2.2	100	2.2	53	125	982.4	NA	0.0000		9999	7940	0	0	0
2019/01/21 23:42:01	BASE	5.41	353	6.17	360	2.2	100	2.2	53	125	982.4	NA	0.0000		9999	8140	0	0	0
2019/01/21 23:43:01	BASE	5.65	351	6.17	360	2.2	100	2.2	53	124	982.4	NA	0.0000		9999	8040	0	0	0
2019/01/21 23:44:01	BASE	5.65	344	6.17	314	2.2	100	2.2	53	124	982.4	NA	0.0000		9999	8170	0	0	0
2019/01/21 23:45:01	BASE	5.58	347	6.17	314	2.2	100	2.2	53	123	982.4	NA	0.0000		9999	8270	0	0	0
2019/01/21 23:46:01	BASE	5.26	351	6.17	314	2.2	100	2.2	53	122	982.4	NA	0.0000		9999	8270	0	0	0
2019/01/21 23:47:01	BASE	5.28	355	6.17	314	2.2	100	2.2	52	122	982.4	NA	0.0000		9999	8170	0	0	0
2019/01/21 23:48:01	BASE	5.52	359	6.17	314	2.2	100	2.2	52	122	982.4	NA	0.0000		9999	6400	8500	0	0
2019/01/21 23:49:01	BASE	5.35	354	6.17	314	2.2	100	2.2	52	122	982.4	NA	0.0000		9999	6370	0	0	0
2019/01/21 23:50:01	BASE	5.22	345	6.17	314	2.3	100	2.3	53	121	982.4	NA	0.0000		9999	4170	6400	0	0
2019/01/21 23:51:01	BASE	4.57	338	6.17	314	2.3	100	2.3	52	121	982.4	NA	0.0000		9999	6400	8400	0	0
2019/01/21 23:52:01	BASE	3.46	323	6.17	314	2.3	100	2.3	52	119	982.4	NA	0.0000		9999	6690	8430	0	0
2019/01/21 23:53:01	BASE	2.79	306	6.17	314	2.2	100	2.2	51	118	982.4	NA	0.0000		9999	8430	0	0	0
2019/01/21 23:54:01	BASE	2.69	301	6.02	360	2.1	100	2.1	51	116	982.4	NA	0.0000		9999	8370	0	0	0
2019/01/21 23:55:01	BASE	3.16	326	6.02	360	2.1	100	2.1	50	115	982.5	NA	0.0000		9999	8300	0	0	0
2019/01/21 23:56:01	BASE	3.23	344	6.02	360	2.0	100	2.0	49	113	982.5	NA	0.0000		9999	8270	0	0	0
2019/01/21 23:57:01	BASE	2.82	354	6.02	360	2.0	100	2.0	48	111	982.4	NA	0.0000		9999	3900	0	0	0
2019/01/21 23:58:01	BASE	3.16	8	5.92	1	2.1	100	2.1	47	109	982.4	NA	0.0000		9999	3740	6920	0	0
2019/01/21 23:59:01	BASE	3.55	9	5.86	354	2.1	100	2.1	46	107	982.4	NA	0.0000		9999	6860	0	0	0